<?xml version="1.0" encoding="UTF-8" standalone="no" ?>
<gpx xmlns="http://www.topografix.com/GPX/1/1" xmlns:xsi="http://www.w3.org/2001/XMLSchema-instance" xsi:schemaLocation="http://www.topografix.com/GPX/1/1 http://www.topografix.com/GPX/1/1/gpx.xsd" version="1.1" creator="VisuGPX - https://www.visugpx.com">
  <metadata>
    <name>Monte Corno (Henne)</name>
    <desc><![CDATA[Rio Bianco, Masi di dentro - Monte Corno (Henne)]]></desc>
  </metadata>
  <trk>
    <name><![CDATA[M_Corno_2014-02-24]]></name>
    <trkseg>
      <trkpt lat="46.94662" lon="11.85654">
        <ele>1375.8</ele>
        <time>2014-02-24T08:03:39Z</time>
      </trkpt>
      <trkpt lat="46.9467" lon="11.85666">
        <ele>1375.8</ele>
        <time>2014-02-24T08:03:56Z</time>
      </trkpt>
      <trkpt lat="46.94671" lon="11.85688">
        <ele>1374.8</ele>
        <time>2014-02-24T08:04:12Z</time>
      </trkpt>
      <trkpt lat="46.9467" lon="11.857">
        <ele>1373.9</ele>
        <time>2014-02-24T08:04:27Z</time>
      </trkpt>
      <trkpt lat="46.94672" lon="11.85702">
        <ele>1373.9</ele>
        <time>2014-02-24T08:04:49Z</time>
      </trkpt>
      <trkpt lat="46.94671" lon="11.85706">
        <ele>1373.9</ele>
        <time>2014-02-24T08:05:01Z</time>
      </trkpt>
      <trkpt lat="46.94671" lon="11.85707">
        <ele>1373.4</ele>
        <time>2014-02-24T08:05:16Z</time>
      </trkpt>
      <trkpt lat="46.94667" lon="11.85705">
        <ele>1374.3</ele>
        <time>2014-02-24T08:05:34Z</time>
      </trkpt>
      <trkpt lat="46.94669" lon="11.85707">
        <ele>1374.3</ele>
        <time>2014-02-24T08:05:48Z</time>
      </trkpt>
      <trkpt lat="46.94666" lon="11.85708">
        <ele>1373.9</ele>
        <time>2014-02-24T08:06:03Z</time>
      </trkpt>
      <trkpt lat="46.94666" lon="11.85707">
        <ele>1373.9</ele>
        <time>2014-02-24T08:06:20Z</time>
      </trkpt>
      <trkpt lat="46.94665" lon="11.8571">
        <ele>1374.3</ele>
        <time>2014-02-24T08:06:40Z</time>
      </trkpt>
      <trkpt lat="46.94666" lon="11.8571">
        <ele>1374.3</ele>
        <time>2014-02-24T08:07:03Z</time>
      </trkpt>
      <trkpt lat="46.94666" lon="11.85712">
        <ele>1374.8</ele>
        <time>2014-02-24T08:07:26Z</time>
      </trkpt>
      <trkpt lat="46.94663" lon="11.8571">
        <ele>1374.8</ele>
        <time>2014-02-24T08:07:52Z</time>
      </trkpt>
      <trkpt lat="46.94667" lon="11.85713">
        <ele>1374.8</ele>
        <time>2014-02-24T08:08:18Z</time>
      </trkpt>
      <trkpt lat="46.94669" lon="11.85714">
        <ele>1375.8</ele>
        <time>2014-02-24T08:08:41Z</time>
      </trkpt>
      <trkpt lat="46.94664" lon="11.85715">
        <ele>1375.3</ele>
        <time>2014-02-24T08:09:10Z</time>
      </trkpt>
      <trkpt lat="46.94666" lon="11.85715">
        <ele>1375.3</ele>
        <time>2014-02-24T08:09:28Z</time>
      </trkpt>
      <trkpt lat="46.94668" lon="11.85714">
        <ele>1375.8</ele>
        <time>2014-02-24T08:09:55Z</time>
      </trkpt>
      <trkpt lat="46.94669" lon="11.85711">
        <ele>1375.8</ele>
        <time>2014-02-24T08:10:18Z</time>
      </trkpt>
      <trkpt lat="46.94665" lon="11.85712">
        <ele>1375.8</ele>
        <time>2014-02-24T08:10:40Z</time>
      </trkpt>
      <trkpt lat="46.94667" lon="11.85714">
        <ele>1375.8</ele>
        <time>2014-02-24T08:11:02Z</time>
      </trkpt>
      <trkpt lat="46.94666" lon="11.85713">
        <ele>1376.3</ele>
        <time>2014-02-24T08:11:19Z</time>
      </trkpt>
      <trkpt lat="46.94669" lon="11.85712">
        <ele>1376.3</ele>
        <time>2014-02-24T08:11:37Z</time>
      </trkpt>
      <trkpt lat="46.94668" lon="11.8571">
        <ele>1376.3</ele>
        <time>2014-02-24T08:11:55Z</time>
      </trkpt>
      <trkpt lat="46.94668" lon="11.85709">
        <ele>1376.8</ele>
        <time>2014-02-24T08:12:10Z</time>
      </trkpt>
      <trkpt lat="46.94668" lon="11.85711">
        <ele>1376.8</ele>
        <time>2014-02-24T08:12:32Z</time>
      </trkpt>
      <trkpt lat="46.94668" lon="11.85712">
        <ele>1376.8</ele>
        <time>2014-02-24T08:12:54Z</time>
      </trkpt>
      <trkpt lat="46.94668" lon="11.85712">
        <ele>1376.3</ele>
        <time>2014-02-24T08:13:14Z</time>
      </trkpt>
      <trkpt lat="46.94667" lon="11.85714">
        <ele>1376.8</ele>
        <time>2014-02-24T08:13:33Z</time>
      </trkpt>
      <trkpt lat="46.94666" lon="11.85711">
        <ele>1377.2</ele>
        <time>2014-02-24T08:13:51Z</time>
      </trkpt>
      <trkpt lat="46.94665" lon="11.85711">
        <ele>1377.2</ele>
        <time>2014-02-24T08:14:07Z</time>
      </trkpt>
      <trkpt lat="46.94665" lon="11.85712">
        <ele>1376.3</ele>
        <time>2014-02-24T08:14:24Z</time>
      </trkpt>
      <trkpt lat="46.94667" lon="11.85711">
        <ele>1376.3</ele>
        <time>2014-02-24T08:14:50Z</time>
      </trkpt>
      <trkpt lat="46.9467" lon="11.85705">
        <ele>1376.3</ele>
        <time>2014-02-24T08:15:23Z</time>
      </trkpt>
      <trkpt lat="46.94672" lon="11.85707">
        <ele>1377.2</ele>
        <time>2014-02-24T08:15:53Z</time>
      </trkpt>
      <trkpt lat="46.94669" lon="11.85709">
        <ele>1376.8</ele>
        <time>2014-02-24T08:16:32Z</time>
      </trkpt>
      <trkpt lat="46.9467" lon="11.85704">
        <ele>1377.2</ele>
        <time>2014-02-24T08:17:17Z</time>
      </trkpt>
      <trkpt lat="46.9467" lon="11.85703">
        <ele>1378.7</ele>
        <time>2014-02-24T08:17:39Z</time>
      </trkpt>
      <trkpt lat="46.9467" lon="11.857">
        <ele>1378.7</ele>
        <time>2014-02-24T08:17:55Z</time>
      </trkpt>
      <trkpt lat="46.94672" lon="11.857">
        <ele>1378.7</ele>
        <time>2014-02-24T08:18:10Z</time>
      </trkpt>
      <trkpt lat="46.94674" lon="11.857">
        <ele>1379.2</ele>
        <time>2014-02-24T08:18:24Z</time>
      </trkpt>
      <trkpt lat="46.94675" lon="11.85685">
        <ele>1379.6</ele>
        <time>2014-02-24T08:18:38Z</time>
      </trkpt>
      <trkpt lat="46.94675" lon="11.8567">
        <ele>1380.6</ele>
        <time>2014-02-24T08:18:52Z</time>
      </trkpt>
      <trkpt lat="46.94673" lon="11.85662">
        <ele>1381.6</ele>
        <time>2014-02-24T08:19:06Z</time>
      </trkpt>
      <trkpt lat="46.94666" lon="11.85654">
        <ele>1381.6</ele>
        <time>2014-02-24T08:19:26Z</time>
      </trkpt>
      <trkpt lat="46.94657" lon="11.85651">
        <ele>1381.6</ele>
        <time>2014-02-24T08:19:39Z</time>
      </trkpt>
      <trkpt lat="46.94655" lon="11.85641">
        <ele>1382.5</ele>
        <time>2014-02-24T08:19:51Z</time>
      </trkpt>
      <trkpt lat="46.94649" lon="11.8564">
        <ele>1383.5</ele>
        <time>2014-02-24T08:20:06Z</time>
      </trkpt>
      <trkpt lat="46.94648" lon="11.8564">
        <ele>1383.5</ele>
        <time>2014-02-24T08:20:20Z</time>
      </trkpt>
      <trkpt lat="46.94643" lon="11.85639">
        <ele>1384.4</ele>
        <time>2014-02-24T08:20:33Z</time>
      </trkpt>
      <trkpt lat="46.9464" lon="11.85634">
        <ele>1384.9</ele>
        <time>2014-02-24T08:20:49Z</time>
      </trkpt>
      <trkpt lat="46.94639" lon="11.85637">
        <ele>1384.9</ele>
        <time>2014-02-24T08:21:04Z</time>
      </trkpt>
      <trkpt lat="46.94639" lon="11.85636">
        <ele>1385.4</ele>
        <time>2014-02-24T08:21:32Z</time>
      </trkpt>
      <trkpt lat="46.94642" lon="11.85637">
        <ele>1385.4</ele>
        <time>2014-02-24T08:21:49Z</time>
      </trkpt>
      <trkpt lat="46.94643" lon="11.85634">
        <ele>1384.9</ele>
        <time>2014-02-24T08:22:04Z</time>
      </trkpt>
      <trkpt lat="46.94643" lon="11.85635">
        <ele>1385.4</ele>
        <time>2014-02-24T08:22:25Z</time>
      </trkpt>
      <trkpt lat="46.94643" lon="11.85636">
        <ele>1385.4</ele>
        <time>2014-02-24T08:22:44Z</time>
      </trkpt>
      <trkpt lat="46.94639" lon="11.85634">
        <ele>1385.9</ele>
        <time>2014-02-24T08:23:01Z</time>
      </trkpt>
      <trkpt lat="46.94639" lon="11.85635">
        <ele>1385.9</ele>
        <time>2014-02-24T08:23:16Z</time>
      </trkpt>
      <trkpt lat="46.94632" lon="11.85633">
        <ele>1386.8</ele>
        <time>2014-02-24T08:23:28Z</time>
      </trkpt>
      <trkpt lat="46.94624" lon="11.85628">
        <ele>1387.8</ele>
        <time>2014-02-24T08:23:42Z</time>
      </trkpt>
      <trkpt lat="46.94622" lon="11.85626">
        <ele>1389.7</ele>
        <time>2014-02-24T08:23:55Z</time>
      </trkpt>
      <trkpt lat="46.94615" lon="11.85621">
        <ele>1389.2</ele>
        <time>2014-02-24T08:24:07Z</time>
      </trkpt>
      <trkpt lat="46.94607" lon="11.85616">
        <ele>1390.2</ele>
        <time>2014-02-24T08:24:20Z</time>
      </trkpt>
      <trkpt lat="46.946" lon="11.85612">
        <ele>1391.7</ele>
        <time>2014-02-24T08:24:34Z</time>
      </trkpt>
      <trkpt lat="46.94588" lon="11.85605">
        <ele>1393.1</ele>
        <time>2014-02-24T08:24:50Z</time>
      </trkpt>
      <trkpt lat="46.94579" lon="11.856">
        <ele>1394.5</ele>
        <time>2014-02-24T08:25:03Z</time>
      </trkpt>
      <trkpt lat="46.9457" lon="11.85596">
        <ele>1396</ele>
        <time>2014-02-24T08:25:16Z</time>
      </trkpt>
      <trkpt lat="46.94558" lon="11.85593">
        <ele>1397.4</ele>
        <time>2014-02-24T08:25:32Z</time>
      </trkpt>
      <trkpt lat="46.94556" lon="11.85591">
        <ele>1397.4</ele>
        <time>2014-02-24T08:25:46Z</time>
      </trkpt>
      <trkpt lat="46.94557" lon="11.85591">
        <ele>1398.4</ele>
        <time>2014-02-24T08:26:08Z</time>
      </trkpt>
      <trkpt lat="46.94555" lon="11.85591">
        <ele>1398.4</ele>
        <time>2014-02-24T08:26:27Z</time>
      </trkpt>
      <trkpt lat="46.94554" lon="11.85588">
        <ele>1398.4</ele>
        <time>2014-02-24T08:26:52Z</time>
      </trkpt>
      <trkpt lat="46.94543" lon="11.85588">
        <ele>1399.8</ele>
        <time>2014-02-24T08:27:03Z</time>
      </trkpt>
      <trkpt lat="46.94532" lon="11.85589">
        <ele>1401.3</ele>
        <time>2014-02-24T08:27:16Z</time>
      </trkpt>
      <trkpt lat="46.94532" lon="11.85589">
        <ele>1401.7</ele>
        <time>2014-02-24T08:27:17Z</time>
      </trkpt>
      <trkpt lat="46.94522" lon="11.85591">
        <ele>1403.7</ele>
        <time>2014-02-24T08:27:29Z</time>
      </trkpt>
      <trkpt lat="46.94514" lon="11.85595">
        <ele>1405.6</ele>
        <time>2014-02-24T08:27:42Z</time>
      </trkpt>
      <trkpt lat="46.94508" lon="11.85599">
        <ele>1407</ele>
        <time>2014-02-24T08:27:52Z</time>
      </trkpt>
      <trkpt lat="46.94498" lon="11.85599">
        <ele>1409.4</ele>
        <time>2014-02-24T08:28:07Z</time>
      </trkpt>
      <trkpt lat="46.94488" lon="11.85599">
        <ele>1412.8</ele>
        <time>2014-02-24T08:28:25Z</time>
      </trkpt>
      <trkpt lat="46.94484" lon="11.85609">
        <ele>1414.2</ele>
        <time>2014-02-24T08:28:37Z</time>
      </trkpt>
      <trkpt lat="46.94481" lon="11.85617">
        <ele>1415.7</ele>
        <time>2014-02-24T08:28:50Z</time>
      </trkpt>
      <trkpt lat="46.94481" lon="11.85624">
        <ele>1416.6</ele>
        <time>2014-02-24T08:29:04Z</time>
      </trkpt>
      <trkpt lat="46.94478" lon="11.85622">
        <ele>1417.6</ele>
        <time>2014-02-24T08:29:18Z</time>
      </trkpt>
      <trkpt lat="46.9447" lon="11.85614">
        <ele>1419</ele>
        <time>2014-02-24T08:29:30Z</time>
      </trkpt>
      <trkpt lat="46.94461" lon="11.85607">
        <ele>1421.4</ele>
        <time>2014-02-24T08:29:42Z</time>
      </trkpt>
      <trkpt lat="46.94452" lon="11.85599">
        <ele>1424.3</ele>
        <time>2014-02-24T08:29:57Z</time>
      </trkpt>
      <trkpt lat="46.94442" lon="11.85596">
        <ele>1427.2</ele>
        <time>2014-02-24T08:30:11Z</time>
      </trkpt>
      <trkpt lat="46.94439" lon="11.85597">
        <ele>1429.1</ele>
        <time>2014-02-24T08:30:27Z</time>
      </trkpt>
      <trkpt lat="46.9443" lon="11.85594">
        <ele>1431.5</ele>
        <time>2014-02-24T08:30:42Z</time>
      </trkpt>
      <trkpt lat="46.94424" lon="11.85589">
        <ele>1434.4</ele>
        <time>2014-02-24T08:30:57Z</time>
      </trkpt>
      <trkpt lat="46.94415" lon="11.85586">
        <ele>1435.9</ele>
        <time>2014-02-24T08:31:15Z</time>
      </trkpt>
      <trkpt lat="46.94407" lon="11.85583">
        <ele>1439.2</ele>
        <time>2014-02-24T08:31:32Z</time>
      </trkpt>
      <trkpt lat="46.94404" lon="11.85588">
        <ele>1441.2</ele>
        <time>2014-02-24T08:31:47Z</time>
      </trkpt>
      <trkpt lat="46.94398" lon="11.85593">
        <ele>1445.5</ele>
        <time>2014-02-24T08:32:00Z</time>
      </trkpt>
      <trkpt lat="46.94389" lon="11.85587">
        <ele>1446.4</ele>
        <time>2014-02-24T08:32:17Z</time>
      </trkpt>
      <trkpt lat="46.94385" lon="11.85577">
        <ele>1449.3</ele>
        <time>2014-02-24T08:32:34Z</time>
      </trkpt>
      <trkpt lat="46.94382" lon="11.85565">
        <ele>1452.2</ele>
        <time>2014-02-24T08:32:52Z</time>
      </trkpt>
      <trkpt lat="46.94388" lon="11.85559">
        <ele>1454.1</ele>
        <time>2014-02-24T08:33:10Z</time>
      </trkpt>
      <trkpt lat="46.94386" lon="11.85554">
        <ele>1455.6</ele>
        <time>2014-02-24T08:33:30Z</time>
      </trkpt>
      <trkpt lat="46.94389" lon="11.85547">
        <ele>1458.9</ele>
        <time>2014-02-24T08:33:46Z</time>
      </trkpt>
      <trkpt lat="46.94397" lon="11.85542">
        <ele>1462.3</ele>
        <time>2014-02-24T08:34:01Z</time>
      </trkpt>
      <trkpt lat="46.94404" lon="11.85533">
        <ele>1463.3</ele>
        <time>2014-02-24T08:34:19Z</time>
      </trkpt>
      <trkpt lat="46.94409" lon="11.85531">
        <ele>1466.2</ele>
        <time>2014-02-24T08:34:38Z</time>
      </trkpt>
      <trkpt lat="46.94417" lon="11.85529">
        <ele>1468.6</ele>
        <time>2014-02-24T08:34:55Z</time>
      </trkpt>
      <trkpt lat="46.94429" lon="11.85521">
        <ele>1471.4</ele>
        <time>2014-02-24T08:35:16Z</time>
      </trkpt>
      <trkpt lat="46.94433" lon="11.85511">
        <ele>1473.4</ele>
        <time>2014-02-24T08:35:32Z</time>
      </trkpt>
      <trkpt lat="46.94439" lon="11.855">
        <ele>1476.2</ele>
        <time>2014-02-24T08:35:52Z</time>
      </trkpt>
      <trkpt lat="46.94445" lon="11.85489">
        <ele>1477.7</ele>
        <time>2014-02-24T08:36:07Z</time>
      </trkpt>
      <trkpt lat="46.94443" lon="11.85478">
        <ele>1478.7</ele>
        <time>2014-02-24T08:36:23Z</time>
      </trkpt>
      <trkpt lat="46.94434" lon="11.85487">
        <ele>1480.1</ele>
        <time>2014-02-24T08:36:39Z</time>
      </trkpt>
      <trkpt lat="46.94427" lon="11.85495">
        <ele>1482</ele>
        <time>2014-02-24T08:36:54Z</time>
      </trkpt>
      <trkpt lat="46.94422" lon="11.85486">
        <ele>1483.4</ele>
        <time>2014-02-24T08:37:06Z</time>
      </trkpt>
      <trkpt lat="46.94428" lon="11.85478">
        <ele>1484.4</ele>
        <time>2014-02-24T08:37:21Z</time>
      </trkpt>
      <trkpt lat="46.94431" lon="11.85467">
        <ele>1486.3</ele>
        <time>2014-02-24T08:37:38Z</time>
      </trkpt>
      <trkpt lat="46.94439" lon="11.85451">
        <ele>1488.3</ele>
        <time>2014-02-24T08:37:55Z</time>
      </trkpt>
      <trkpt lat="46.94439" lon="11.8543">
        <ele>1490.7</ele>
        <time>2014-02-24T08:38:14Z</time>
      </trkpt>
      <trkpt lat="46.94427" lon="11.85433">
        <ele>1492.1</ele>
        <time>2014-02-24T08:38:29Z</time>
      </trkpt>
      <trkpt lat="46.94425" lon="11.85438">
        <ele>1493.1</ele>
        <time>2014-02-24T08:38:35Z</time>
      </trkpt>
      <trkpt lat="46.94416" lon="11.85448">
        <ele>1495.5</ele>
        <time>2014-02-24T08:38:52Z</time>
      </trkpt>
      <trkpt lat="46.94409" lon="11.85453">
        <ele>1498.3</ele>
        <time>2014-02-24T08:39:10Z</time>
      </trkpt>
      <trkpt lat="46.94401" lon="11.85442">
        <ele>1500.8</ele>
        <time>2014-02-24T08:39:29Z</time>
      </trkpt>
      <trkpt lat="46.94402" lon="11.85428">
        <ele>1502.7</ele>
        <time>2014-02-24T08:39:46Z</time>
      </trkpt>
      <trkpt lat="46.94405" lon="11.85427">
        <ele>1503.6</ele>
        <time>2014-02-24T08:40:01Z</time>
      </trkpt>
      <trkpt lat="46.94406" lon="11.85425">
        <ele>1503.6</ele>
        <time>2014-02-24T08:40:21Z</time>
      </trkpt>
      <trkpt lat="46.94394" lon="11.85428">
        <ele>1505.1</ele>
        <time>2014-02-24T08:40:35Z</time>
      </trkpt>
      <trkpt lat="46.94388" lon="11.85431">
        <ele>1508</ele>
        <time>2014-02-24T08:40:49Z</time>
      </trkpt>
      <trkpt lat="46.94381" lon="11.85426">
        <ele>1509.9</ele>
        <time>2014-02-24T08:41:03Z</time>
      </trkpt>
      <trkpt lat="46.9439" lon="11.85409">
        <ele>1513.2</ele>
        <time>2014-02-24T08:41:22Z</time>
      </trkpt>
      <trkpt lat="46.94389" lon="11.85397">
        <ele>1516.1</ele>
        <time>2014-02-24T08:41:39Z</time>
      </trkpt>
      <trkpt lat="46.94381" lon="11.85405">
        <ele>1518.1</ele>
        <time>2014-02-24T08:41:54Z</time>
      </trkpt>
      <trkpt lat="46.9438" lon="11.85399">
        <ele>1521.4</ele>
        <time>2014-02-24T08:42:05Z</time>
      </trkpt>
      <trkpt lat="46.94388" lon="11.85383">
        <ele>1522.4</ele>
        <time>2014-02-24T08:42:24Z</time>
      </trkpt>
      <trkpt lat="46.94375" lon="11.85383">
        <ele>1525.3</ele>
        <time>2014-02-24T08:42:43Z</time>
      </trkpt>
      <trkpt lat="46.94371" lon="11.85385">
        <ele>1527.2</ele>
        <time>2014-02-24T08:42:57Z</time>
      </trkpt>
      <trkpt lat="46.94366" lon="11.85391">
        <ele>1529.6</ele>
        <time>2014-02-24T08:43:13Z</time>
      </trkpt>
      <trkpt lat="46.94361" lon="11.85389">
        <ele>1531.5</ele>
        <time>2014-02-24T08:43:26Z</time>
      </trkpt>
      <trkpt lat="46.94356" lon="11.85383">
        <ele>1533</ele>
        <time>2014-02-24T08:43:40Z</time>
      </trkpt>
      <trkpt lat="46.94355" lon="11.85371">
        <ele>1536.3</ele>
        <time>2014-02-24T08:44:01Z</time>
      </trkpt>
      <trkpt lat="46.9436" lon="11.85365">
        <ele>1538.7</ele>
        <time>2014-02-24T08:44:22Z</time>
      </trkpt>
      <trkpt lat="46.94349" lon="11.85357">
        <ele>1541.1</ele>
        <time>2014-02-24T08:44:43Z</time>
      </trkpt>
      <trkpt lat="46.94347" lon="11.85349">
        <ele>1542.6</ele>
        <time>2014-02-24T08:45:01Z</time>
      </trkpt>
      <trkpt lat="46.94354" lon="11.85349">
        <ele>1543.5</ele>
        <time>2014-02-24T08:45:22Z</time>
      </trkpt>
      <trkpt lat="46.9435" lon="11.85343">
        <ele>1545.5</ele>
        <time>2014-02-24T08:45:40Z</time>
      </trkpt>
      <trkpt lat="46.94347" lon="11.85337">
        <ele>1547.4</ele>
        <time>2014-02-24T08:45:54Z</time>
      </trkpt>
      <trkpt lat="46.9435" lon="11.8533">
        <ele>1551.2</ele>
        <time>2014-02-24T08:46:08Z</time>
      </trkpt>
      <trkpt lat="46.94349" lon="11.85325">
        <ele>1551.2</ele>
        <time>2014-02-24T08:46:22Z</time>
      </trkpt>
      <trkpt lat="46.9434" lon="11.85318">
        <ele>1553.6</ele>
        <time>2014-02-24T08:46:39Z</time>
      </trkpt>
      <trkpt lat="46.94339" lon="11.85311">
        <ele>1555.1</ele>
        <time>2014-02-24T08:46:54Z</time>
      </trkpt>
      <trkpt lat="46.94345" lon="11.85305">
        <ele>1557.5</ele>
        <time>2014-02-24T08:47:10Z</time>
      </trkpt>
      <trkpt lat="46.94353" lon="11.85299">
        <ele>1558.9</ele>
        <time>2014-02-24T08:47:25Z</time>
      </trkpt>
      <trkpt lat="46.94347" lon="11.8529">
        <ele>1561.3</ele>
        <time>2014-02-24T08:47:39Z</time>
      </trkpt>
      <trkpt lat="46.94339" lon="11.85283">
        <ele>1563.7</ele>
        <time>2014-02-24T08:47:56Z</time>
      </trkpt>
      <trkpt lat="46.94334" lon="11.85282">
        <ele>1567.1</ele>
        <time>2014-02-24T08:48:09Z</time>
      </trkpt>
      <trkpt lat="46.94325" lon="11.85277">
        <ele>1567.1</ele>
        <time>2014-02-24T08:48:26Z</time>
      </trkpt>
      <trkpt lat="46.94329" lon="11.8527">
        <ele>1570</ele>
        <time>2014-02-24T08:48:42Z</time>
      </trkpt>
      <trkpt lat="46.94333" lon="11.85263">
        <ele>1572.4</ele>
        <time>2014-02-24T08:49:00Z</time>
      </trkpt>
      <trkpt lat="46.94334" lon="11.85254">
        <ele>1574.3</ele>
        <time>2014-02-24T08:49:14Z</time>
      </trkpt>
      <trkpt lat="46.94322" lon="11.85247">
        <ele>1576.7</ele>
        <time>2014-02-24T08:49:31Z</time>
      </trkpt>
      <trkpt lat="46.94319" lon="11.85255">
        <ele>1578.6</ele>
        <time>2014-02-24T08:49:46Z</time>
      </trkpt>
      <trkpt lat="46.94312" lon="11.85261">
        <ele>1580.5</ele>
        <time>2014-02-24T08:50:02Z</time>
      </trkpt>
      <trkpt lat="46.9431" lon="11.85252">
        <ele>1582.5</ele>
        <time>2014-02-24T08:50:16Z</time>
      </trkpt>
      <trkpt lat="46.9432" lon="11.85233">
        <ele>1585.3</ele>
        <time>2014-02-24T08:50:37Z</time>
      </trkpt>
      <trkpt lat="46.94311" lon="11.8523">
        <ele>1587.8</ele>
        <time>2014-02-24T08:50:55Z</time>
      </trkpt>
      <trkpt lat="46.94302" lon="11.8523">
        <ele>1590.6</ele>
        <time>2014-02-24T08:51:16Z</time>
      </trkpt>
      <trkpt lat="46.94305" lon="11.8522">
        <ele>1593</ele>
        <time>2014-02-24T08:51:34Z</time>
      </trkpt>
      <trkpt lat="46.94312" lon="11.85207">
        <ele>1595</ele>
        <time>2014-02-24T08:51:54Z</time>
      </trkpt>
      <trkpt lat="46.94307" lon="11.85204">
        <ele>1598.3</ele>
        <time>2014-02-24T08:52:10Z</time>
      </trkpt>
      <trkpt lat="46.94298" lon="11.8521">
        <ele>1598.3</ele>
        <time>2014-02-24T08:52:27Z</time>
      </trkpt>
      <trkpt lat="46.94293" lon="11.85202">
        <ele>1599.8</ele>
        <time>2014-02-24T08:52:42Z</time>
      </trkpt>
      <trkpt lat="46.94297" lon="11.85196">
        <ele>1602.7</ele>
        <time>2014-02-24T08:53:01Z</time>
      </trkpt>
      <trkpt lat="46.94286" lon="11.85188">
        <ele>1605.1</ele>
        <time>2014-02-24T08:53:19Z</time>
      </trkpt>
      <trkpt lat="46.94282" lon="11.85183">
        <ele>1607.5</ele>
        <time>2014-02-24T08:53:37Z</time>
      </trkpt>
      <trkpt lat="46.94275" lon="11.85171">
        <ele>1610.8</ele>
        <time>2014-02-24T08:54:00Z</time>
      </trkpt>
      <trkpt lat="46.94272" lon="11.85164">
        <ele>1613.2</ele>
        <time>2014-02-24T08:54:18Z</time>
      </trkpt>
      <trkpt lat="46.94267" lon="11.85159">
        <ele>1616.1</ele>
        <time>2014-02-24T08:54:36Z</time>
      </trkpt>
      <trkpt lat="46.94276" lon="11.85155">
        <ele>1618</ele>
        <time>2014-02-24T08:54:56Z</time>
      </trkpt>
      <trkpt lat="46.9428" lon="11.85146">
        <ele>1619.5</ele>
        <time>2014-02-24T08:55:18Z</time>
      </trkpt>
      <trkpt lat="46.94274" lon="11.85135">
        <ele>1621.9</ele>
        <time>2014-02-24T08:55:35Z</time>
      </trkpt>
      <trkpt lat="46.94268" lon="11.85131">
        <ele>1623.8</ele>
        <time>2014-02-24T08:55:52Z</time>
      </trkpt>
      <trkpt lat="46.94272" lon="11.85119">
        <ele>1627.7</ele>
        <time>2014-02-24T08:56:12Z</time>
      </trkpt>
      <trkpt lat="46.94282" lon="11.85108">
        <ele>1628.6</ele>
        <time>2014-02-24T08:56:32Z</time>
      </trkpt>
      <trkpt lat="46.94285" lon="11.85097">
        <ele>1630.1</ele>
        <time>2014-02-24T08:56:50Z</time>
      </trkpt>
      <trkpt lat="46.94278" lon="11.85104">
        <ele>1630.5</ele>
        <time>2014-02-24T08:57:09Z</time>
      </trkpt>
      <trkpt lat="46.94279" lon="11.85109">
        <ele>1630.5</ele>
        <time>2014-02-24T08:57:25Z</time>
      </trkpt>
      <trkpt lat="46.94277" lon="11.85109">
        <ele>1633.4</ele>
        <time>2014-02-24T08:57:33Z</time>
      </trkpt>
      <trkpt lat="46.94275" lon="11.85114">
        <ele>1630.5</ele>
        <time>2014-02-24T08:57:52Z</time>
      </trkpt>
      <trkpt lat="46.94273" lon="11.85106">
        <ele>1631</ele>
        <time>2014-02-24T08:58:23Z</time>
      </trkpt>
      <trkpt lat="46.94268" lon="11.85109">
        <ele>1631</ele>
        <time>2014-02-24T08:58:46Z</time>
      </trkpt>
      <trkpt lat="46.94259" lon="11.85106">
        <ele>1632.9</ele>
        <time>2014-02-24T08:58:58Z</time>
      </trkpt>
      <trkpt lat="46.94252" lon="11.85102">
        <ele>1634.9</ele>
        <time>2014-02-24T08:59:15Z</time>
      </trkpt>
      <trkpt lat="46.9425" lon="11.85099">
        <ele>1636.3</ele>
        <time>2014-02-24T08:59:21Z</time>
      </trkpt>
      <trkpt lat="46.94245" lon="11.85094">
        <ele>1639.2</ele>
        <time>2014-02-24T08:59:34Z</time>
      </trkpt>
      <trkpt lat="46.94238" lon="11.85086">
        <ele>1640.6</ele>
        <time>2014-02-24T08:59:52Z</time>
      </trkpt>
      <trkpt lat="46.94234" lon="11.85075">
        <ele>1641.6</ele>
        <time>2014-02-24T09:00:08Z</time>
      </trkpt>
      <trkpt lat="46.94225" lon="11.85066">
        <ele>1644</ele>
        <time>2014-02-24T09:00:26Z</time>
      </trkpt>
      <trkpt lat="46.94217" lon="11.85059">
        <ele>1645.4</ele>
        <time>2014-02-24T09:00:39Z</time>
      </trkpt>
      <trkpt lat="46.94209" lon="11.85061">
        <ele>1647.8</ele>
        <time>2014-02-24T09:00:56Z</time>
      </trkpt>
      <trkpt lat="46.94201" lon="11.85058">
        <ele>1649.8</ele>
        <time>2014-02-24T09:01:10Z</time>
      </trkpt>
      <trkpt lat="46.94191" lon="11.85056">
        <ele>1651.2</ele>
        <time>2014-02-24T09:01:28Z</time>
      </trkpt>
      <trkpt lat="46.94179" lon="11.85059">
        <ele>1651.7</ele>
        <time>2014-02-24T09:01:42Z</time>
      </trkpt>
      <trkpt lat="46.94176" lon="11.8506">
        <ele>1652.2</ele>
        <time>2014-02-24T09:01:55Z</time>
      </trkpt>
      <trkpt lat="46.9417" lon="11.8506">
        <ele>1652.6</ele>
        <time>2014-02-24T09:02:08Z</time>
      </trkpt>
      <trkpt lat="46.94157" lon="11.85054">
        <ele>1654.6</ele>
        <time>2014-02-24T09:02:24Z</time>
      </trkpt>
      <trkpt lat="46.9415" lon="11.85051">
        <ele>1656</ele>
        <time>2014-02-24T09:02:39Z</time>
      </trkpt>
      <trkpt lat="46.94139" lon="11.85043">
        <ele>1657.9</ele>
        <time>2014-02-24T09:02:52Z</time>
      </trkpt>
      <trkpt lat="46.94135" lon="11.8504">
        <ele>1658.4</ele>
        <time>2014-02-24T09:02:57Z</time>
      </trkpt>
      <trkpt lat="46.94128" lon="11.85029">
        <ele>1659.8</ele>
        <time>2014-02-24T09:03:12Z</time>
      </trkpt>
      <trkpt lat="46.94124" lon="11.85024">
        <ele>1661.8</ele>
        <time>2014-02-24T09:03:21Z</time>
      </trkpt>
      <trkpt lat="46.94117" lon="11.85019">
        <ele>1661.8</ele>
        <time>2014-02-24T09:03:29Z</time>
      </trkpt>
      <trkpt lat="46.94103" lon="11.85014">
        <ele>1663.7</ele>
        <time>2014-02-24T09:03:43Z</time>
      </trkpt>
      <trkpt lat="46.941" lon="11.85013">
        <ele>1664.2</ele>
        <time>2014-02-24T09:03:47Z</time>
      </trkpt>
      <trkpt lat="46.94093" lon="11.85003">
        <ele>1666.1</ele>
        <time>2014-02-24T09:04:01Z</time>
      </trkpt>
      <trkpt lat="46.94085" lon="11.84994">
        <ele>1667.1</ele>
        <time>2014-02-24T09:04:13Z</time>
      </trkpt>
      <trkpt lat="46.94077" lon="11.84987">
        <ele>1668.5</ele>
        <time>2014-02-24T09:04:27Z</time>
      </trkpt>
      <trkpt lat="46.94066" lon="11.8498">
        <ele>1669.9</ele>
        <time>2014-02-24T09:04:43Z</time>
      </trkpt>
      <trkpt lat="46.94057" lon="11.84972">
        <ele>1671.9</ele>
        <time>2014-02-24T09:04:58Z</time>
      </trkpt>
      <trkpt lat="46.94048" lon="11.84969">
        <ele>1672.8</ele>
        <time>2014-02-24T09:05:11Z</time>
      </trkpt>
      <trkpt lat="46.94039" lon="11.84968">
        <ele>1674.8</ele>
        <time>2014-02-24T09:05:26Z</time>
      </trkpt>
      <trkpt lat="46.9403" lon="11.84968">
        <ele>1676.2</ele>
        <time>2014-02-24T09:05:41Z</time>
      </trkpt>
      <trkpt lat="46.9402" lon="11.84971">
        <ele>1678.1</ele>
        <time>2014-02-24T09:05:55Z</time>
      </trkpt>
      <trkpt lat="46.94011" lon="11.8497">
        <ele>1680</ele>
        <time>2014-02-24T09:06:10Z</time>
      </trkpt>
      <trkpt lat="46.94006" lon="11.84963">
        <ele>1681.5</ele>
        <time>2014-02-24T09:06:21Z</time>
      </trkpt>
      <trkpt lat="46.94005" lon="11.84956">
        <ele>1682.4</ele>
        <time>2014-02-24T09:06:35Z</time>
      </trkpt>
      <trkpt lat="46.94003" lon="11.84949">
        <ele>1682.9</ele>
        <time>2014-02-24T09:06:49Z</time>
      </trkpt>
      <trkpt lat="46.94002" lon="11.84933">
        <ele>1684.8</ele>
        <time>2014-02-24T09:07:05Z</time>
      </trkpt>
      <trkpt lat="46.94001" lon="11.84921">
        <ele>1685.8</ele>
        <time>2014-02-24T09:07:24Z</time>
      </trkpt>
      <trkpt lat="46.93998" lon="11.84921">
        <ele>1685.8</ele>
        <time>2014-02-24T09:07:44Z</time>
      </trkpt>
      <trkpt lat="46.93995" lon="11.84922">
        <ele>1685.8</ele>
        <time>2014-02-24T09:08:00Z</time>
      </trkpt>
      <trkpt lat="46.93994" lon="11.84922">
        <ele>1685.8</ele>
        <time>2014-02-24T09:08:15Z</time>
      </trkpt>
      <trkpt lat="46.93992" lon="11.84922">
        <ele>1685.8</ele>
        <time>2014-02-24T09:08:27Z</time>
      </trkpt>
      <trkpt lat="46.93981" lon="11.84923">
        <ele>1686.3</ele>
        <time>2014-02-24T09:08:41Z</time>
      </trkpt>
      <trkpt lat="46.93968" lon="11.84917">
        <ele>1686.8</ele>
        <time>2014-02-24T09:08:56Z</time>
      </trkpt>
      <trkpt lat="46.93967" lon="11.84917">
        <ele>1686.3</ele>
        <time>2014-02-24T09:08:59Z</time>
      </trkpt>
      <trkpt lat="46.93963" lon="11.84914">
        <ele>1686.8</ele>
        <time>2014-02-24T09:09:04Z</time>
      </trkpt>
      <trkpt lat="46.9396" lon="11.84912">
        <ele>1686.8</ele>
        <time>2014-02-24T09:09:08Z</time>
      </trkpt>
      <trkpt lat="46.93943" lon="11.8491">
        <ele>1687.7</ele>
        <time>2014-02-24T09:09:22Z</time>
      </trkpt>
      <trkpt lat="46.93933" lon="11.84912">
        <ele>1688.7</ele>
        <time>2014-02-24T09:09:34Z</time>
      </trkpt>
      <trkpt lat="46.93924" lon="11.84911">
        <ele>1690.1</ele>
        <time>2014-02-24T09:09:47Z</time>
      </trkpt>
      <trkpt lat="46.93914" lon="11.8491">
        <ele>1691.6</ele>
        <time>2014-02-24T09:10:00Z</time>
      </trkpt>
      <trkpt lat="46.93902" lon="11.84904">
        <ele>1693.5</ele>
        <time>2014-02-24T09:10:16Z</time>
      </trkpt>
      <trkpt lat="46.9389" lon="11.84898">
        <ele>1694.9</ele>
        <time>2014-02-24T09:10:34Z</time>
      </trkpt>
      <trkpt lat="46.93888" lon="11.84898">
        <ele>1695.4</ele>
        <time>2014-02-24T09:10:37Z</time>
      </trkpt>
      <trkpt lat="46.93879" lon="11.84895">
        <ele>1696.9</ele>
        <time>2014-02-24T09:10:50Z</time>
      </trkpt>
      <trkpt lat="46.93867" lon="11.84893">
        <ele>1697.3</ele>
        <time>2014-02-24T09:11:04Z</time>
      </trkpt>
      <trkpt lat="46.93859" lon="11.84896">
        <ele>1697.8</ele>
        <time>2014-02-24T09:11:16Z</time>
      </trkpt>
      <trkpt lat="46.93854" lon="11.84899">
        <ele>1698.8</ele>
        <time>2014-02-24T09:11:24Z</time>
      </trkpt>
      <trkpt lat="46.93843" lon="11.84901">
        <ele>1702.2</ele>
        <time>2014-02-24T09:11:39Z</time>
      </trkpt>
      <trkpt lat="46.9384" lon="11.84901">
        <ele>1700.7</ele>
        <time>2014-02-24T09:11:41Z</time>
      </trkpt>
      <trkpt lat="46.93829" lon="11.84897">
        <ele>1702.2</ele>
        <time>2014-02-24T09:11:55Z</time>
      </trkpt>
      <trkpt lat="46.93819" lon="11.84895">
        <ele>1703.1</ele>
        <time>2014-02-24T09:12:10Z</time>
      </trkpt>
      <trkpt lat="46.93814" lon="11.84894">
        <ele>1703.6</ele>
        <time>2014-02-24T09:12:29Z</time>
      </trkpt>
      <trkpt lat="46.93803" lon="11.84893">
        <ele>1704.6</ele>
        <time>2014-02-24T09:12:44Z</time>
      </trkpt>
      <trkpt lat="46.93794" lon="11.8489">
        <ele>1706</ele>
        <time>2014-02-24T09:12:57Z</time>
      </trkpt>
      <trkpt lat="46.93789" lon="11.84887">
        <ele>1706.5</ele>
        <time>2014-02-24T09:13:11Z</time>
      </trkpt>
      <trkpt lat="46.9378" lon="11.84885">
        <ele>1706</ele>
        <time>2014-02-24T09:13:26Z</time>
      </trkpt>
      <trkpt lat="46.93772" lon="11.84871">
        <ele>1706.5</ele>
        <time>2014-02-24T09:13:41Z</time>
      </trkpt>
      <trkpt lat="46.93761" lon="11.8485">
        <ele>1705.5</ele>
        <time>2014-02-24T09:14:01Z</time>
      </trkpt>
      <trkpt lat="46.93749" lon="11.84845">
        <ele>1706</ele>
        <time>2014-02-24T09:14:17Z</time>
      </trkpt>
      <trkpt lat="46.93748" lon="11.84845">
        <ele>1706.5</ele>
        <time>2014-02-24T09:14:18Z</time>
      </trkpt>
      <trkpt lat="46.93737" lon="11.84841">
        <ele>1707</ele>
        <time>2014-02-24T09:14:33Z</time>
      </trkpt>
      <trkpt lat="46.93728" lon="11.84841">
        <ele>1707.9</ele>
        <time>2014-02-24T09:14:48Z</time>
      </trkpt>
      <trkpt lat="46.93727" lon="11.8484">
        <ele>1707.9</ele>
        <time>2014-02-24T09:14:50Z</time>
      </trkpt>
      <trkpt lat="46.93715" lon="11.84832">
        <ele>1707.4</ele>
        <time>2014-02-24T09:15:06Z</time>
      </trkpt>
      <trkpt lat="46.93705" lon="11.84827">
        <ele>1707.9</ele>
        <time>2014-02-24T09:15:15Z</time>
      </trkpt>
      <trkpt lat="46.93689" lon="11.84822">
        <ele>1708.4</ele>
        <time>2014-02-24T09:15:30Z</time>
      </trkpt>
      <trkpt lat="46.93676" lon="11.84822">
        <ele>1708.9</ele>
        <time>2014-02-24T09:15:45Z</time>
      </trkpt>
      <trkpt lat="46.93668" lon="11.84825">
        <ele>1709.8</ele>
        <time>2014-02-24T09:15:59Z</time>
      </trkpt>
      <trkpt lat="46.93658" lon="11.84824">
        <ele>1708.4</ele>
        <time>2014-02-24T09:16:07Z</time>
      </trkpt>
      <trkpt lat="46.93636" lon="11.84822">
        <ele>1707.4</ele>
        <time>2014-02-24T09:16:23Z</time>
      </trkpt>
      <trkpt lat="46.93622" lon="11.84822">
        <ele>1707.4</ele>
        <time>2014-02-24T09:16:39Z</time>
      </trkpt>
      <trkpt lat="46.93607" lon="11.84817">
        <ele>1707</ele>
        <time>2014-02-24T09:16:55Z</time>
      </trkpt>
      <trkpt lat="46.93604" lon="11.84816">
        <ele>1707</ele>
        <time>2014-02-24T09:17:09Z</time>
      </trkpt>
      <trkpt lat="46.93589" lon="11.84812">
        <ele>1707</ele>
        <time>2014-02-24T09:17:21Z</time>
      </trkpt>
      <trkpt lat="46.93577" lon="11.84813">
        <ele>1707.9</ele>
        <time>2014-02-24T09:17:37Z</time>
      </trkpt>
      <trkpt lat="46.93572" lon="11.84816">
        <ele>1707.9</ele>
        <time>2014-02-24T09:17:46Z</time>
      </trkpt>
      <trkpt lat="46.9357" lon="11.84817">
        <ele>1707.9</ele>
        <time>2014-02-24T09:18:04Z</time>
      </trkpt>
      <trkpt lat="46.93568" lon="11.84817">
        <ele>1707.9</ele>
        <time>2014-02-24T09:18:25Z</time>
      </trkpt>
      <trkpt lat="46.93576" lon="11.84801">
        <ele>1707.9</ele>
        <time>2014-02-24T09:18:41Z</time>
      </trkpt>
      <trkpt lat="46.93576" lon="11.84806">
        <ele>1707.9</ele>
        <time>2014-02-24T09:19:04Z</time>
      </trkpt>
      <trkpt lat="46.93571" lon="11.84815">
        <ele>1707.9</ele>
        <time>2014-02-24T09:19:28Z</time>
      </trkpt>
      <trkpt lat="46.93571" lon="11.84822">
        <ele>1708.4</ele>
        <time>2014-02-24T09:19:46Z</time>
      </trkpt>
      <trkpt lat="46.93574" lon="11.84821">
        <ele>1708.4</ele>
        <time>2014-02-24T09:20:11Z</time>
      </trkpt>
      <trkpt lat="46.93573" lon="11.84818">
        <ele>1707.9</ele>
        <time>2014-02-24T09:20:30Z</time>
      </trkpt>
      <trkpt lat="46.93573" lon="11.84814">
        <ele>1708.4</ele>
        <time>2014-02-24T09:20:53Z</time>
      </trkpt>
      <trkpt lat="46.9357" lon="11.84818">
        <ele>1707.9</ele>
        <time>2014-02-24T09:21:04Z</time>
      </trkpt>
      <trkpt lat="46.9357" lon="11.84821">
        <ele>1707.9</ele>
        <time>2014-02-24T09:21:20Z</time>
      </trkpt>
      <trkpt lat="46.93571" lon="11.84822">
        <ele>1708.4</ele>
        <time>2014-02-24T09:21:35Z</time>
      </trkpt>
      <trkpt lat="46.93568" lon="11.8482">
        <ele>1707</ele>
        <time>2014-02-24T09:21:52Z</time>
      </trkpt>
      <trkpt lat="46.93565" lon="11.84825">
        <ele>1707</ele>
        <time>2014-02-24T09:22:18Z</time>
      </trkpt>
      <trkpt lat="46.93566" lon="11.84825">
        <ele>1708.4</ele>
        <time>2014-02-24T09:22:57Z</time>
      </trkpt>
      <trkpt lat="46.93568" lon="11.84828">
        <ele>1707.9</ele>
        <time>2014-02-24T09:23:02Z</time>
      </trkpt>
      <trkpt lat="46.93568" lon="11.84837">
        <ele>1707.9</ele>
        <time>2014-02-24T09:23:08Z</time>
      </trkpt>
      <trkpt lat="46.93566" lon="11.84839">
        <ele>1707.9</ele>
        <time>2014-02-24T09:23:12Z</time>
      </trkpt>
      <trkpt lat="46.93557" lon="11.84843">
        <ele>1708.4</ele>
        <time>2014-02-24T09:23:21Z</time>
      </trkpt>
      <trkpt lat="46.93544" lon="11.84836">
        <ele>1709.8</ele>
        <time>2014-02-24T09:23:36Z</time>
      </trkpt>
      <trkpt lat="46.93539" lon="11.84832">
        <ele>1710.8</ele>
        <time>2014-02-24T09:23:42Z</time>
      </trkpt>
      <trkpt lat="46.93536" lon="11.84831">
        <ele>1711.3</ele>
        <time>2014-02-24T09:23:45Z</time>
      </trkpt>
      <trkpt lat="46.93528" lon="11.84828">
        <ele>1711.8</ele>
        <time>2014-02-24T09:23:53Z</time>
      </trkpt>
      <trkpt lat="46.93522" lon="11.84823">
        <ele>1712.7</ele>
        <time>2014-02-24T09:24:00Z</time>
      </trkpt>
      <trkpt lat="46.93519" lon="11.84822">
        <ele>1713.2</ele>
        <time>2014-02-24T09:24:04Z</time>
      </trkpt>
      <trkpt lat="46.9351" lon="11.84818">
        <ele>1714.7</ele>
        <time>2014-02-24T09:24:17Z</time>
      </trkpt>
      <trkpt lat="46.93501" lon="11.84814">
        <ele>1715.6</ele>
        <time>2014-02-24T09:24:29Z</time>
      </trkpt>
      <trkpt lat="46.93494" lon="11.84809">
        <ele>1716.6</ele>
        <time>2014-02-24T09:24:40Z</time>
      </trkpt>
      <trkpt lat="46.93483" lon="11.84806">
        <ele>1718</ele>
        <time>2014-02-24T09:24:52Z</time>
      </trkpt>
      <trkpt lat="46.93475" lon="11.84801">
        <ele>1715.1</ele>
        <time>2014-02-24T09:25:01Z</time>
      </trkpt>
      <trkpt lat="46.93474" lon="11.84801">
        <ele>1719.9</ele>
        <time>2014-02-24T09:25:02Z</time>
      </trkpt>
      <trkpt lat="46.93464" lon="11.84796">
        <ele>1721.4</ele>
        <time>2014-02-24T09:25:16Z</time>
      </trkpt>
      <trkpt lat="46.93461" lon="11.84795">
        <ele>1720.4</ele>
        <time>2014-02-24T09:25:18Z</time>
      </trkpt>
      <trkpt lat="46.93449" lon="11.84793">
        <ele>1722.3</ele>
        <time>2014-02-24T09:25:31Z</time>
      </trkpt>
      <trkpt lat="46.93438" lon="11.84788">
        <ele>1723.8</ele>
        <time>2014-02-24T09:25:43Z</time>
      </trkpt>
      <trkpt lat="46.93426" lon="11.84785">
        <ele>1725.7</ele>
        <time>2014-02-24T09:25:56Z</time>
      </trkpt>
      <trkpt lat="46.93413" lon="11.8478">
        <ele>1727.2</ele>
        <time>2014-02-24T09:26:08Z</time>
      </trkpt>
      <trkpt lat="46.93405" lon="11.84775">
        <ele>1729.1</ele>
        <time>2014-02-24T09:26:19Z</time>
      </trkpt>
      <trkpt lat="46.934" lon="11.84773">
        <ele>1730</ele>
        <time>2014-02-24T09:26:27Z</time>
      </trkpt>
      <trkpt lat="46.93395" lon="11.8477">
        <ele>1731.9</ele>
        <time>2014-02-24T09:26:38Z</time>
      </trkpt>
      <trkpt lat="46.93386" lon="11.84766">
        <ele>1732.9</ele>
        <time>2014-02-24T09:26:49Z</time>
      </trkpt>
      <trkpt lat="46.93386" lon="11.84766">
        <ele>1733.4</ele>
        <time>2014-02-24T09:26:50Z</time>
      </trkpt>
      <trkpt lat="46.93382" lon="11.84763">
        <ele>1733.9</ele>
        <time>2014-02-24T09:26:55Z</time>
      </trkpt>
      <trkpt lat="46.9338" lon="11.84761">
        <ele>1734.4</ele>
        <time>2014-02-24T09:26:58Z</time>
      </trkpt>
      <trkpt lat="46.93374" lon="11.84756">
        <ele>1735.3</ele>
        <time>2014-02-24T09:27:07Z</time>
      </trkpt>
      <trkpt lat="46.93365" lon="11.84747">
        <ele>1737.2</ele>
        <time>2014-02-24T09:27:20Z</time>
      </trkpt>
      <trkpt lat="46.93362" lon="11.84744">
        <ele>1737.7</ele>
        <time>2014-02-24T09:27:24Z</time>
      </trkpt>
      <trkpt lat="46.93354" lon="11.8474">
        <ele>1738.7</ele>
        <time>2014-02-24T09:27:33Z</time>
      </trkpt>
      <trkpt lat="46.9335" lon="11.84736">
        <ele>1739.2</ele>
        <time>2014-02-24T09:27:38Z</time>
      </trkpt>
      <trkpt lat="46.93347" lon="11.84735">
        <ele>1739.6</ele>
        <time>2014-02-24T09:27:42Z</time>
      </trkpt>
      <trkpt lat="46.93342" lon="11.84731">
        <ele>1740.6</ele>
        <time>2014-02-24T09:27:49Z</time>
      </trkpt>
      <trkpt lat="46.93335" lon="11.84726">
        <ele>1741.6</ele>
        <time>2014-02-24T09:27:58Z</time>
      </trkpt>
      <trkpt lat="46.93333" lon="11.84725">
        <ele>1741.6</ele>
        <time>2014-02-24T09:28:01Z</time>
      </trkpt>
      <trkpt lat="46.9333" lon="11.84723">
        <ele>1742.1</ele>
        <time>2014-02-24T09:28:05Z</time>
      </trkpt>
      <trkpt lat="46.93321" lon="11.84718">
        <ele>1743.5</ele>
        <time>2014-02-24T09:28:15Z</time>
      </trkpt>
      <trkpt lat="46.93311" lon="11.84712">
        <ele>1744.9</ele>
        <time>2014-02-24T09:28:27Z</time>
      </trkpt>
      <trkpt lat="46.93311" lon="11.84712">
        <ele>1744.9</ele>
        <time>2014-02-24T09:28:28Z</time>
      </trkpt>
      <trkpt lat="46.93303" lon="11.84704">
        <ele>1746.4</ele>
        <time>2014-02-24T09:28:40Z</time>
      </trkpt>
      <trkpt lat="46.93293" lon="11.84696">
        <ele>1747.8</ele>
        <time>2014-02-24T09:28:53Z</time>
      </trkpt>
      <trkpt lat="46.93286" lon="11.84687">
        <ele>1749.3</ele>
        <time>2014-02-24T09:29:05Z</time>
      </trkpt>
      <trkpt lat="46.93279" lon="11.84679">
        <ele>1750.7</ele>
        <time>2014-02-24T09:29:19Z</time>
      </trkpt>
      <trkpt lat="46.93272" lon="11.84674">
        <ele>1752.1</ele>
        <time>2014-02-24T09:29:32Z</time>
      </trkpt>
      <trkpt lat="46.93271" lon="11.84667">
        <ele>1753.1</ele>
        <time>2014-02-24T09:29:44Z</time>
      </trkpt>
      <trkpt lat="46.93263" lon="11.84664">
        <ele>1754.5</ele>
        <time>2014-02-24T09:30:00Z</time>
      </trkpt>
      <trkpt lat="46.93256" lon="11.84657">
        <ele>1755.5</ele>
        <time>2014-02-24T09:30:12Z</time>
      </trkpt>
      <trkpt lat="46.93251" lon="11.84649">
        <ele>1757.4</ele>
        <time>2014-02-24T09:30:23Z</time>
      </trkpt>
      <trkpt lat="46.93243" lon="11.84642">
        <ele>1759.3</ele>
        <time>2014-02-24T09:30:34Z</time>
      </trkpt>
      <trkpt lat="46.93243" lon="11.84641">
        <ele>1759.3</ele>
        <time>2014-02-24T09:30:35Z</time>
      </trkpt>
      <trkpt lat="46.93239" lon="11.84639">
        <ele>1759.8</ele>
        <time>2014-02-24T09:30:39Z</time>
      </trkpt>
      <trkpt lat="46.93237" lon="11.84636">
        <ele>1760.3</ele>
        <time>2014-02-24T09:30:43Z</time>
      </trkpt>
      <trkpt lat="46.93227" lon="11.84628">
        <ele>1762.2</ele>
        <time>2014-02-24T09:30:56Z</time>
      </trkpt>
      <trkpt lat="46.9322" lon="11.84624">
        <ele>1763.2</ele>
        <time>2014-02-24T09:31:03Z</time>
      </trkpt>
      <trkpt lat="46.93218" lon="11.84623">
        <ele>1763.2</ele>
        <time>2014-02-24T09:31:06Z</time>
      </trkpt>
      <trkpt lat="46.93206" lon="11.84615">
        <ele>1764.6</ele>
        <time>2014-02-24T09:31:18Z</time>
      </trkpt>
      <trkpt lat="46.93197" lon="11.84609">
        <ele>1766.1</ele>
        <time>2014-02-24T09:31:31Z</time>
      </trkpt>
      <trkpt lat="46.93195" lon="11.84607">
        <ele>1767</ele>
        <time>2014-02-24T09:31:35Z</time>
      </trkpt>
      <trkpt lat="46.93189" lon="11.84601">
        <ele>1769</ele>
        <time>2014-02-24T09:31:48Z</time>
      </trkpt>
      <trkpt lat="46.93187" lon="11.84596">
        <ele>1769</ele>
        <time>2014-02-24T09:31:53Z</time>
      </trkpt>
      <trkpt lat="46.93182" lon="11.8459">
        <ele>1769.9</ele>
        <time>2014-02-24T09:32:01Z</time>
      </trkpt>
      <trkpt lat="46.93176" lon="11.8458">
        <ele>1771.4</ele>
        <time>2014-02-24T09:32:13Z</time>
      </trkpt>
      <trkpt lat="46.93168" lon="11.84568">
        <ele>1773.3</ele>
        <time>2014-02-24T09:32:27Z</time>
      </trkpt>
      <trkpt lat="46.93167" lon="11.84561">
        <ele>1774.2</ele>
        <time>2014-02-24T09:32:39Z</time>
      </trkpt>
      <trkpt lat="46.93161" lon="11.84551">
        <ele>1775.2</ele>
        <time>2014-02-24T09:32:50Z</time>
      </trkpt>
      <trkpt lat="46.93155" lon="11.84543">
        <ele>1776.7</ele>
        <time>2014-02-24T09:33:03Z</time>
      </trkpt>
      <trkpt lat="46.93148" lon="11.84533">
        <ele>1777.6</ele>
        <time>2014-02-24T09:33:15Z</time>
      </trkpt>
      <trkpt lat="46.93142" lon="11.84529">
        <ele>1779.1</ele>
        <time>2014-02-24T09:33:27Z</time>
      </trkpt>
      <trkpt lat="46.93142" lon="11.84526">
        <ele>1779.1</ele>
        <time>2014-02-24T09:33:43Z</time>
      </trkpt>
      <trkpt lat="46.93144" lon="11.84519">
        <ele>1779.1</ele>
        <time>2014-02-24T09:33:58Z</time>
      </trkpt>
      <trkpt lat="46.9314" lon="11.84524">
        <ele>1779.5</ele>
        <time>2014-02-24T09:34:13Z</time>
      </trkpt>
      <trkpt lat="46.93131" lon="11.84514">
        <ele>1781.9</ele>
        <time>2014-02-24T09:34:32Z</time>
      </trkpt>
      <trkpt lat="46.93124" lon="11.8451">
        <ele>1783.9</ele>
        <time>2014-02-24T09:34:47Z</time>
      </trkpt>
      <trkpt lat="46.93115" lon="11.84505">
        <ele>1785.8</ele>
        <time>2014-02-24T09:35:05Z</time>
      </trkpt>
      <trkpt lat="46.93107" lon="11.84501">
        <ele>1788.7</ele>
        <time>2014-02-24T09:35:24Z</time>
      </trkpt>
      <trkpt lat="46.93102" lon="11.84495">
        <ele>1790.1</ele>
        <time>2014-02-24T09:35:38Z</time>
      </trkpt>
      <trkpt lat="46.93096" lon="11.84493">
        <ele>1792</ele>
        <time>2014-02-24T09:35:53Z</time>
      </trkpt>
      <trkpt lat="46.93088" lon="11.84487">
        <ele>1794</ele>
        <time>2014-02-24T09:36:12Z</time>
      </trkpt>
      <trkpt lat="46.93083" lon="11.84485">
        <ele>1795.9</ele>
        <time>2014-02-24T09:36:25Z</time>
      </trkpt>
      <trkpt lat="46.93077" lon="11.8448">
        <ele>1797.8</ele>
        <time>2014-02-24T09:36:39Z</time>
      </trkpt>
      <trkpt lat="46.93071" lon="11.84474">
        <ele>1799.7</ele>
        <time>2014-02-24T09:36:54Z</time>
      </trkpt>
      <trkpt lat="46.93066" lon="11.84467">
        <ele>1802.1</ele>
        <time>2014-02-24T09:37:11Z</time>
      </trkpt>
      <trkpt lat="46.93057" lon="11.8446">
        <ele>1804.1</ele>
        <time>2014-02-24T09:37:26Z</time>
      </trkpt>
      <trkpt lat="46.9305" lon="11.84452">
        <ele>1806</ele>
        <time>2014-02-24T09:37:45Z</time>
      </trkpt>
      <trkpt lat="46.93037" lon="11.84444">
        <ele>1807.9</ele>
        <time>2014-02-24T09:38:02Z</time>
      </trkpt>
      <trkpt lat="46.93028" lon="11.84441">
        <ele>1809.8</ele>
        <time>2014-02-24T09:38:16Z</time>
      </trkpt>
      <trkpt lat="46.93022" lon="11.84438">
        <ele>1810.8</ele>
        <time>2014-02-24T09:38:27Z</time>
      </trkpt>
      <trkpt lat="46.93013" lon="11.84438">
        <ele>1812.2</ele>
        <time>2014-02-24T09:38:42Z</time>
      </trkpt>
      <trkpt lat="46.93002" lon="11.84433">
        <ele>1814.6</ele>
        <time>2014-02-24T09:38:55Z</time>
      </trkpt>
      <trkpt lat="46.92995" lon="11.84425">
        <ele>1816.1</ele>
        <time>2014-02-24T09:39:09Z</time>
      </trkpt>
      <trkpt lat="46.92992" lon="11.84417">
        <ele>1818</ele>
        <time>2014-02-24T09:39:20Z</time>
      </trkpt>
      <trkpt lat="46.92983" lon="11.84413">
        <ele>1819.9</ele>
        <time>2014-02-24T09:39:37Z</time>
      </trkpt>
      <trkpt lat="46.92976" lon="11.8441">
        <ele>1821.3</ele>
        <time>2014-02-24T09:39:47Z</time>
      </trkpt>
      <trkpt lat="46.92964" lon="11.84406">
        <ele>1822.8</ele>
        <time>2014-02-24T09:40:05Z</time>
      </trkpt>
      <trkpt lat="46.92949" lon="11.844">
        <ele>1824.2</ele>
        <time>2014-02-24T09:40:23Z</time>
      </trkpt>
      <trkpt lat="46.92937" lon="11.84397">
        <ele>1825.7</ele>
        <time>2014-02-24T09:40:39Z</time>
      </trkpt>
      <trkpt lat="46.92924" lon="11.84396">
        <ele>1827.1</ele>
        <time>2014-02-24T09:40:55Z</time>
      </trkpt>
      <trkpt lat="46.92921" lon="11.84395">
        <ele>1828.6</ele>
        <time>2014-02-24T09:41:04Z</time>
      </trkpt>
      <trkpt lat="46.9291" lon="11.8439">
        <ele>1830.5</ele>
        <time>2014-02-24T09:41:20Z</time>
      </trkpt>
      <trkpt lat="46.92901" lon="11.84387">
        <ele>1831.4</ele>
        <time>2014-02-24T09:41:36Z</time>
      </trkpt>
      <trkpt lat="46.92893" lon="11.84383">
        <ele>1832.9</ele>
        <time>2014-02-24T09:41:50Z</time>
      </trkpt>
      <trkpt lat="46.9289" lon="11.84383">
        <ele>1833.4</ele>
        <time>2014-02-24T09:42:04Z</time>
      </trkpt>
      <trkpt lat="46.92887" lon="11.8438">
        <ele>1833.8</ele>
        <time>2014-02-24T09:42:22Z</time>
      </trkpt>
      <trkpt lat="46.9288" lon="11.8438">
        <ele>1835.3</ele>
        <time>2014-02-24T09:42:35Z</time>
      </trkpt>
      <trkpt lat="46.92872" lon="11.84379">
        <ele>1836.7</ele>
        <time>2014-02-24T09:42:47Z</time>
      </trkpt>
      <trkpt lat="46.92864" lon="11.84381">
        <ele>1839.1</ele>
        <time>2014-02-24T09:43:01Z</time>
      </trkpt>
      <trkpt lat="46.92853" lon="11.84379">
        <ele>1841.5</ele>
        <time>2014-02-24T09:43:17Z</time>
      </trkpt>
      <trkpt lat="46.92844" lon="11.84379">
        <ele>1843.9</ele>
        <time>2014-02-24T09:43:32Z</time>
      </trkpt>
      <trkpt lat="46.92835" lon="11.84375">
        <ele>1846.3</ele>
        <time>2014-02-24T09:43:49Z</time>
      </trkpt>
      <trkpt lat="46.9283" lon="11.84376">
        <ele>1847.3</ele>
        <time>2014-02-24T09:44:02Z</time>
      </trkpt>
      <trkpt lat="46.92822" lon="11.84374">
        <ele>1849.2</ele>
        <time>2014-02-24T09:44:17Z</time>
      </trkpt>
      <trkpt lat="46.92816" lon="11.84376">
        <ele>1850.2</ele>
        <time>2014-02-24T09:44:30Z</time>
      </trkpt>
      <trkpt lat="46.92804" lon="11.84374">
        <ele>1852.1</ele>
        <time>2014-02-24T09:44:49Z</time>
      </trkpt>
      <trkpt lat="46.92798" lon="11.84374">
        <ele>1854.5</ele>
        <time>2014-02-24T09:45:05Z</time>
      </trkpt>
      <trkpt lat="46.92788" lon="11.84371">
        <ele>1856</ele>
        <time>2014-02-24T09:45:22Z</time>
      </trkpt>
      <trkpt lat="46.92783" lon="11.84366">
        <ele>1857.4</ele>
        <time>2014-02-24T09:45:39Z</time>
      </trkpt>
      <trkpt lat="46.92776" lon="11.84366">
        <ele>1858.4</ele>
        <time>2014-02-24T09:45:55Z</time>
      </trkpt>
      <trkpt lat="46.92768" lon="11.84366">
        <ele>1860.3</ele>
        <time>2014-02-24T09:46:12Z</time>
      </trkpt>
      <trkpt lat="46.92759" lon="11.84363">
        <ele>1862.7</ele>
        <time>2014-02-24T09:46:29Z</time>
      </trkpt>
      <trkpt lat="46.92752" lon="11.84359">
        <ele>1863.7</ele>
        <time>2014-02-24T09:46:45Z</time>
      </trkpt>
      <trkpt lat="46.92744" lon="11.84357">
        <ele>1865.6</ele>
        <time>2014-02-24T09:47:01Z</time>
      </trkpt>
      <trkpt lat="46.92734" lon="11.84354">
        <ele>1868</ele>
        <time>2014-02-24T09:47:20Z</time>
      </trkpt>
      <trkpt lat="46.92727" lon="11.84351">
        <ele>1869.4</ele>
        <time>2014-02-24T09:47:36Z</time>
      </trkpt>
      <trkpt lat="46.92721" lon="11.84351">
        <ele>1870.9</ele>
        <time>2014-02-24T09:47:50Z</time>
      </trkpt>
      <trkpt lat="46.92715" lon="11.84352">
        <ele>1872.3</ele>
        <time>2014-02-24T09:48:05Z</time>
      </trkpt>
      <trkpt lat="46.92707" lon="11.84351">
        <ele>1873.8</ele>
        <time>2014-02-24T09:48:20Z</time>
      </trkpt>
      <trkpt lat="46.92702" lon="11.84354">
        <ele>1875.2</ele>
        <time>2014-02-24T09:48:34Z</time>
      </trkpt>
      <trkpt lat="46.92696" lon="11.84352">
        <ele>1877.6</ele>
        <time>2014-02-24T09:48:50Z</time>
      </trkpt>
      <trkpt lat="46.92687" lon="11.84351">
        <ele>1879.5</ele>
        <time>2014-02-24T09:49:06Z</time>
      </trkpt>
      <trkpt lat="46.92682" lon="11.84349">
        <ele>1881</ele>
        <time>2014-02-24T09:49:23Z</time>
      </trkpt>
      <trkpt lat="46.92672" lon="11.84349">
        <ele>1883.4</ele>
        <time>2014-02-24T09:49:42Z</time>
      </trkpt>
      <trkpt lat="46.92666" lon="11.84346">
        <ele>1885.3</ele>
        <time>2014-02-24T09:49:57Z</time>
      </trkpt>
      <trkpt lat="46.92662" lon="11.84338">
        <ele>1887.2</ele>
        <time>2014-02-24T09:50:12Z</time>
      </trkpt>
      <trkpt lat="46.92655" lon="11.84335">
        <ele>1888.7</ele>
        <time>2014-02-24T09:50:29Z</time>
      </trkpt>
      <trkpt lat="46.92644" lon="11.84333">
        <ele>1890.6</ele>
        <time>2014-02-24T09:50:45Z</time>
      </trkpt>
      <trkpt lat="46.92633" lon="11.84337">
        <ele>1892.5</ele>
        <time>2014-02-24T09:51:03Z</time>
      </trkpt>
      <trkpt lat="46.92626" lon="11.84335">
        <ele>1894.4</ele>
        <time>2014-02-24T09:51:20Z</time>
      </trkpt>
      <trkpt lat="46.92618" lon="11.84334">
        <ele>1895.9</ele>
        <time>2014-02-24T09:51:37Z</time>
      </trkpt>
      <trkpt lat="46.92609" lon="11.84331">
        <ele>1897.8</ele>
        <time>2014-02-24T09:51:54Z</time>
      </trkpt>
      <trkpt lat="46.92599" lon="11.84328">
        <ele>1899.2</ele>
        <time>2014-02-24T09:52:08Z</time>
      </trkpt>
      <trkpt lat="46.92587" lon="11.84325">
        <ele>1900.7</ele>
        <time>2014-02-24T09:52:28Z</time>
      </trkpt>
      <trkpt lat="46.9258" lon="11.8432">
        <ele>1902.6</ele>
        <time>2014-02-24T09:52:46Z</time>
      </trkpt>
      <trkpt lat="46.92571" lon="11.84317">
        <ele>1904</ele>
        <time>2014-02-24T09:53:01Z</time>
      </trkpt>
      <trkpt lat="46.92564" lon="11.84313">
        <ele>1905.5</ele>
        <time>2014-02-24T09:53:18Z</time>
      </trkpt>
      <trkpt lat="46.92555" lon="11.84307">
        <ele>1906.9</ele>
        <time>2014-02-24T09:53:34Z</time>
      </trkpt>
      <trkpt lat="46.92549" lon="11.84302">
        <ele>1908.3</ele>
        <time>2014-02-24T09:53:49Z</time>
      </trkpt>
      <trkpt lat="46.92542" lon="11.84298">
        <ele>1909.3</ele>
        <time>2014-02-24T09:54:04Z</time>
      </trkpt>
      <trkpt lat="46.92533" lon="11.84296">
        <ele>1911.2</ele>
        <time>2014-02-24T09:54:18Z</time>
      </trkpt>
      <trkpt lat="46.92525" lon="11.84292">
        <ele>1913.2</ele>
        <time>2014-02-24T09:54:32Z</time>
      </trkpt>
      <trkpt lat="46.92519" lon="11.8429">
        <ele>1914.6</ele>
        <time>2014-02-24T09:54:48Z</time>
      </trkpt>
      <trkpt lat="46.92512" lon="11.84287">
        <ele>1915.1</ele>
        <time>2014-02-24T09:55:07Z</time>
      </trkpt>
      <trkpt lat="46.92505" lon="11.8428">
        <ele>1916.5</ele>
        <time>2014-02-24T09:55:22Z</time>
      </trkpt>
      <trkpt lat="46.925" lon="11.84277">
        <ele>1917</ele>
        <time>2014-02-24T09:55:37Z</time>
      </trkpt>
      <trkpt lat="46.92496" lon="11.84268">
        <ele>1918.4</ele>
        <time>2014-02-24T09:55:52Z</time>
      </trkpt>
      <trkpt lat="46.92497" lon="11.84262">
        <ele>1919.9</ele>
        <time>2014-02-24T09:56:06Z</time>
      </trkpt>
      <trkpt lat="46.92494" lon="11.84251">
        <ele>1920.8</ele>
        <time>2014-02-24T09:56:18Z</time>
      </trkpt>
      <trkpt lat="46.92491" lon="11.84235">
        <ele>1921.8</ele>
        <time>2014-02-24T09:56:33Z</time>
      </trkpt>
      <trkpt lat="46.92486" lon="11.84222">
        <ele>1923.7</ele>
        <time>2014-02-24T09:56:48Z</time>
      </trkpt>
      <trkpt lat="46.92481" lon="11.84232">
        <ele>1924.7</ele>
        <time>2014-02-24T09:57:00Z</time>
      </trkpt>
      <trkpt lat="46.92479" lon="11.84245">
        <ele>1926.1</ele>
        <time>2014-02-24T09:57:12Z</time>
      </trkpt>
      <trkpt lat="46.92475" lon="11.84252">
        <ele>1927.6</ele>
        <time>2014-02-24T09:57:25Z</time>
      </trkpt>
      <trkpt lat="46.92468" lon="11.84258">
        <ele>1929.5</ele>
        <time>2014-02-24T09:57:44Z</time>
      </trkpt>
      <trkpt lat="46.9247" lon="11.84244">
        <ele>1931.9</ele>
        <time>2014-02-24T09:58:02Z</time>
      </trkpt>
      <trkpt lat="46.92463" lon="11.84225">
        <ele>1933.3</ele>
        <time>2014-02-24T09:58:22Z</time>
      </trkpt>
      <trkpt lat="46.92457" lon="11.84222">
        <ele>1935.3</ele>
        <time>2014-02-24T09:58:38Z</time>
      </trkpt>
      <trkpt lat="46.92453" lon="11.8424">
        <ele>1936.2</ele>
        <time>2014-02-24T09:58:52Z</time>
      </trkpt>
      <trkpt lat="46.92451" lon="11.84239">
        <ele>1938.6</ele>
        <time>2014-02-24T09:59:09Z</time>
      </trkpt>
      <trkpt lat="46.92446" lon="11.84231">
        <ele>1940.6</ele>
        <time>2014-02-24T09:59:24Z</time>
      </trkpt>
      <trkpt lat="46.92439" lon="11.8422">
        <ele>1942</ele>
        <time>2014-02-24T09:59:39Z</time>
      </trkpt>
      <trkpt lat="46.92434" lon="11.84216">
        <ele>1943.4</ele>
        <time>2014-02-24T09:59:59Z</time>
      </trkpt>
      <trkpt lat="46.92428" lon="11.84217">
        <ele>1945.4</ele>
        <time>2014-02-24T10:00:15Z</time>
      </trkpt>
      <trkpt lat="46.9242" lon="11.84224">
        <ele>1947.3</ele>
        <time>2014-02-24T10:00:32Z</time>
      </trkpt>
      <trkpt lat="46.92415" lon="11.84227">
        <ele>1948.7</ele>
        <time>2014-02-24T10:00:48Z</time>
      </trkpt>
      <trkpt lat="46.92406" lon="11.84232">
        <ele>1950.7</ele>
        <time>2014-02-24T10:01:05Z</time>
      </trkpt>
      <trkpt lat="46.92402" lon="11.84233">
        <ele>1952.1</ele>
        <time>2014-02-24T10:01:19Z</time>
      </trkpt>
      <trkpt lat="46.92402" lon="11.84236">
        <ele>1952.6</ele>
        <time>2014-02-24T10:01:38Z</time>
      </trkpt>
      <trkpt lat="46.92404" lon="11.84239">
        <ele>1951.6</ele>
        <time>2014-02-24T10:01:55Z</time>
      </trkpt>
      <trkpt lat="46.9241" lon="11.8424">
        <ele>1951.6</ele>
        <time>2014-02-24T10:02:24Z</time>
      </trkpt>
      <trkpt lat="46.92411" lon="11.84241">
        <ele>1951.6</ele>
        <time>2014-02-24T10:02:58Z</time>
      </trkpt>
      <trkpt lat="46.92413" lon="11.8424">
        <ele>1952.6</ele>
        <time>2014-02-24T10:03:09Z</time>
      </trkpt>
      <trkpt lat="46.92412" lon="11.84235">
        <ele>1952.6</ele>
        <time>2014-02-24T10:03:25Z</time>
      </trkpt>
      <trkpt lat="46.92411" lon="11.84236">
        <ele>1952.6</ele>
        <time>2014-02-24T10:03:43Z</time>
      </trkpt>
      <trkpt lat="46.92411" lon="11.84237">
        <ele>1953.1</ele>
        <time>2014-02-24T10:04:12Z</time>
      </trkpt>
      <trkpt lat="46.9241" lon="11.84237">
        <ele>1952.6</ele>
        <time>2014-02-24T10:04:36Z</time>
      </trkpt>
      <trkpt lat="46.92409" lon="11.84239">
        <ele>1953.1</ele>
        <time>2014-02-24T10:04:54Z</time>
      </trkpt>
      <trkpt lat="46.92408" lon="11.84238">
        <ele>1952.6</ele>
        <time>2014-02-24T10:05:16Z</time>
      </trkpt>
      <trkpt lat="46.92409" lon="11.84236">
        <ele>1952.6</ele>
        <time>2014-02-24T10:05:36Z</time>
      </trkpt>
      <trkpt lat="46.92411" lon="11.84239">
        <ele>1952.6</ele>
        <time>2014-02-24T10:05:56Z</time>
      </trkpt>
      <trkpt lat="46.92405" lon="11.84234">
        <ele>1953.5</ele>
        <time>2014-02-24T10:06:11Z</time>
      </trkpt>
      <trkpt lat="46.92399" lon="11.8423">
        <ele>1955</ele>
        <time>2014-02-24T10:06:25Z</time>
      </trkpt>
      <trkpt lat="46.92395" lon="11.84227">
        <ele>1956.4</ele>
        <time>2014-02-24T10:06:36Z</time>
      </trkpt>
      <trkpt lat="46.92389" lon="11.84227">
        <ele>1958.8</ele>
        <time>2014-02-24T10:06:50Z</time>
      </trkpt>
      <trkpt lat="46.92384" lon="11.84232">
        <ele>1960.3</ele>
        <time>2014-02-24T10:07:03Z</time>
      </trkpt>
      <trkpt lat="46.92375" lon="11.84234">
        <ele>1963.2</ele>
        <time>2014-02-24T10:07:17Z</time>
      </trkpt>
      <trkpt lat="46.92367" lon="11.84237">
        <ele>1964.1</ele>
        <time>2014-02-24T10:07:32Z</time>
      </trkpt>
      <trkpt lat="46.92359" lon="11.84244">
        <ele>1966.5</ele>
        <time>2014-02-24T10:07:50Z</time>
      </trkpt>
      <trkpt lat="46.92352" lon="11.84245">
        <ele>1968</ele>
        <time>2014-02-24T10:08:04Z</time>
      </trkpt>
      <trkpt lat="46.92348" lon="11.84241">
        <ele>1970.4</ele>
        <time>2014-02-24T10:08:19Z</time>
      </trkpt>
      <trkpt lat="46.92342" lon="11.84237">
        <ele>1972.3</ele>
        <time>2014-02-24T10:08:37Z</time>
      </trkpt>
      <trkpt lat="46.92342" lon="11.84238">
        <ele>1971.3</ele>
        <time>2014-02-24T10:08:50Z</time>
      </trkpt>
      <trkpt lat="46.92343" lon="11.84241">
        <ele>1971.3</ele>
        <time>2014-02-24T10:09:17Z</time>
      </trkpt>
      <trkpt lat="46.92343" lon="11.84242">
        <ele>1971.3</ele>
        <time>2014-02-24T10:09:48Z</time>
      </trkpt>
      <trkpt lat="46.92345" lon="11.84245">
        <ele>1972.3</ele>
        <time>2014-02-24T10:10:16Z</time>
      </trkpt>
      <trkpt lat="46.92348" lon="11.84244">
        <ele>1971.8</ele>
        <time>2014-02-24T10:10:36Z</time>
      </trkpt>
      <trkpt lat="46.92346" lon="11.8424">
        <ele>1973.2</ele>
        <time>2014-02-24T10:11:04Z</time>
      </trkpt>
      <trkpt lat="46.92347" lon="11.84245">
        <ele>1972.8</ele>
        <time>2014-02-24T10:11:23Z</time>
      </trkpt>
      <trkpt lat="46.92348" lon="11.84245">
        <ele>1973.7</ele>
        <time>2014-02-24T10:11:26Z</time>
      </trkpt>
      <trkpt lat="46.92339" lon="11.84244">
        <ele>1973.2</ele>
        <time>2014-02-24T10:11:39Z</time>
      </trkpt>
      <trkpt lat="46.92331" lon="11.84248">
        <ele>1976.6</ele>
        <time>2014-02-24T10:11:52Z</time>
      </trkpt>
      <trkpt lat="46.92332" lon="11.84236">
        <ele>1979.5</ele>
        <time>2014-02-24T10:12:11Z</time>
      </trkpt>
      <trkpt lat="46.92322" lon="11.84238">
        <ele>1981.4</ele>
        <time>2014-02-24T10:12:28Z</time>
      </trkpt>
      <trkpt lat="46.92317" lon="11.84249">
        <ele>1983.8</ele>
        <time>2014-02-24T10:12:47Z</time>
      </trkpt>
      <trkpt lat="46.92311" lon="11.8426">
        <ele>1986.2</ele>
        <time>2014-02-24T10:13:05Z</time>
      </trkpt>
      <trkpt lat="46.92308" lon="11.84269">
        <ele>1988.1</ele>
        <time>2014-02-24T10:13:19Z</time>
      </trkpt>
      <trkpt lat="46.92304" lon="11.84282">
        <ele>1990.1</ele>
        <time>2014-02-24T10:13:37Z</time>
      </trkpt>
      <trkpt lat="46.92296" lon="11.84286">
        <ele>1992</ele>
        <time>2014-02-24T10:13:52Z</time>
      </trkpt>
      <trkpt lat="46.92297" lon="11.84278">
        <ele>1994.4</ele>
        <time>2014-02-24T10:14:09Z</time>
      </trkpt>
      <trkpt lat="46.923" lon="11.8427">
        <ele>1995.8</ele>
        <time>2014-02-24T10:14:22Z</time>
      </trkpt>
      <trkpt lat="46.92299" lon="11.8426">
        <ele>1997.8</ele>
        <time>2014-02-24T10:14:39Z</time>
      </trkpt>
      <trkpt lat="46.92288" lon="11.84267">
        <ele>1999.7</ele>
        <time>2014-02-24T10:14:53Z</time>
      </trkpt>
      <trkpt lat="46.92281" lon="11.84274">
        <ele>2002.1</ele>
        <time>2014-02-24T10:15:09Z</time>
      </trkpt>
      <trkpt lat="46.92279" lon="11.84265">
        <ele>2005</ele>
        <time>2014-02-24T10:15:26Z</time>
      </trkpt>
      <trkpt lat="46.92269" lon="11.84262">
        <ele>2006.9</ele>
        <time>2014-02-24T10:15:43Z</time>
      </trkpt>
      <trkpt lat="46.92265" lon="11.8426">
        <ele>2010.2</ele>
        <time>2014-02-24T10:15:53Z</time>
      </trkpt>
      <trkpt lat="46.92262" lon="11.84256">
        <ele>2010.7</ele>
        <time>2014-02-24T10:16:08Z</time>
      </trkpt>
      <trkpt lat="46.92259" lon="11.84252">
        <ele>2012.7</ele>
        <time>2014-02-24T10:16:24Z</time>
      </trkpt>
      <trkpt lat="46.92256" lon="11.84251">
        <ele>2015.1</ele>
        <time>2014-02-24T10:16:43Z</time>
      </trkpt>
      <trkpt lat="46.92244" lon="11.84247">
        <ele>2017</ele>
        <time>2014-02-24T10:16:59Z</time>
      </trkpt>
      <trkpt lat="46.92235" lon="11.84246">
        <ele>2018.9</ele>
        <time>2014-02-24T10:17:13Z</time>
      </trkpt>
      <trkpt lat="46.92232" lon="11.84247">
        <ele>2019.4</ele>
        <time>2014-02-24T10:17:17Z</time>
      </trkpt>
      <trkpt lat="46.92227" lon="11.84248">
        <ele>2021.3</ele>
        <time>2014-02-24T10:17:29Z</time>
      </trkpt>
      <trkpt lat="46.92224" lon="11.84252">
        <ele>2023.2</ele>
        <time>2014-02-24T10:17:44Z</time>
      </trkpt>
      <trkpt lat="46.92225" lon="11.8425">
        <ele>2026.1</ele>
        <time>2014-02-24T10:17:54Z</time>
      </trkpt>
      <trkpt lat="46.92231" lon="11.84245">
        <ele>2027.1</ele>
        <time>2014-02-24T10:18:10Z</time>
      </trkpt>
      <trkpt lat="46.92226" lon="11.84249">
        <ele>2028.5</ele>
        <time>2014-02-24T10:18:24Z</time>
      </trkpt>
      <trkpt lat="46.92219" lon="11.84257">
        <ele>2030.4</ele>
        <time>2014-02-24T10:18:39Z</time>
      </trkpt>
      <trkpt lat="46.92218" lon="11.84266">
        <ele>2032.4</ele>
        <time>2014-02-24T10:18:55Z</time>
      </trkpt>
      <trkpt lat="46.92218" lon="11.84278">
        <ele>2033.8</ele>
        <time>2014-02-24T10:19:11Z</time>
      </trkpt>
      <trkpt lat="46.92216" lon="11.84279">
        <ele>2035.7</ele>
        <time>2014-02-24T10:19:26Z</time>
      </trkpt>
      <trkpt lat="46.92211" lon="11.8427">
        <ele>2037.7</ele>
        <time>2014-02-24T10:19:44Z</time>
      </trkpt>
      <trkpt lat="46.92212" lon="11.8426">
        <ele>2039.6</ele>
        <time>2014-02-24T10:19:59Z</time>
      </trkpt>
      <trkpt lat="46.92208" lon="11.84252">
        <ele>2041.5</ele>
        <time>2014-02-24T10:20:15Z</time>
      </trkpt>
      <trkpt lat="46.92208" lon="11.84244">
        <ele>2043.4</ele>
        <time>2014-02-24T10:20:29Z</time>
      </trkpt>
      <trkpt lat="46.92205" lon="11.84234">
        <ele>2045.8</ele>
        <time>2014-02-24T10:20:46Z</time>
      </trkpt>
      <trkpt lat="46.92194" lon="11.84231">
        <ele>2048.2</ele>
        <time>2014-02-24T10:21:03Z</time>
      </trkpt>
      <trkpt lat="46.92184" lon="11.84233">
        <ele>2050.1</ele>
        <time>2014-02-24T10:21:17Z</time>
      </trkpt>
      <trkpt lat="46.92179" lon="11.84235">
        <ele>2052.1</ele>
        <time>2014-02-24T10:21:31Z</time>
      </trkpt>
      <trkpt lat="46.92172" lon="11.84236">
        <ele>2053.5</ele>
        <time>2014-02-24T10:21:45Z</time>
      </trkpt>
      <trkpt lat="46.92169" lon="11.84235">
        <ele>2057.4</ele>
        <time>2014-02-24T10:21:56Z</time>
      </trkpt>
      <trkpt lat="46.92172" lon="11.84229">
        <ele>2057.4</ele>
        <time>2014-02-24T10:22:12Z</time>
      </trkpt>
      <trkpt lat="46.92164" lon="11.84229">
        <ele>2059.3</ele>
        <time>2014-02-24T10:22:30Z</time>
      </trkpt>
      <trkpt lat="46.9216" lon="11.84229">
        <ele>2059.8</ele>
        <time>2014-02-24T10:22:41Z</time>
      </trkpt>
      <trkpt lat="46.92153" lon="11.84235">
        <ele>2061.7</ele>
        <time>2014-02-24T10:22:56Z</time>
      </trkpt>
      <trkpt lat="46.92149" lon="11.84243">
        <ele>2063.6</ele>
        <time>2014-02-24T10:23:12Z</time>
      </trkpt>
      <trkpt lat="46.92146" lon="11.84252">
        <ele>2065.5</ele>
        <time>2014-02-24T10:23:28Z</time>
      </trkpt>
      <trkpt lat="46.92145" lon="11.84258">
        <ele>2066.5</ele>
        <time>2014-02-24T10:23:46Z</time>
      </trkpt>
      <trkpt lat="46.92145" lon="11.84266">
        <ele>2068.4</ele>
        <time>2014-02-24T10:24:02Z</time>
      </trkpt>
      <trkpt lat="46.92143" lon="11.84267">
        <ele>2068.9</ele>
        <time>2014-02-24T10:24:18Z</time>
      </trkpt>
      <trkpt lat="46.92139" lon="11.84262">
        <ele>2069.9</ele>
        <time>2014-02-24T10:24:32Z</time>
      </trkpt>
      <trkpt lat="46.92134" lon="11.84259">
        <ele>2071.3</ele>
        <time>2014-02-24T10:24:49Z</time>
      </trkpt>
      <trkpt lat="46.92128" lon="11.84254">
        <ele>2072.7</ele>
        <time>2014-02-24T10:25:03Z</time>
      </trkpt>
      <trkpt lat="46.92119" lon="11.84252">
        <ele>2075.1</ele>
        <time>2014-02-24T10:25:19Z</time>
      </trkpt>
      <trkpt lat="46.92108" lon="11.84246">
        <ele>2077.6</ele>
        <time>2014-02-24T10:25:37Z</time>
      </trkpt>
      <trkpt lat="46.92106" lon="11.84245">
        <ele>2079</ele>
        <time>2014-02-24T10:25:50Z</time>
      </trkpt>
      <trkpt lat="46.92095" lon="11.84241">
        <ele>2081.4</ele>
        <time>2014-02-24T10:26:07Z</time>
      </trkpt>
      <trkpt lat="46.9209" lon="11.84251">
        <ele>2083.8</ele>
        <time>2014-02-24T10:26:24Z</time>
      </trkpt>
      <trkpt lat="46.92086" lon="11.84259">
        <ele>2085.7</ele>
        <time>2014-02-24T10:26:40Z</time>
      </trkpt>
      <trkpt lat="46.92086" lon="11.84265">
        <ele>2087.2</ele>
        <time>2014-02-24T10:26:57Z</time>
      </trkpt>
      <trkpt lat="46.92082" lon="11.8427">
        <ele>2088.1</ele>
        <time>2014-02-24T10:27:13Z</time>
      </trkpt>
      <trkpt lat="46.92078" lon="11.84277">
        <ele>2090</ele>
        <time>2014-02-24T10:27:28Z</time>
      </trkpt>
      <trkpt lat="46.92071" lon="11.84274">
        <ele>2092</ele>
        <time>2014-02-24T10:27:43Z</time>
      </trkpt>
      <trkpt lat="46.92065" lon="11.8427">
        <ele>2095.8</ele>
        <time>2014-02-24T10:28:00Z</time>
      </trkpt>
      <trkpt lat="46.92059" lon="11.84269">
        <ele>2096.3</ele>
        <time>2014-02-24T10:28:16Z</time>
      </trkpt>
      <trkpt lat="46.92056" lon="11.8428">
        <ele>2098.2</ele>
        <time>2014-02-24T10:28:32Z</time>
      </trkpt>
      <trkpt lat="46.92052" lon="11.84288">
        <ele>2100.1</ele>
        <time>2014-02-24T10:28:47Z</time>
      </trkpt>
      <trkpt lat="46.92046" lon="11.84297">
        <ele>2102.1</ele>
        <time>2014-02-24T10:29:03Z</time>
      </trkpt>
      <trkpt lat="46.92044" lon="11.84306">
        <ele>2104</ele>
        <time>2014-02-24T10:29:18Z</time>
      </trkpt>
      <trkpt lat="46.92038" lon="11.84302">
        <ele>2106.4</ele>
        <time>2014-02-24T10:29:33Z</time>
      </trkpt>
      <trkpt lat="46.92033" lon="11.84296">
        <ele>2107.8</ele>
        <time>2014-02-24T10:29:49Z</time>
      </trkpt>
      <trkpt lat="46.92027" lon="11.84296">
        <ele>2109.8</ele>
        <time>2014-02-24T10:30:05Z</time>
      </trkpt>
      <trkpt lat="46.92029" lon="11.84306">
        <ele>2111.7</ele>
        <time>2014-02-24T10:30:18Z</time>
      </trkpt>
      <trkpt lat="46.92027" lon="11.84314">
        <ele>2113.1</ele>
        <time>2014-02-24T10:30:32Z</time>
      </trkpt>
      <trkpt lat="46.92023" lon="11.84321">
        <ele>2115.5</ele>
        <time>2014-02-24T10:30:48Z</time>
      </trkpt>
      <trkpt lat="46.92021" lon="11.8433">
        <ele>2117</ele>
        <time>2014-02-24T10:31:02Z</time>
      </trkpt>
      <trkpt lat="46.92021" lon="11.84339">
        <ele>2118.4</ele>
        <time>2014-02-24T10:31:18Z</time>
      </trkpt>
      <trkpt lat="46.92013" lon="11.84337">
        <ele>2121.3</ele>
        <time>2014-02-24T10:31:34Z</time>
      </trkpt>
      <trkpt lat="46.92007" lon="11.84334">
        <ele>2123.2</ele>
        <time>2014-02-24T10:31:50Z</time>
      </trkpt>
      <trkpt lat="46.92003" lon="11.8433">
        <ele>2126.1</ele>
        <time>2014-02-24T10:32:01Z</time>
      </trkpt>
      <trkpt lat="46.91999" lon="11.84334">
        <ele>2127.1</ele>
        <time>2014-02-24T10:32:21Z</time>
      </trkpt>
      <trkpt lat="46.91996" lon="11.84343">
        <ele>2128.5</ele>
        <time>2014-02-24T10:32:36Z</time>
      </trkpt>
      <trkpt lat="46.91997" lon="11.84351">
        <ele>2130.4</ele>
        <time>2014-02-24T10:32:50Z</time>
      </trkpt>
      <trkpt lat="46.91998" lon="11.84361">
        <ele>2132.3</ele>
        <time>2014-02-24T10:33:05Z</time>
      </trkpt>
      <trkpt lat="46.91997" lon="11.84368">
        <ele>2134.3</ele>
        <time>2014-02-24T10:33:20Z</time>
      </trkpt>
      <trkpt lat="46.91998" lon="11.84375">
        <ele>2136.2</ele>
        <time>2014-02-24T10:33:34Z</time>
      </trkpt>
      <trkpt lat="46.91987" lon="11.84373">
        <ele>2138.6</ele>
        <time>2014-02-24T10:33:50Z</time>
      </trkpt>
      <trkpt lat="46.9198" lon="11.84372">
        <ele>2140.5</ele>
        <time>2014-02-24T10:34:06Z</time>
      </trkpt>
      <trkpt lat="46.9197" lon="11.84367">
        <ele>2142.4</ele>
        <time>2014-02-24T10:34:24Z</time>
      </trkpt>
      <trkpt lat="46.9196" lon="11.84364">
        <ele>2143.9</ele>
        <time>2014-02-24T10:34:41Z</time>
      </trkpt>
      <trkpt lat="46.91969" lon="11.84378">
        <ele>2145.8</ele>
        <time>2014-02-24T10:34:55Z</time>
      </trkpt>
      <trkpt lat="46.91966" lon="11.84386">
        <ele>2147.7</ele>
        <time>2014-02-24T10:35:10Z</time>
      </trkpt>
      <trkpt lat="46.91968" lon="11.84395">
        <ele>2149.6</ele>
        <time>2014-02-24T10:35:26Z</time>
      </trkpt>
      <trkpt lat="46.91969" lon="11.84404">
        <ele>2151.1</ele>
        <time>2014-02-24T10:35:39Z</time>
      </trkpt>
      <trkpt lat="46.91969" lon="11.84412">
        <ele>2153</ele>
        <time>2014-02-24T10:35:52Z</time>
      </trkpt>
      <trkpt lat="46.91971" lon="11.84421">
        <ele>2154.4</ele>
        <time>2014-02-24T10:36:06Z</time>
      </trkpt>
      <trkpt lat="46.91963" lon="11.8442">
        <ele>2156.9</ele>
        <time>2014-02-24T10:36:22Z</time>
      </trkpt>
      <trkpt lat="46.91953" lon="11.84415">
        <ele>2158.8</ele>
        <time>2014-02-24T10:36:36Z</time>
      </trkpt>
      <trkpt lat="46.91946" lon="11.84414">
        <ele>2160.2</ele>
        <time>2014-02-24T10:36:52Z</time>
      </trkpt>
      <trkpt lat="46.91939" lon="11.84412">
        <ele>2162.1</ele>
        <time>2014-02-24T10:37:07Z</time>
      </trkpt>
      <trkpt lat="46.91944" lon="11.84423">
        <ele>2164.1</ele>
        <time>2014-02-24T10:37:23Z</time>
      </trkpt>
      <trkpt lat="46.91946" lon="11.84434">
        <ele>2166</ele>
        <time>2014-02-24T10:37:38Z</time>
      </trkpt>
      <trkpt lat="46.91949" lon="11.84443">
        <ele>2167.4</ele>
        <time>2014-02-24T10:37:52Z</time>
      </trkpt>
      <trkpt lat="46.91953" lon="11.84452">
        <ele>2169.8</ele>
        <time>2014-02-24T10:38:09Z</time>
      </trkpt>
      <trkpt lat="46.91958" lon="11.84456">
        <ele>2171.8</ele>
        <time>2014-02-24T10:38:21Z</time>
      </trkpt>
      <trkpt lat="46.91958" lon="11.84462">
        <ele>2173.2</ele>
        <time>2014-02-24T10:38:36Z</time>
      </trkpt>
      <trkpt lat="46.91958" lon="11.84466">
        <ele>2173.7</ele>
        <time>2014-02-24T10:38:52Z</time>
      </trkpt>
      <trkpt lat="46.91954" lon="11.84472">
        <ele>2176.1</ele>
        <time>2014-02-24T10:39:05Z</time>
      </trkpt>
      <trkpt lat="46.91953" lon="11.84483">
        <ele>2177.5</ele>
        <time>2014-02-24T10:39:21Z</time>
      </trkpt>
      <trkpt lat="46.91954" lon="11.84492">
        <ele>2179</ele>
        <time>2014-02-24T10:39:34Z</time>
      </trkpt>
      <trkpt lat="46.91954" lon="11.84491">
        <ele>2180.9</ele>
        <time>2014-02-24T10:39:51Z</time>
      </trkpt>
      <trkpt lat="46.9195" lon="11.84488">
        <ele>2182.3</ele>
        <time>2014-02-24T10:40:04Z</time>
      </trkpt>
      <trkpt lat="46.91945" lon="11.84484">
        <ele>2183.8</ele>
        <time>2014-02-24T10:40:20Z</time>
      </trkpt>
      <trkpt lat="46.91938" lon="11.8448">
        <ele>2186.2</ele>
        <time>2014-02-24T10:40:38Z</time>
      </trkpt>
      <trkpt lat="46.91933" lon="11.8448">
        <ele>2188.6</ele>
        <time>2014-02-24T10:40:55Z</time>
      </trkpt>
      <trkpt lat="46.91931" lon="11.84487">
        <ele>2190</ele>
        <time>2014-02-24T10:41:09Z</time>
      </trkpt>
      <trkpt lat="46.91928" lon="11.84493">
        <ele>2191.5</ele>
        <time>2014-02-24T10:41:22Z</time>
      </trkpt>
      <trkpt lat="46.91926" lon="11.84499">
        <ele>2193.4</ele>
        <time>2014-02-24T10:41:36Z</time>
      </trkpt>
      <trkpt lat="46.91924" lon="11.84505">
        <ele>2194.4</ele>
        <time>2014-02-24T10:41:49Z</time>
      </trkpt>
      <trkpt lat="46.91921" lon="11.84503">
        <ele>2197.2</ele>
        <time>2014-02-24T10:42:04Z</time>
      </trkpt>
      <trkpt lat="46.91919" lon="11.84499">
        <ele>2198.7</ele>
        <time>2014-02-24T10:42:17Z</time>
      </trkpt>
      <trkpt lat="46.91915" lon="11.84493">
        <ele>2200.6</ele>
        <time>2014-02-24T10:42:33Z</time>
      </trkpt>
      <trkpt lat="46.91909" lon="11.84492">
        <ele>2202.5</ele>
        <time>2014-02-24T10:42:49Z</time>
      </trkpt>
      <trkpt lat="46.91905" lon="11.8449">
        <ele>2203.5</ele>
        <time>2014-02-24T10:43:09Z</time>
      </trkpt>
      <trkpt lat="46.91899" lon="11.84489">
        <ele>2204.9</ele>
        <time>2014-02-24T10:43:26Z</time>
      </trkpt>
      <trkpt lat="46.91894" lon="11.84488">
        <ele>2207.3</ele>
        <time>2014-02-24T10:43:39Z</time>
      </trkpt>
      <trkpt lat="46.91888" lon="11.84486">
        <ele>2208.8</ele>
        <time>2014-02-24T10:43:54Z</time>
      </trkpt>
      <trkpt lat="46.91884" lon="11.84484">
        <ele>2210.7</ele>
        <time>2014-02-24T10:44:08Z</time>
      </trkpt>
      <trkpt lat="46.91879" lon="11.84481">
        <ele>2212.1</ele>
        <time>2014-02-24T10:44:22Z</time>
      </trkpt>
      <trkpt lat="46.91875" lon="11.84481">
        <ele>2214.1</ele>
        <time>2014-02-24T10:44:37Z</time>
      </trkpt>
      <trkpt lat="46.91868" lon="11.84479">
        <ele>2215.5</ele>
        <time>2014-02-24T10:44:52Z</time>
      </trkpt>
      <trkpt lat="46.91863" lon="11.84478">
        <ele>2217.4</ele>
        <time>2014-02-24T10:45:07Z</time>
      </trkpt>
      <trkpt lat="46.91857" lon="11.84478">
        <ele>2219.3</ele>
        <time>2014-02-24T10:45:24Z</time>
      </trkpt>
      <trkpt lat="46.91853" lon="11.84476">
        <ele>2221.3</ele>
        <time>2014-02-24T10:45:39Z</time>
      </trkpt>
      <trkpt lat="46.91848" lon="11.84477">
        <ele>2222.7</ele>
        <time>2014-02-24T10:45:58Z</time>
      </trkpt>
      <trkpt lat="46.91844" lon="11.84473">
        <ele>2224.6</ele>
        <time>2014-02-24T10:46:15Z</time>
      </trkpt>
      <trkpt lat="46.91842" lon="11.84479">
        <ele>2225.6</ele>
        <time>2014-02-24T10:46:28Z</time>
      </trkpt>
      <trkpt lat="46.9184" lon="11.84486">
        <ele>2227.5</ele>
        <time>2014-02-24T10:46:42Z</time>
      </trkpt>
      <trkpt lat="46.91839" lon="11.84492">
        <ele>2228.9</ele>
        <time>2014-02-24T10:46:55Z</time>
      </trkpt>
      <trkpt lat="46.91837" lon="11.84498">
        <ele>2230.4</ele>
        <time>2014-02-24T10:47:07Z</time>
      </trkpt>
      <trkpt lat="46.91835" lon="11.84502">
        <ele>2231.8</ele>
        <time>2014-02-24T10:47:20Z</time>
      </trkpt>
      <trkpt lat="46.91834" lon="11.84498">
        <ele>2233.8</ele>
        <time>2014-02-24T10:47:35Z</time>
      </trkpt>
      <trkpt lat="46.9183" lon="11.84494">
        <ele>2235.7</ele>
        <time>2014-02-24T10:47:49Z</time>
      </trkpt>
      <trkpt lat="46.91826" lon="11.84491">
        <ele>2236.6</ele>
        <time>2014-02-24T10:48:03Z</time>
      </trkpt>
      <trkpt lat="46.91823" lon="11.84488">
        <ele>2238.6</ele>
        <time>2014-02-24T10:48:18Z</time>
      </trkpt>
      <trkpt lat="46.91819" lon="11.84481">
        <ele>2240.5</ele>
        <time>2014-02-24T10:48:34Z</time>
      </trkpt>
      <trkpt lat="46.91816" lon="11.84478">
        <ele>2241.4</ele>
        <time>2014-02-24T10:48:49Z</time>
      </trkpt>
      <trkpt lat="46.91813" lon="11.84473">
        <ele>2243.4</ele>
        <time>2014-02-24T10:49:03Z</time>
      </trkpt>
      <trkpt lat="46.91811" lon="11.84475">
        <ele>2244.3</ele>
        <time>2014-02-24T10:49:17Z</time>
      </trkpt>
      <trkpt lat="46.91812" lon="11.84483">
        <ele>2245.3</ele>
        <time>2014-02-24T10:49:33Z</time>
      </trkpt>
      <trkpt lat="46.91809" lon="11.84489">
        <ele>2246.7</ele>
        <time>2014-02-24T10:49:47Z</time>
      </trkpt>
      <trkpt lat="46.91807" lon="11.84495">
        <ele>2248.2</ele>
        <time>2014-02-24T10:50:00Z</time>
      </trkpt>
      <trkpt lat="46.91805" lon="11.84499">
        <ele>2250.1</ele>
        <time>2014-02-24T10:50:13Z</time>
      </trkpt>
      <trkpt lat="46.91805" lon="11.84507">
        <ele>2251.5</ele>
        <time>2014-02-24T10:50:26Z</time>
      </trkpt>
      <trkpt lat="46.91806" lon="11.84514">
        <ele>2253</ele>
        <time>2014-02-24T10:50:40Z</time>
      </trkpt>
      <trkpt lat="46.91806" lon="11.84521">
        <ele>2254.4</ele>
        <time>2014-02-24T10:50:54Z</time>
      </trkpt>
      <trkpt lat="46.91808" lon="11.84525">
        <ele>2255.4</ele>
        <time>2014-02-24T10:51:13Z</time>
      </trkpt>
      <trkpt lat="46.91804" lon="11.8453">
        <ele>2256.8</ele>
        <time>2014-02-24T10:51:30Z</time>
      </trkpt>
      <trkpt lat="46.91803" lon="11.84523">
        <ele>2258.8</ele>
        <time>2014-02-24T10:51:43Z</time>
      </trkpt>
      <trkpt lat="46.91802" lon="11.84523">
        <ele>2259.2</ele>
        <time>2014-02-24T10:51:57Z</time>
      </trkpt>
      <trkpt lat="46.91802" lon="11.8452">
        <ele>2259.7</ele>
        <time>2014-02-24T10:52:11Z</time>
      </trkpt>
      <trkpt lat="46.91799" lon="11.84522">
        <ele>2260.7</ele>
        <time>2014-02-24T10:52:23Z</time>
      </trkpt>
      <trkpt lat="46.91799" lon="11.84533">
        <ele>2262.6</ele>
        <time>2014-02-24T10:52:39Z</time>
      </trkpt>
      <trkpt lat="46.918" lon="11.84539">
        <ele>2264</ele>
        <time>2014-02-24T10:52:56Z</time>
      </trkpt>
      <trkpt lat="46.91799" lon="11.84544">
        <ele>2266</ele>
        <time>2014-02-24T10:53:12Z</time>
      </trkpt>
      <trkpt lat="46.91801" lon="11.8455">
        <ele>2267.9</ele>
        <time>2014-02-24T10:53:27Z</time>
      </trkpt>
      <trkpt lat="46.91801" lon="11.84556">
        <ele>2268.9</ele>
        <time>2014-02-24T10:53:41Z</time>
      </trkpt>
      <trkpt lat="46.91801" lon="11.84562">
        <ele>2270.3</ele>
        <time>2014-02-24T10:53:55Z</time>
      </trkpt>
      <trkpt lat="46.91801" lon="11.84567">
        <ele>2271.7</ele>
        <time>2014-02-24T10:54:11Z</time>
      </trkpt>
      <trkpt lat="46.918" lon="11.8457">
        <ele>2273.2</ele>
        <time>2014-02-24T10:54:26Z</time>
      </trkpt>
      <trkpt lat="46.91798" lon="11.84575">
        <ele>2274.6</ele>
        <time>2014-02-24T10:54:41Z</time>
      </trkpt>
      <trkpt lat="46.91796" lon="11.84569">
        <ele>2276.1</ele>
        <time>2014-02-24T10:54:55Z</time>
      </trkpt>
      <trkpt lat="46.91792" lon="11.84566">
        <ele>2277.5</ele>
        <time>2014-02-24T10:55:10Z</time>
      </trkpt>
      <trkpt lat="46.91788" lon="11.84563">
        <ele>2279.4</ele>
        <time>2014-02-24T10:55:25Z</time>
      </trkpt>
      <trkpt lat="46.91784" lon="11.84561">
        <ele>2280.9</ele>
        <time>2014-02-24T10:55:39Z</time>
      </trkpt>
      <trkpt lat="46.9178" lon="11.84558">
        <ele>2282.3</ele>
        <time>2014-02-24T10:55:51Z</time>
      </trkpt>
      <trkpt lat="46.91777" lon="11.84557">
        <ele>2283.3</ele>
        <time>2014-02-24T10:56:04Z</time>
      </trkpt>
      <trkpt lat="46.91773" lon="11.84555">
        <ele>2285.2</ele>
        <time>2014-02-24T10:56:17Z</time>
      </trkpt>
      <trkpt lat="46.91769" lon="11.84554">
        <ele>2286.1</ele>
        <time>2014-02-24T10:56:30Z</time>
      </trkpt>
      <trkpt lat="46.91766" lon="11.84553">
        <ele>2287.6</ele>
        <time>2014-02-24T10:56:43Z</time>
      </trkpt>
      <trkpt lat="46.91763" lon="11.84549">
        <ele>2289</ele>
        <time>2014-02-24T10:56:59Z</time>
      </trkpt>
      <trkpt lat="46.9176" lon="11.8455">
        <ele>2290</ele>
        <time>2014-02-24T10:57:13Z</time>
      </trkpt>
      <trkpt lat="46.91757" lon="11.84548">
        <ele>2291</ele>
        <time>2014-02-24T10:57:29Z</time>
      </trkpt>
      <trkpt lat="46.91757" lon="11.84559">
        <ele>2292.4</ele>
        <time>2014-02-24T10:57:44Z</time>
      </trkpt>
      <trkpt lat="46.91756" lon="11.84565">
        <ele>2294.3</ele>
        <time>2014-02-24T10:57:59Z</time>
      </trkpt>
      <trkpt lat="46.91755" lon="11.8457">
        <ele>2296.2</ele>
        <time>2014-02-24T10:58:14Z</time>
      </trkpt>
      <trkpt lat="46.91754" lon="11.84567">
        <ele>2297.2</ele>
        <time>2014-02-24T10:58:29Z</time>
      </trkpt>
      <trkpt lat="46.91755" lon="11.84568">
        <ele>2297.7</ele>
        <time>2014-02-24T10:58:45Z</time>
      </trkpt>
      <trkpt lat="46.91751" lon="11.84566">
        <ele>2298.2</ele>
        <time>2014-02-24T10:59:02Z</time>
      </trkpt>
      <trkpt lat="46.91748" lon="11.84566">
        <ele>2300.1</ele>
        <time>2014-02-24T10:59:15Z</time>
      </trkpt>
      <trkpt lat="46.91742" lon="11.84562">
        <ele>2302</ele>
        <time>2014-02-24T10:59:29Z</time>
      </trkpt>
      <trkpt lat="46.91739" lon="11.84559">
        <ele>2303.5</ele>
        <time>2014-02-24T10:59:42Z</time>
      </trkpt>
      <trkpt lat="46.91735" lon="11.84555">
        <ele>2304.9</ele>
        <time>2014-02-24T10:59:56Z</time>
      </trkpt>
      <trkpt lat="46.91732" lon="11.84549">
        <ele>2306.8</ele>
        <time>2014-02-24T11:00:10Z</time>
      </trkpt>
      <trkpt lat="46.91727" lon="11.84544">
        <ele>2308.3</ele>
        <time>2014-02-24T11:00:25Z</time>
      </trkpt>
      <trkpt lat="46.91723" lon="11.84542">
        <ele>2309.7</ele>
        <time>2014-02-24T11:00:40Z</time>
      </trkpt>
      <trkpt lat="46.91718" lon="11.84542">
        <ele>2311.1</ele>
        <time>2014-02-24T11:00:53Z</time>
      </trkpt>
      <trkpt lat="46.91716" lon="11.8454">
        <ele>2312.6</ele>
        <time>2014-02-24T11:01:08Z</time>
      </trkpt>
      <trkpt lat="46.91712" lon="11.84538">
        <ele>2313.6</ele>
        <time>2014-02-24T11:01:21Z</time>
      </trkpt>
      <trkpt lat="46.91709" lon="11.84537">
        <ele>2315</ele>
        <time>2014-02-24T11:01:34Z</time>
      </trkpt>
      <trkpt lat="46.91705" lon="11.84537">
        <ele>2316.4</ele>
        <time>2014-02-24T11:01:47Z</time>
      </trkpt>
      <trkpt lat="46.91702" lon="11.84535">
        <ele>2317.9</ele>
        <time>2014-02-24T11:02:01Z</time>
      </trkpt>
      <trkpt lat="46.91699" lon="11.84534">
        <ele>2319.3</ele>
        <time>2014-02-24T11:02:15Z</time>
      </trkpt>
      <trkpt lat="46.91697" lon="11.84533">
        <ele>2320.8</ele>
        <time>2014-02-24T11:02:30Z</time>
      </trkpt>
      <trkpt lat="46.91694" lon="11.8453">
        <ele>2321.7</ele>
        <time>2014-02-24T11:02:43Z</time>
      </trkpt>
      <trkpt lat="46.91691" lon="11.84528">
        <ele>2323.6</ele>
        <time>2014-02-24T11:02:59Z</time>
      </trkpt>
      <trkpt lat="46.91688" lon="11.84524">
        <ele>2325.1</ele>
        <time>2014-02-24T11:03:14Z</time>
      </trkpt>
      <trkpt lat="46.91683" lon="11.84516">
        <ele>2326.5</ele>
        <time>2014-02-24T11:03:32Z</time>
      </trkpt>
      <trkpt lat="46.91682" lon="11.84511">
        <ele>2328</ele>
        <time>2014-02-24T11:03:46Z</time>
      </trkpt>
      <trkpt lat="46.91678" lon="11.84505">
        <ele>2329.4</ele>
        <time>2014-02-24T11:04:00Z</time>
      </trkpt>
      <trkpt lat="46.91675" lon="11.84499">
        <ele>2330.9</ele>
        <time>2014-02-24T11:04:15Z</time>
      </trkpt>
      <trkpt lat="46.91672" lon="11.84499">
        <ele>2331.8</ele>
        <time>2014-02-24T11:04:28Z</time>
      </trkpt>
      <trkpt lat="46.91668" lon="11.84501">
        <ele>2333.3</ele>
        <time>2014-02-24T11:04:42Z</time>
      </trkpt>
      <trkpt lat="46.91664" lon="11.845">
        <ele>2336.1</ele>
        <time>2014-02-24T11:04:57Z</time>
      </trkpt>
      <trkpt lat="46.9166" lon="11.84501">
        <ele>2335.7</ele>
        <time>2014-02-24T11:05:09Z</time>
      </trkpt>
      <trkpt lat="46.91655" lon="11.84504">
        <ele>2337.6</ele>
        <time>2014-02-24T11:05:24Z</time>
      </trkpt>
      <trkpt lat="46.91652" lon="11.84507">
        <ele>2338.5</ele>
        <time>2014-02-24T11:05:39Z</time>
      </trkpt>
      <trkpt lat="46.91646" lon="11.84506">
        <ele>2340</ele>
        <time>2014-02-24T11:05:55Z</time>
      </trkpt>
      <trkpt lat="46.91639" lon="11.84506">
        <ele>2340.9</ele>
        <time>2014-02-24T11:06:10Z</time>
      </trkpt>
      <trkpt lat="46.91633" lon="11.84508">
        <ele>2342.4</ele>
        <time>2014-02-24T11:06:25Z</time>
      </trkpt>
      <trkpt lat="46.91626" lon="11.84511">
        <ele>2343.8</ele>
        <time>2014-02-24T11:06:41Z</time>
      </trkpt>
      <trkpt lat="46.91623" lon="11.84516">
        <ele>2345.3</ele>
        <time>2014-02-24T11:06:55Z</time>
      </trkpt>
      <trkpt lat="46.91621" lon="11.8452">
        <ele>2346.2</ele>
        <time>2014-02-24T11:07:08Z</time>
      </trkpt>
      <trkpt lat="46.91619" lon="11.84527">
        <ele>2348.6</ele>
        <time>2014-02-24T11:07:24Z</time>
      </trkpt>
      <trkpt lat="46.91619" lon="11.84533">
        <ele>2350.1</ele>
        <time>2014-02-24T11:07:36Z</time>
      </trkpt>
      <trkpt lat="46.9162" lon="11.84539">
        <ele>2351.5</ele>
        <time>2014-02-24T11:07:49Z</time>
      </trkpt>
      <trkpt lat="46.91619" lon="11.84545">
        <ele>2352.5</ele>
        <time>2014-02-24T11:08:03Z</time>
      </trkpt>
      <trkpt lat="46.9162" lon="11.84546">
        <ele>2352.5</ele>
        <time>2014-02-24T11:08:16Z</time>
      </trkpt>
      <trkpt lat="46.91619" lon="11.84549">
        <ele>2353</ele>
        <time>2014-02-24T11:08:23Z</time>
      </trkpt>
      <trkpt lat="46.91619" lon="11.84561">
        <ele>2353.9</ele>
        <time>2014-02-24T11:08:35Z</time>
      </trkpt>
      <trkpt lat="46.91618" lon="11.8457">
        <ele>2355.4</ele>
        <time>2014-02-24T11:08:51Z</time>
      </trkpt>
      <trkpt lat="46.91619" lon="11.84579">
        <ele>2357.3</ele>
        <time>2014-02-24T11:09:04Z</time>
      </trkpt>
      <trkpt lat="46.91619" lon="11.84588">
        <ele>2358.7</ele>
        <time>2014-02-24T11:09:21Z</time>
      </trkpt>
      <trkpt lat="46.91619" lon="11.846">
        <ele>2360.2</ele>
        <time>2014-02-24T11:09:36Z</time>
      </trkpt>
      <trkpt lat="46.91618" lon="11.8461">
        <ele>2361.1</ele>
        <time>2014-02-24T11:09:51Z</time>
      </trkpt>
      <trkpt lat="46.91618" lon="11.84615">
        <ele>2361.6</ele>
        <time>2014-02-24T11:10:03Z</time>
      </trkpt>
      <trkpt lat="46.91618" lon="11.84619">
        <ele>2362.1</ele>
        <time>2014-02-24T11:10:09Z</time>
      </trkpt>
      <trkpt lat="46.91617" lon="11.84629">
        <ele>2362.6</ele>
        <time>2014-02-24T11:10:20Z</time>
      </trkpt>
      <trkpt lat="46.91615" lon="11.84642">
        <ele>2363.1</ele>
        <time>2014-02-24T11:10:38Z</time>
      </trkpt>
      <trkpt lat="46.91613" lon="11.84655">
        <ele>2363.5</ele>
        <time>2014-02-24T11:10:51Z</time>
      </trkpt>
      <trkpt lat="46.91611" lon="11.84667">
        <ele>2364.5</ele>
        <time>2014-02-24T11:11:03Z</time>
      </trkpt>
      <trkpt lat="46.9161" lon="11.84679">
        <ele>2365</ele>
        <time>2014-02-24T11:11:17Z</time>
      </trkpt>
      <trkpt lat="46.91607" lon="11.84689">
        <ele>2365.9</ele>
        <time>2014-02-24T11:11:30Z</time>
      </trkpt>
      <trkpt lat="46.91606" lon="11.84699">
        <ele>2366.4</ele>
        <time>2014-02-24T11:11:46Z</time>
      </trkpt>
      <trkpt lat="46.91604" lon="11.84711">
        <ele>2367.4</ele>
        <time>2014-02-24T11:12:04Z</time>
      </trkpt>
      <trkpt lat="46.91601" lon="11.8472">
        <ele>2368.8</ele>
        <time>2014-02-24T11:12:22Z</time>
      </trkpt>
      <trkpt lat="46.91599" lon="11.84728">
        <ele>2370.3</ele>
        <time>2014-02-24T11:12:37Z</time>
      </trkpt>
      <trkpt lat="46.91596" lon="11.84735">
        <ele>2371.7</ele>
        <time>2014-02-24T11:12:52Z</time>
      </trkpt>
      <trkpt lat="46.91594" lon="11.84742">
        <ele>2373.1</ele>
        <time>2014-02-24T11:13:06Z</time>
      </trkpt>
      <trkpt lat="46.91591" lon="11.84749">
        <ele>2374.6</ele>
        <time>2014-02-24T11:13:21Z</time>
      </trkpt>
      <trkpt lat="46.91589" lon="11.84757">
        <ele>2375.6</ele>
        <time>2014-02-24T11:13:36Z</time>
      </trkpt>
      <trkpt lat="46.91586" lon="11.84766">
        <ele>2377</ele>
        <time>2014-02-24T11:13:53Z</time>
      </trkpt>
      <trkpt lat="46.91584" lon="11.84774">
        <ele>2378.4</ele>
        <time>2014-02-24T11:14:07Z</time>
      </trkpt>
      <trkpt lat="46.91581" lon="11.84782">
        <ele>2379.9</ele>
        <time>2014-02-24T11:14:22Z</time>
      </trkpt>
      <trkpt lat="46.91578" lon="11.84784">
        <ele>2380.4</ele>
        <time>2014-02-24T11:14:39Z</time>
      </trkpt>
      <trkpt lat="46.91576" lon="11.8479">
        <ele>2381.3</ele>
        <time>2014-02-24T11:14:54Z</time>
      </trkpt>
      <trkpt lat="46.91573" lon="11.84796">
        <ele>2383.2</ele>
        <time>2014-02-24T11:15:09Z</time>
      </trkpt>
      <trkpt lat="46.9157" lon="11.84804">
        <ele>2385.2</ele>
        <time>2014-02-24T11:15:24Z</time>
      </trkpt>
      <trkpt lat="46.91568" lon="11.84809">
        <ele>2386.1</ele>
        <time>2014-02-24T11:15:39Z</time>
      </trkpt>
      <trkpt lat="46.91565" lon="11.84816">
        <ele>2387.6</ele>
        <time>2014-02-24T11:15:53Z</time>
      </trkpt>
      <trkpt lat="46.91564" lon="11.84823">
        <ele>2389</ele>
        <time>2014-02-24T11:16:08Z</time>
      </trkpt>
      <trkpt lat="46.91564" lon="11.8483">
        <ele>2390.5</ele>
        <time>2014-02-24T11:16:22Z</time>
      </trkpt>
      <trkpt lat="46.91563" lon="11.84838">
        <ele>2391.9</ele>
        <time>2014-02-24T11:16:36Z</time>
      </trkpt>
      <trkpt lat="46.91563" lon="11.84848">
        <ele>2392.9</ele>
        <time>2014-02-24T11:16:53Z</time>
      </trkpt>
      <trkpt lat="46.91562" lon="11.84857">
        <ele>2394.3</ele>
        <time>2014-02-24T11:17:04Z</time>
      </trkpt>
      <trkpt lat="46.91562" lon="11.84868">
        <ele>2394.8</ele>
        <time>2014-02-24T11:17:21Z</time>
      </trkpt>
      <trkpt lat="46.91562" lon="11.84876">
        <ele>2396.2</ele>
        <time>2014-02-24T11:17:35Z</time>
      </trkpt>
      <trkpt lat="46.9156" lon="11.84886">
        <ele>2397.7</ele>
        <time>2014-02-24T11:17:51Z</time>
      </trkpt>
      <trkpt lat="46.91557" lon="11.84897">
        <ele>2398.1</ele>
        <time>2014-02-24T11:18:07Z</time>
      </trkpt>
      <trkpt lat="46.91554" lon="11.84912">
        <ele>2398.1</ele>
        <time>2014-02-24T11:18:23Z</time>
      </trkpt>
      <trkpt lat="46.91552" lon="11.84923">
        <ele>2399.1</ele>
        <time>2014-02-24T11:18:38Z</time>
      </trkpt>
      <trkpt lat="46.91549" lon="11.84931">
        <ele>2400.1</ele>
        <time>2014-02-24T11:18:53Z</time>
      </trkpt>
      <trkpt lat="46.91548" lon="11.84937">
        <ele>2401.5</ele>
        <time>2014-02-24T11:19:07Z</time>
      </trkpt>
      <trkpt lat="46.91545" lon="11.84944">
        <ele>2402.5</ele>
        <time>2014-02-24T11:19:26Z</time>
      </trkpt>
      <trkpt lat="46.91549" lon="11.8495">
        <ele>2404.4</ele>
        <time>2014-02-24T11:19:39Z</time>
      </trkpt>
      <trkpt lat="46.91554" lon="11.84955">
        <ele>2406.3</ele>
        <time>2014-02-24T11:19:54Z</time>
      </trkpt>
      <trkpt lat="46.91556" lon="11.8496">
        <ele>2407.8</ele>
        <time>2014-02-24T11:20:10Z</time>
      </trkpt>
      <trkpt lat="46.91558" lon="11.84965">
        <ele>2409.2</ele>
        <time>2014-02-24T11:20:24Z</time>
      </trkpt>
      <trkpt lat="46.9156" lon="11.84972">
        <ele>2410.6</ele>
        <time>2014-02-24T11:20:39Z</time>
      </trkpt>
      <trkpt lat="46.91562" lon="11.84976">
        <ele>2412.1</ele>
        <time>2014-02-24T11:20:54Z</time>
      </trkpt>
      <trkpt lat="46.91564" lon="11.84983">
        <ele>2413.5</ele>
        <time>2014-02-24T11:21:09Z</time>
      </trkpt>
      <trkpt lat="46.91565" lon="11.84993">
        <ele>2415</ele>
        <time>2014-02-24T11:21:25Z</time>
      </trkpt>
      <trkpt lat="46.91567" lon="11.84999">
        <ele>2415.9</ele>
        <time>2014-02-24T11:21:40Z</time>
      </trkpt>
      <trkpt lat="46.91567" lon="11.85007">
        <ele>2417.9</ele>
        <time>2014-02-24T11:21:54Z</time>
      </trkpt>
      <trkpt lat="46.91567" lon="11.85015">
        <ele>2419.3</ele>
        <time>2014-02-24T11:22:10Z</time>
      </trkpt>
      <trkpt lat="46.91568" lon="11.85022">
        <ele>2420.3</ele>
        <time>2014-02-24T11:22:25Z</time>
      </trkpt>
      <trkpt lat="46.9157" lon="11.85028">
        <ele>2422.2</ele>
        <time>2014-02-24T11:22:40Z</time>
      </trkpt>
      <trkpt lat="46.9157" lon="11.85035">
        <ele>2423.1</ele>
        <time>2014-02-24T11:22:53Z</time>
      </trkpt>
      <trkpt lat="46.91571" lon="11.85039">
        <ele>2424.6</ele>
        <time>2014-02-24T11:23:11Z</time>
      </trkpt>
      <trkpt lat="46.91571" lon="11.85048">
        <ele>2426.5</ele>
        <time>2014-02-24T11:23:26Z</time>
      </trkpt>
      <trkpt lat="46.9157" lon="11.85054">
        <ele>2427.9</ele>
        <time>2014-02-24T11:23:41Z</time>
      </trkpt>
      <trkpt lat="46.91571" lon="11.85063">
        <ele>2428.9</ele>
        <time>2014-02-24T11:23:56Z</time>
      </trkpt>
      <trkpt lat="46.91571" lon="11.8507">
        <ele>2430.4</ele>
        <time>2014-02-24T11:24:09Z</time>
      </trkpt>
      <trkpt lat="46.91571" lon="11.85076">
        <ele>2431.3</ele>
        <time>2014-02-24T11:24:23Z</time>
      </trkpt>
      <trkpt lat="46.91572" lon="11.8508">
        <ele>2432.3</ele>
        <time>2014-02-24T11:24:34Z</time>
      </trkpt>
      <trkpt lat="46.91572" lon="11.85087">
        <ele>2433.7</ele>
        <time>2014-02-24T11:24:48Z</time>
      </trkpt>
      <trkpt lat="46.91573" lon="11.85094">
        <ele>2435.2</ele>
        <time>2014-02-24T11:25:02Z</time>
      </trkpt>
      <trkpt lat="46.91574" lon="11.85098">
        <ele>2436.6</ele>
        <time>2014-02-24T11:25:18Z</time>
      </trkpt>
      <trkpt lat="46.91574" lon="11.85101">
        <ele>2437.6</ele>
        <time>2014-02-24T11:25:31Z</time>
      </trkpt>
      <trkpt lat="46.91573" lon="11.85106">
        <ele>2439</ele>
        <time>2014-02-24T11:25:44Z</time>
      </trkpt>
      <trkpt lat="46.91573" lon="11.85112">
        <ele>2440.4</ele>
        <time>2014-02-24T11:25:59Z</time>
      </trkpt>
      <trkpt lat="46.91571" lon="11.85115">
        <ele>2441.9</ele>
        <time>2014-02-24T11:26:14Z</time>
      </trkpt>
      <trkpt lat="46.91569" lon="11.85122">
        <ele>2443.3</ele>
        <time>2014-02-24T11:26:28Z</time>
      </trkpt>
      <trkpt lat="46.91567" lon="11.85128">
        <ele>2444.3</ele>
        <time>2014-02-24T11:26:43Z</time>
      </trkpt>
      <trkpt lat="46.91564" lon="11.85135">
        <ele>2445.7</ele>
        <time>2014-02-24T11:26:57Z</time>
      </trkpt>
      <trkpt lat="46.91563" lon="11.8514">
        <ele>2446.7</ele>
        <time>2014-02-24T11:27:11Z</time>
      </trkpt>
      <trkpt lat="46.91561" lon="11.85145">
        <ele>2448.1</ele>
        <time>2014-02-24T11:27:26Z</time>
      </trkpt>
      <trkpt lat="46.91561" lon="11.85151">
        <ele>2449.6</ele>
        <time>2014-02-24T11:27:40Z</time>
      </trkpt>
      <trkpt lat="46.9156" lon="11.85156">
        <ele>2451</ele>
        <time>2014-02-24T11:27:54Z</time>
      </trkpt>
      <trkpt lat="46.91559" lon="11.85162">
        <ele>2452</ele>
        <time>2014-02-24T11:28:10Z</time>
      </trkpt>
      <trkpt lat="46.9156" lon="11.85167">
        <ele>2453.4</ele>
        <time>2014-02-24T11:28:24Z</time>
      </trkpt>
      <trkpt lat="46.9156" lon="11.85173">
        <ele>2454.9</ele>
        <time>2014-02-24T11:28:38Z</time>
      </trkpt>
      <trkpt lat="46.91559" lon="11.85179">
        <ele>2456.3</ele>
        <time>2014-02-24T11:28:52Z</time>
      </trkpt>
      <trkpt lat="46.91559" lon="11.85187">
        <ele>2457.8</ele>
        <time>2014-02-24T11:29:07Z</time>
      </trkpt>
      <trkpt lat="46.91559" lon="11.85192">
        <ele>2458.7</ele>
        <time>2014-02-24T11:29:23Z</time>
      </trkpt>
      <trkpt lat="46.9156" lon="11.85199">
        <ele>2460.6</ele>
        <time>2014-02-24T11:29:38Z</time>
      </trkpt>
      <trkpt lat="46.9156" lon="11.85205">
        <ele>2462.1</ele>
        <time>2014-02-24T11:29:54Z</time>
      </trkpt>
      <trkpt lat="46.91562" lon="11.8521">
        <ele>2463.5</ele>
        <time>2014-02-24T11:30:07Z</time>
      </trkpt>
      <trkpt lat="46.91565" lon="11.85216">
        <ele>2465</ele>
        <time>2014-02-24T11:30:21Z</time>
      </trkpt>
      <trkpt lat="46.91568" lon="11.8522">
        <ele>2466.4</ele>
        <time>2014-02-24T11:30:36Z</time>
      </trkpt>
      <trkpt lat="46.91571" lon="11.85224">
        <ele>2467.8</ele>
        <time>2014-02-24T11:30:52Z</time>
      </trkpt>
      <trkpt lat="46.91575" lon="11.85228">
        <ele>2469.8</ele>
        <time>2014-02-24T11:31:09Z</time>
      </trkpt>
      <trkpt lat="46.91579" lon="11.85233">
        <ele>2470.7</ele>
        <time>2014-02-24T11:31:24Z</time>
      </trkpt>
      <trkpt lat="46.91582" lon="11.85236">
        <ele>2472.6</ele>
        <time>2014-02-24T11:31:39Z</time>
      </trkpt>
      <trkpt lat="46.91587" lon="11.85242">
        <ele>2474.1</ele>
        <time>2014-02-24T11:31:56Z</time>
      </trkpt>
      <trkpt lat="46.9159" lon="11.85251">
        <ele>2475.1</ele>
        <time>2014-02-24T11:32:11Z</time>
      </trkpt>
      <trkpt lat="46.91595" lon="11.85256">
        <ele>2477</ele>
        <time>2014-02-24T11:32:29Z</time>
      </trkpt>
      <trkpt lat="46.91598" lon="11.85258">
        <ele>2477</ele>
        <time>2014-02-24T11:32:48Z</time>
      </trkpt>
      <trkpt lat="46.91608" lon="11.85265">
        <ele>2478.4</ele>
        <time>2014-02-24T11:33:03Z</time>
      </trkpt>
      <trkpt lat="46.91612" lon="11.85272">
        <ele>2479.9</ele>
        <time>2014-02-24T11:33:17Z</time>
      </trkpt>
      <trkpt lat="46.91616" lon="11.8528">
        <ele>2482.3</ele>
        <time>2014-02-24T11:33:36Z</time>
      </trkpt>
      <trkpt lat="46.91618" lon="11.85282">
        <ele>2482.7</ele>
        <time>2014-02-24T11:33:50Z</time>
      </trkpt>
      <trkpt lat="46.91619" lon="11.85284">
        <ele>2484.2</ele>
        <time>2014-02-24T11:33:53Z</time>
      </trkpt>
      <trkpt lat="46.91626" lon="11.85288">
        <ele>2485.6</ele>
        <time>2014-02-24T11:34:10Z</time>
      </trkpt>
      <trkpt lat="46.91626" lon="11.8529">
        <ele>2485.6</ele>
        <time>2014-02-24T11:34:36Z</time>
      </trkpt>
      <trkpt lat="46.91628" lon="11.85293">
        <ele>2485.6</ele>
        <time>2014-02-24T11:34:57Z</time>
      </trkpt>
      <trkpt lat="46.91631" lon="11.85292">
        <ele>2486.6</ele>
        <time>2014-02-24T11:35:14Z</time>
      </trkpt>
      <trkpt lat="46.9163" lon="11.85296">
        <ele>2486.6</ele>
        <time>2014-02-24T11:35:29Z</time>
      </trkpt>
      <trkpt lat="46.91631" lon="11.85295">
        <ele>2487.1</ele>
        <time>2014-02-24T11:35:50Z</time>
      </trkpt>
      <trkpt lat="46.9163" lon="11.85296">
        <ele>2486.6</ele>
        <time>2014-02-24T11:36:11Z</time>
      </trkpt>
      <trkpt lat="46.9163" lon="11.85296">
        <ele>2487.1</ele>
        <time>2014-02-24T11:36:39Z</time>
      </trkpt>
      <trkpt lat="46.91631" lon="11.85295">
        <ele>2487.1</ele>
        <time>2014-02-24T11:36:59Z</time>
      </trkpt>
      <trkpt lat="46.91633" lon="11.85298">
        <ele>2487.1</ele>
        <time>2014-02-24T11:37:22Z</time>
      </trkpt>
      <trkpt lat="46.91633" lon="11.85292">
        <ele>2487.1</ele>
        <time>2014-02-24T11:37:40Z</time>
      </trkpt>
      <trkpt lat="46.91633" lon="11.85291">
        <ele>2487.6</ele>
        <time>2014-02-24T11:38:00Z</time>
      </trkpt>
      <trkpt lat="46.91633" lon="11.85293">
        <ele>2487.6</ele>
        <time>2014-02-24T11:38:15Z</time>
      </trkpt>
      <trkpt lat="46.91633" lon="11.85292">
        <ele>2487.1</ele>
        <time>2014-02-24T11:38:30Z</time>
      </trkpt>
      <trkpt lat="46.91633" lon="11.85292">
        <ele>2486.1</ele>
        <time>2014-02-24T11:38:48Z</time>
      </trkpt>
      <trkpt lat="46.91634" lon="11.85293">
        <ele>2486.6</ele>
        <time>2014-02-24T11:39:12Z</time>
      </trkpt>
      <trkpt lat="46.91633" lon="11.85295">
        <ele>2486.6</ele>
        <time>2014-02-24T11:39:46Z</time>
      </trkpt>
      <trkpt lat="46.91634" lon="11.85295">
        <ele>2486.6</ele>
        <time>2014-02-24T11:40:22Z</time>
      </trkpt>
      <trkpt lat="46.91634" lon="11.85293">
        <ele>2486.6</ele>
        <time>2014-02-24T11:40:53Z</time>
      </trkpt>
      <trkpt lat="46.91635" lon="11.85293">
        <ele>2486.6</ele>
        <time>2014-02-24T11:41:27Z</time>
      </trkpt>
      <trkpt lat="46.91634" lon="11.85295">
        <ele>2486.6</ele>
        <time>2014-02-24T11:41:55Z</time>
      </trkpt>
      <trkpt lat="46.91634" lon="11.85293">
        <ele>2485.1</ele>
        <time>2014-02-24T11:42:14Z</time>
      </trkpt>
      <trkpt lat="46.91634" lon="11.85293">
        <ele>2488.5</ele>
        <time>2014-02-24T11:42:15Z</time>
      </trkpt>
      <trkpt lat="46.91635" lon="11.85292">
        <ele>2487.1</ele>
        <time>2014-02-24T11:42:16Z</time>
      </trkpt>
      <trkpt lat="46.91634" lon="11.85292">
        <ele>2486.1</ele>
        <time>2014-02-24T11:42:18Z</time>
      </trkpt>
      <trkpt lat="46.91634" lon="11.85292">
        <ele>2486.1</ele>
        <time>2014-02-24T11:42:45Z</time>
      </trkpt>
      <trkpt lat="46.91634" lon="11.85291">
        <ele>2486.1</ele>
        <time>2014-02-24T11:43:14Z</time>
      </trkpt>
      <trkpt lat="46.91634" lon="11.85294">
        <ele>2486.1</ele>
        <time>2014-02-24T11:43:44Z</time>
      </trkpt>
      <trkpt lat="46.91633" lon="11.85293">
        <ele>2486.1</ele>
        <time>2014-02-24T11:44:08Z</time>
      </trkpt>
      <trkpt lat="46.91633" lon="11.85292">
        <ele>2485.6</ele>
        <time>2014-02-24T11:44:37Z</time>
      </trkpt>
      <trkpt lat="46.91633" lon="11.85293">
        <ele>2485.6</ele>
        <time>2014-02-24T11:45:01Z</time>
      </trkpt>
      <trkpt lat="46.91634" lon="11.85291">
        <ele>2485.6</ele>
        <time>2014-02-24T11:45:22Z</time>
      </trkpt>
      <trkpt lat="46.91633" lon="11.85292">
        <ele>2485.1</ele>
        <time>2014-02-24T11:45:53Z</time>
      </trkpt>
      <trkpt lat="46.91632" lon="11.85293">
        <ele>2485.6</ele>
        <time>2014-02-24T11:46:25Z</time>
      </trkpt>
      <trkpt lat="46.91633" lon="11.85294">
        <ele>2485.6</ele>
        <time>2014-02-24T11:46:59Z</time>
      </trkpt>
      <trkpt lat="46.91631" lon="11.85296">
        <ele>2485.1</ele>
        <time>2014-02-24T11:47:32Z</time>
      </trkpt>
      <trkpt lat="46.91632" lon="11.85295">
        <ele>2485.1</ele>
        <time>2014-02-24T11:48:03Z</time>
      </trkpt>
      <trkpt lat="46.91633" lon="11.85294">
        <ele>2485.1</ele>
        <time>2014-02-24T11:48:24Z</time>
      </trkpt>
      <trkpt lat="46.91633" lon="11.85292">
        <ele>2485.1</ele>
        <time>2014-02-24T11:48:55Z</time>
      </trkpt>
      <trkpt lat="46.91632" lon="11.85291">
        <ele>2485.1</ele>
        <time>2014-02-24T11:49:35Z</time>
      </trkpt>
      <trkpt lat="46.91631" lon="11.85293">
        <ele>2485.1</ele>
        <time>2014-02-24T11:50:10Z</time>
      </trkpt>
      <trkpt lat="46.91632" lon="11.85293">
        <ele>2485.1</ele>
        <time>2014-02-24T11:50:38Z</time>
      </trkpt>
      <trkpt lat="46.91633" lon="11.85292">
        <ele>2485.1</ele>
        <time>2014-02-24T11:51:08Z</time>
      </trkpt>
      <trkpt lat="46.91633" lon="11.85293">
        <ele>2484.7</ele>
        <time>2014-02-24T11:51:39Z</time>
      </trkpt>
      <trkpt lat="46.91633" lon="11.85292">
        <ele>2484.7</ele>
        <time>2014-02-24T11:52:06Z</time>
      </trkpt>
      <trkpt lat="46.91632" lon="11.85292">
        <ele>2484.7</ele>
        <time>2014-02-24T11:52:34Z</time>
      </trkpt>
      <trkpt lat="46.91632" lon="11.85292">
        <ele>2484.7</ele>
        <time>2014-02-24T11:53:08Z</time>
      </trkpt>
      <trkpt lat="46.91634" lon="11.85291">
        <ele>2484.2</ele>
        <time>2014-02-24T11:53:34Z</time>
      </trkpt>
      <trkpt lat="46.91632" lon="11.85293">
        <ele>2484.7</ele>
        <time>2014-02-24T11:54:08Z</time>
      </trkpt>
      <trkpt lat="46.91632" lon="11.85294">
        <ele>2484.2</ele>
        <time>2014-02-24T11:54:34Z</time>
      </trkpt>
      <trkpt lat="46.91631" lon="11.85295">
        <ele>2484.2</ele>
        <time>2014-02-24T11:54:58Z</time>
      </trkpt>
      <trkpt lat="46.9163" lon="11.85294">
        <ele>2484.2</ele>
        <time>2014-02-24T11:55:30Z</time>
      </trkpt>
      <trkpt lat="46.91632" lon="11.85293">
        <ele>2484.2</ele>
        <time>2014-02-24T11:56:03Z</time>
      </trkpt>
      <trkpt lat="46.91634" lon="11.8529">
        <ele>2484.2</ele>
        <time>2014-02-24T11:56:33Z</time>
      </trkpt>
      <trkpt lat="46.91634" lon="11.8529">
        <ele>2484.2</ele>
        <time>2014-02-24T11:56:56Z</time>
      </trkpt>
      <trkpt lat="46.91631" lon="11.85291">
        <ele>2484.2</ele>
        <time>2014-02-24T11:57:26Z</time>
      </trkpt>
      <trkpt lat="46.91632" lon="11.8529">
        <ele>2484.2</ele>
        <time>2014-02-24T11:58:07Z</time>
      </trkpt>
      <trkpt lat="46.91633" lon="11.8529">
        <ele>2484.2</ele>
        <time>2014-02-24T11:58:46Z</time>
      </trkpt>
      <trkpt lat="46.91632" lon="11.85292">
        <ele>2485.1</ele>
        <time>2014-02-24T11:59:18Z</time>
      </trkpt>
      <trkpt lat="46.91633" lon="11.85293">
        <ele>2485.1</ele>
        <time>2014-02-24T11:59:37Z</time>
      </trkpt>
      <trkpt lat="46.91634" lon="11.85293">
        <ele>2484.7</ele>
        <time>2014-02-24T11:59:54Z</time>
      </trkpt>
      <trkpt lat="46.91637" lon="11.85292">
        <ele>2485.1</ele>
        <time>2014-02-24T12:00:20Z</time>
      </trkpt>
      <trkpt lat="46.91634" lon="11.85292">
        <ele>2484.7</ele>
        <time>2014-02-24T12:00:41Z</time>
      </trkpt>
      <trkpt lat="46.91634" lon="11.85292">
        <ele>2485.1</ele>
        <time>2014-02-24T12:00:58Z</time>
      </trkpt>
      <trkpt lat="46.91635" lon="11.85291">
        <ele>2485.6</ele>
        <time>2014-02-24T12:01:16Z</time>
      </trkpt>
      <trkpt lat="46.91632" lon="11.85288">
        <ele>2484.7</ele>
        <time>2014-02-24T12:01:32Z</time>
      </trkpt>
      <trkpt lat="46.91631" lon="11.85288">
        <ele>2484.7</ele>
        <time>2014-02-24T12:01:33Z</time>
      </trkpt>
      <trkpt lat="46.9163" lon="11.85289">
        <ele>2484.7</ele>
        <time>2014-02-24T12:01:48Z</time>
      </trkpt>
      <trkpt lat="46.91628" lon="11.8529">
        <ele>2485.1</ele>
        <time>2014-02-24T12:02:06Z</time>
      </trkpt>
      <trkpt lat="46.91617" lon="11.85272">
        <ele>2481.3</ele>
        <time>2014-02-24T12:02:13Z</time>
      </trkpt>
      <trkpt lat="46.91617" lon="11.85272">
        <ele>2479.9</ele>
        <time>2014-02-24T12:02:15Z</time>
      </trkpt>
      <trkpt lat="46.91619" lon="11.85273">
        <ele>2479.9</ele>
        <time>2014-02-24T12:02:41Z</time>
      </trkpt>
      <trkpt lat="46.91618" lon="11.85273">
        <ele>2480.3</ele>
        <time>2014-02-24T12:03:18Z</time>
      </trkpt>
      <trkpt lat="46.91618" lon="11.85273">
        <ele>2479.9</ele>
        <time>2014-02-24T12:03:47Z</time>
      </trkpt>
      <trkpt lat="46.91617" lon="11.85272">
        <ele>2479.9</ele>
        <time>2014-02-24T12:04:04Z</time>
      </trkpt>
      <trkpt lat="46.91602" lon="11.85254">
        <ele>2476.5</ele>
        <time>2014-02-24T12:04:11Z</time>
      </trkpt>
      <trkpt lat="46.91602" lon="11.8525">
        <ele>2475.5</ele>
        <time>2014-02-24T12:04:13Z</time>
      </trkpt>
      <trkpt lat="46.91603" lon="11.85251">
        <ele>2475.5</ele>
        <time>2014-02-24T12:04:41Z</time>
      </trkpt>
      <trkpt lat="46.91604" lon="11.8525">
        <ele>2475.5</ele>
        <time>2014-02-24T12:05:15Z</time>
      </trkpt>
      <trkpt lat="46.91603" lon="11.85242">
        <ele>2475.1</ele>
        <time>2014-02-24T12:05:33Z</time>
      </trkpt>
      <trkpt lat="46.91599" lon="11.85225">
        <ele>2471.7</ele>
        <time>2014-02-24T12:05:37Z</time>
      </trkpt>
      <trkpt lat="46.91594" lon="11.85206">
        <ele>2467.8</ele>
        <time>2014-02-24T12:05:41Z</time>
      </trkpt>
      <trkpt lat="46.91592" lon="11.85188">
        <ele>2464</ele>
        <time>2014-02-24T12:05:45Z</time>
      </trkpt>
      <trkpt lat="46.91585" lon="11.85182">
        <ele>2462.1</ele>
        <time>2014-02-24T12:05:47Z</time>
      </trkpt>
      <trkpt lat="46.91586" lon="11.85167">
        <ele>2458.7</ele>
        <time>2014-02-24T12:05:50Z</time>
      </trkpt>
      <trkpt lat="46.91582" lon="11.85156">
        <ele>2456.3</ele>
        <time>2014-02-24T12:05:53Z</time>
      </trkpt>
      <trkpt lat="46.91581" lon="11.85137">
        <ele>2450.5</ele>
        <time>2014-02-24T12:05:58Z</time>
      </trkpt>
      <trkpt lat="46.91582" lon="11.85137">
        <ele>2449.1</ele>
        <time>2014-02-24T12:06:06Z</time>
      </trkpt>
      <trkpt lat="46.91582" lon="11.85136">
        <ele>2448.6</ele>
        <time>2014-02-24T12:06:28Z</time>
      </trkpt>
      <trkpt lat="46.91582" lon="11.85135">
        <ele>2448.6</ele>
        <time>2014-02-24T12:06:29Z</time>
      </trkpt>
      <trkpt lat="46.91577" lon="11.85123">
        <ele>2445.2</ele>
        <time>2014-02-24T12:06:33Z</time>
      </trkpt>
      <trkpt lat="46.91577" lon="11.85111">
        <ele>2441.4</ele>
        <time>2014-02-24T12:06:36Z</time>
      </trkpt>
      <trkpt lat="46.9157" lon="11.85104">
        <ele>2438</ele>
        <time>2014-02-24T12:06:39Z</time>
      </trkpt>
      <trkpt lat="46.91568" lon="11.85101">
        <ele>2438</ele>
        <time>2014-02-24T12:06:40Z</time>
      </trkpt>
      <trkpt lat="46.91569" lon="11.85098">
        <ele>2436.1</ele>
        <time>2014-02-24T12:06:43Z</time>
      </trkpt>
      <trkpt lat="46.9157" lon="11.85099">
        <ele>2435.6</ele>
        <time>2014-02-24T12:07:02Z</time>
      </trkpt>
      <trkpt lat="46.91572" lon="11.851">
        <ele>2436.1</ele>
        <time>2014-02-24T12:07:28Z</time>
      </trkpt>
      <trkpt lat="46.91572" lon="11.85098">
        <ele>2436.1</ele>
        <time>2014-02-24T12:07:48Z</time>
      </trkpt>
      <trkpt lat="46.9157" lon="11.85076">
        <ele>2432.8</ele>
        <time>2014-02-24T12:07:53Z</time>
      </trkpt>
      <trkpt lat="46.91569" lon="11.85057">
        <ele>2429.4</ele>
        <time>2014-02-24T12:07:56Z</time>
      </trkpt>
      <trkpt lat="46.91569" lon="11.8504">
        <ele>2426</ele>
        <time>2014-02-24T12:07:59Z</time>
      </trkpt>
      <trkpt lat="46.9157" lon="11.85026">
        <ele>2421.7</ele>
        <time>2014-02-24T12:08:02Z</time>
      </trkpt>
      <trkpt lat="46.9157" lon="11.85008">
        <ele>2417.9</ele>
        <time>2014-02-24T12:08:05Z</time>
      </trkpt>
      <trkpt lat="46.91568" lon="11.84979">
        <ele>2413.1</ele>
        <time>2014-02-24T12:08:10Z</time>
      </trkpt>
      <trkpt lat="46.91566" lon="11.84967">
        <ele>2409.2</ele>
        <time>2014-02-24T12:08:13Z</time>
      </trkpt>
      <trkpt lat="46.91564" lon="11.84967">
        <ele>2409.2</ele>
        <time>2014-02-24T12:08:14Z</time>
      </trkpt>
      <trkpt lat="46.91564" lon="11.84973">
        <ele>2409.7</ele>
        <time>2014-02-24T12:08:26Z</time>
      </trkpt>
      <trkpt lat="46.91564" lon="11.84971">
        <ele>2409.2</ele>
        <time>2014-02-24T12:08:31Z</time>
      </trkpt>
      <trkpt lat="46.91562" lon="11.84969">
        <ele>2409.2</ele>
        <time>2014-02-24T12:08:33Z</time>
      </trkpt>
      <trkpt lat="46.91559" lon="11.84954">
        <ele>2404.9</ele>
        <time>2014-02-24T12:08:37Z</time>
      </trkpt>
      <trkpt lat="46.91555" lon="11.84937">
        <ele>2402</ele>
        <time>2014-02-24T12:08:41Z</time>
      </trkpt>
      <trkpt lat="46.91562" lon="11.84911">
        <ele>2397.2</ele>
        <time>2014-02-24T12:08:44Z</time>
      </trkpt>
      <trkpt lat="46.91561" lon="11.84893">
        <ele>2395.7</ele>
        <time>2014-02-24T12:08:46Z</time>
      </trkpt>
      <trkpt lat="46.91566" lon="11.84863">
        <ele>2393.8</ele>
        <time>2014-02-24T12:08:51Z</time>
      </trkpt>
      <trkpt lat="46.9157" lon="11.84845">
        <ele>2390.5</ele>
        <time>2014-02-24T12:08:54Z</time>
      </trkpt>
      <trkpt lat="46.91577" lon="11.84819">
        <ele>2387.6</ele>
        <time>2014-02-24T12:08:59Z</time>
      </trkpt>
      <trkpt lat="46.91579" lon="11.84817">
        <ele>2386.6</ele>
        <time>2014-02-24T12:09:01Z</time>
      </trkpt>
      <trkpt lat="46.91579" lon="11.84816">
        <ele>2386.6</ele>
        <time>2014-02-24T12:09:15Z</time>
      </trkpt>
      <trkpt lat="46.91578" lon="11.84814">
        <ele>2386.6</ele>
        <time>2014-02-24T12:09:37Z</time>
      </trkpt>
      <trkpt lat="46.91588" lon="11.84794">
        <ele>2381.8</ele>
        <time>2014-02-24T12:09:43Z</time>
      </trkpt>
      <trkpt lat="46.91585" lon="11.84778">
        <ele>2378.4</ele>
        <time>2014-02-24T12:09:46Z</time>
      </trkpt>
      <trkpt lat="46.91588" lon="11.84772">
        <ele>2377</ele>
        <time>2014-02-24T12:09:47Z</time>
      </trkpt>
      <trkpt lat="46.91597" lon="11.84754">
        <ele>2374.6</ele>
        <time>2014-02-24T12:09:50Z</time>
      </trkpt>
      <trkpt lat="46.91602" lon="11.8473">
        <ele>2369.3</ele>
        <time>2014-02-24T12:09:54Z</time>
      </trkpt>
      <trkpt lat="46.91605" lon="11.84714">
        <ele>2366.4</ele>
        <time>2014-02-24T12:09:57Z</time>
      </trkpt>
      <trkpt lat="46.91612" lon="11.84668">
        <ele>2361.6</ele>
        <time>2014-02-24T12:10:03Z</time>
      </trkpt>
      <trkpt lat="46.91615" lon="11.84653">
        <ele>2361.1</ele>
        <time>2014-02-24T12:10:05Z</time>
      </trkpt>
      <trkpt lat="46.91619" lon="11.8463">
        <ele>2359.7</ele>
        <time>2014-02-24T12:10:08Z</time>
      </trkpt>
      <trkpt lat="46.91622" lon="11.84606">
        <ele>2359.2</ele>
        <time>2014-02-24T12:10:12Z</time>
      </trkpt>
      <trkpt lat="46.9163" lon="11.84579">
        <ele>2355.9</ele>
        <time>2014-02-24T12:10:18Z</time>
      </trkpt>
      <trkpt lat="46.91626" lon="11.8458">
        <ele>2355.4</ele>
        <time>2014-02-24T12:10:26Z</time>
      </trkpt>
      <trkpt lat="46.91626" lon="11.84582">
        <ele>2355.4</ele>
        <time>2014-02-24T12:10:55Z</time>
      </trkpt>
      <trkpt lat="46.91626" lon="11.8458">
        <ele>2355.4</ele>
        <time>2014-02-24T12:11:14Z</time>
      </trkpt>
      <trkpt lat="46.91626" lon="11.84578">
        <ele>2354.9</ele>
        <time>2014-02-24T12:11:27Z</time>
      </trkpt>
      <trkpt lat="46.91629" lon="11.84565">
        <ele>2353.4</ele>
        <time>2014-02-24T12:11:32Z</time>
      </trkpt>
      <trkpt lat="46.9163" lon="11.84543">
        <ele>2350.1</ele>
        <time>2014-02-24T12:11:36Z</time>
      </trkpt>
      <trkpt lat="46.9163" lon="11.8454">
        <ele>2349.1</ele>
        <time>2014-02-24T12:11:43Z</time>
      </trkpt>
      <trkpt lat="46.91627" lon="11.84539">
        <ele>2348.6</ele>
        <time>2014-02-24T12:12:00Z</time>
      </trkpt>
      <trkpt lat="46.91628" lon="11.84539">
        <ele>2348.6</ele>
        <time>2014-02-24T12:12:03Z</time>
      </trkpt>
      <trkpt lat="46.91624" lon="11.84522">
        <ele>2344.8</ele>
        <time>2014-02-24T12:12:08Z</time>
      </trkpt>
      <trkpt lat="46.91633" lon="11.84513">
        <ele>2340.9</ele>
        <time>2014-02-24T12:12:11Z</time>
      </trkpt>
      <trkpt lat="46.91642" lon="11.84502">
        <ele>2337.1</ele>
        <time>2014-02-24T12:12:14Z</time>
      </trkpt>
      <trkpt lat="46.91646" lon="11.84501">
        <ele>2336.6</ele>
        <time>2014-02-24T12:12:15Z</time>
      </trkpt>
      <trkpt lat="46.91669" lon="11.845">
        <ele>2331.3</ele>
        <time>2014-02-24T12:12:20Z</time>
      </trkpt>
      <trkpt lat="46.91676" lon="11.84505">
        <ele>2328</ele>
        <time>2014-02-24T12:12:24Z</time>
      </trkpt>
      <trkpt lat="46.91673" lon="11.84507">
        <ele>2328.4</ele>
        <time>2014-02-24T12:12:39Z</time>
      </trkpt>
      <trkpt lat="46.91674" lon="11.84505">
        <ele>2328</ele>
        <time>2014-02-24T12:12:44Z</time>
      </trkpt>
      <trkpt lat="46.91686" lon="11.8451">
        <ele>2324.1</ele>
        <time>2014-02-24T12:12:48Z</time>
      </trkpt>
      <trkpt lat="46.91693" lon="11.84497">
        <ele>2320.8</ele>
        <time>2014-02-24T12:12:51Z</time>
      </trkpt>
      <trkpt lat="46.91698" lon="11.84499">
        <ele>2317.4</ele>
        <time>2014-02-24T12:12:53Z</time>
      </trkpt>
      <trkpt lat="46.91702" lon="11.84514">
        <ele>2313.6</ele>
        <time>2014-02-24T12:12:55Z</time>
      </trkpt>
      <trkpt lat="46.91706" lon="11.84526">
        <ele>2312.1</ele>
        <time>2014-02-24T12:12:57Z</time>
      </trkpt>
      <trkpt lat="46.91716" lon="11.84545">
        <ele>2309.7</ele>
        <time>2014-02-24T12:13:01Z</time>
      </trkpt>
      <trkpt lat="46.91725" lon="11.84559">
        <ele>2307.8</ele>
        <time>2014-02-24T12:13:05Z</time>
      </trkpt>
      <trkpt lat="46.91733" lon="11.84545">
        <ele>2303.5</ele>
        <time>2014-02-24T12:13:09Z</time>
      </trkpt>
      <trkpt lat="46.91733" lon="11.84541">
        <ele>2303</ele>
        <time>2014-02-24T12:13:10Z</time>
      </trkpt>
      <trkpt lat="46.9173" lon="11.84538">
        <ele>2303.9</ele>
        <time>2014-02-24T12:13:25Z</time>
      </trkpt>
      <trkpt lat="46.91731" lon="11.84539">
        <ele>2303.5</ele>
        <time>2014-02-24T12:13:38Z</time>
      </trkpt>
      <trkpt lat="46.91736" lon="11.84528">
        <ele>2299.1</ele>
        <time>2014-02-24T12:13:42Z</time>
      </trkpt>
      <trkpt lat="46.91749" lon="11.84525">
        <ele>2291</ele>
        <time>2014-02-24T12:13:47Z</time>
      </trkpt>
      <trkpt lat="46.91758" lon="11.84521">
        <ele>2286.6</ele>
        <time>2014-02-24T12:13:50Z</time>
      </trkpt>
      <trkpt lat="46.91763" lon="11.84526">
        <ele>2282.8</ele>
        <time>2014-02-24T12:13:52Z</time>
      </trkpt>
      <trkpt lat="46.91773" lon="11.84524">
        <ele>2278</ele>
        <time>2014-02-24T12:13:55Z</time>
      </trkpt>
      <trkpt lat="46.91778" lon="11.84522">
        <ele>2274.6</ele>
        <time>2014-02-24T12:13:57Z</time>
      </trkpt>
      <trkpt lat="46.91783" lon="11.84526">
        <ele>2271.2</ele>
        <time>2014-02-24T12:13:59Z</time>
      </trkpt>
      <trkpt lat="46.91784" lon="11.8453">
        <ele>2269.3</ele>
        <time>2014-02-24T12:14:01Z</time>
      </trkpt>
      <trkpt lat="46.91784" lon="11.8453">
        <ele>2271.2</ele>
        <time>2014-02-24T12:14:04Z</time>
      </trkpt>
      <trkpt lat="46.91781" lon="11.8453">
        <ele>2270.8</ele>
        <time>2014-02-24T12:14:23Z</time>
      </trkpt>
      <trkpt lat="46.91784" lon="11.8453">
        <ele>2270.8</ele>
        <time>2014-02-24T12:14:41Z</time>
      </trkpt>
      <trkpt lat="46.91785" lon="11.84529">
        <ele>2270.3</ele>
        <time>2014-02-24T12:14:43Z</time>
      </trkpt>
      <trkpt lat="46.91789" lon="11.84514">
        <ele>2266.4</ele>
        <time>2014-02-24T12:14:47Z</time>
      </trkpt>
      <trkpt lat="46.91789" lon="11.84494">
        <ele>2263.1</ele>
        <time>2014-02-24T12:14:51Z</time>
      </trkpt>
      <trkpt lat="46.91789" lon="11.84479">
        <ele>2259.7</ele>
        <time>2014-02-24T12:14:55Z</time>
      </trkpt>
      <trkpt lat="46.91789" lon="11.84469">
        <ele>2257.3</ele>
        <time>2014-02-24T12:14:59Z</time>
      </trkpt>
      <trkpt lat="46.91789" lon="11.84462">
        <ele>2256.4</ele>
        <time>2014-02-24T12:15:10Z</time>
      </trkpt>
      <trkpt lat="46.91798" lon="11.84459">
        <ele>2251.5</ele>
        <time>2014-02-24T12:15:14Z</time>
      </trkpt>
      <trkpt lat="46.91804" lon="11.84447">
        <ele>2246.3</ele>
        <time>2014-02-24T12:15:17Z</time>
      </trkpt>
      <trkpt lat="46.91818" lon="11.84442">
        <ele>2238.1</ele>
        <time>2014-02-24T12:15:21Z</time>
      </trkpt>
      <trkpt lat="46.9182" lon="11.84437">
        <ele>2234.2</ele>
        <time>2014-02-24T12:15:28Z</time>
      </trkpt>
      <trkpt lat="46.9182" lon="11.84437">
        <ele>2236.2</ele>
        <time>2014-02-24T12:15:31Z</time>
      </trkpt>
      <trkpt lat="46.91819" lon="11.84437">
        <ele>2235.7</ele>
        <time>2014-02-24T12:15:55Z</time>
      </trkpt>
      <trkpt lat="46.91826" lon="11.84438">
        <ele>2231.8</ele>
        <time>2014-02-24T12:15:59Z</time>
      </trkpt>
      <trkpt lat="46.91833" lon="11.84432">
        <ele>2227</ele>
        <time>2014-02-24T12:16:02Z</time>
      </trkpt>
      <trkpt lat="46.91838" lon="11.84431">
        <ele>2222.7</ele>
        <time>2014-02-24T12:16:04Z</time>
      </trkpt>
      <trkpt lat="46.91844" lon="11.84431">
        <ele>2218.4</ele>
        <time>2014-02-24T12:16:06Z</time>
      </trkpt>
      <trkpt lat="46.91848" lon="11.84427">
        <ele>2216.9</ele>
        <time>2014-02-24T12:16:07Z</time>
      </trkpt>
      <trkpt lat="46.91859" lon="11.84415">
        <ele>2208.8</ele>
        <time>2014-02-24T12:16:11Z</time>
      </trkpt>
      <trkpt lat="46.91865" lon="11.84404">
        <ele>2205.4</ele>
        <time>2014-02-24T12:16:13Z</time>
      </trkpt>
      <trkpt lat="46.91868" lon="11.844">
        <ele>2204</ele>
        <time>2014-02-24T12:16:14Z</time>
      </trkpt>
      <trkpt lat="46.91877" lon="11.84389">
        <ele>2199.6</ele>
        <time>2014-02-24T12:16:17Z</time>
      </trkpt>
      <trkpt lat="46.91886" lon="11.84378">
        <ele>2195.8</ele>
        <time>2014-02-24T12:16:20Z</time>
      </trkpt>
      <trkpt lat="46.91892" lon="11.84371">
        <ele>2192.9</ele>
        <time>2014-02-24T12:16:24Z</time>
      </trkpt>
      <trkpt lat="46.9189" lon="11.8437">
        <ele>2193.9</ele>
        <time>2014-02-24T12:16:47Z</time>
      </trkpt>
      <trkpt lat="46.91891" lon="11.8437">
        <ele>2193.9</ele>
        <time>2014-02-24T12:17:07Z</time>
      </trkpt>
      <trkpt lat="46.91892" lon="11.84369">
        <ele>2193.4</ele>
        <time>2014-02-24T12:17:21Z</time>
      </trkpt>
      <trkpt lat="46.91901" lon="11.84367">
        <ele>2188.6</ele>
        <time>2014-02-24T12:17:26Z</time>
      </trkpt>
      <trkpt lat="46.91909" lon="11.84358">
        <ele>2186.7</ele>
        <time>2014-02-24T12:17:29Z</time>
      </trkpt>
      <trkpt lat="46.91913" lon="11.84355">
        <ele>2185.2</ele>
        <time>2014-02-24T12:17:31Z</time>
      </trkpt>
      <trkpt lat="46.91915" lon="11.84358">
        <ele>2181.4</ele>
        <time>2014-02-24T12:17:32Z</time>
      </trkpt>
      <trkpt lat="46.91921" lon="11.84358">
        <ele>2178</ele>
        <time>2014-02-24T12:17:34Z</time>
      </trkpt>
      <trkpt lat="46.91928" lon="11.8435">
        <ele>2172.7</ele>
        <time>2014-02-24T12:17:36Z</time>
      </trkpt>
      <trkpt lat="46.91931" lon="11.84344">
        <ele>2171.3</ele>
        <time>2014-02-24T12:17:37Z</time>
      </trkpt>
      <trkpt lat="46.91942" lon="11.84328">
        <ele>2166.5</ele>
        <time>2014-02-24T12:17:41Z</time>
      </trkpt>
      <trkpt lat="46.91945" lon="11.84323">
        <ele>2165</ele>
        <time>2014-02-24T12:17:43Z</time>
      </trkpt>
      <trkpt lat="46.9195" lon="11.84324">
        <ele>2160.7</ele>
        <time>2014-02-24T12:17:46Z</time>
      </trkpt>
      <trkpt lat="46.91952" lon="11.84324">
        <ele>2158.8</ele>
        <time>2014-02-24T12:17:47Z</time>
      </trkpt>
      <trkpt lat="46.91962" lon="11.84312">
        <ele>2154.4</ele>
        <time>2014-02-24T12:17:49Z</time>
      </trkpt>
      <trkpt lat="46.91968" lon="11.84301">
        <ele>2151.1</ele>
        <time>2014-02-24T12:17:51Z</time>
      </trkpt>
      <trkpt lat="46.9197" lon="11.84294">
        <ele>2151.1</ele>
        <time>2014-02-24T12:18:00Z</time>
      </trkpt>
      <trkpt lat="46.9197" lon="11.84295">
        <ele>2151.1</ele>
        <time>2014-02-24T12:18:02Z</time>
      </trkpt>
      <trkpt lat="46.9198" lon="11.84286">
        <ele>2147.2</ele>
        <time>2014-02-24T12:18:08Z</time>
      </trkpt>
      <trkpt lat="46.91982" lon="11.84284">
        <ele>2146.8</ele>
        <time>2014-02-24T12:18:09Z</time>
      </trkpt>
      <trkpt lat="46.91985" lon="11.84289">
        <ele>2142.4</ele>
        <time>2014-02-24T12:18:12Z</time>
      </trkpt>
      <trkpt lat="46.91996" lon="11.84286">
        <ele>2137.1</ele>
        <time>2014-02-24T12:18:16Z</time>
      </trkpt>
      <trkpt lat="46.92006" lon="11.84266">
        <ele>2132.3</ele>
        <time>2014-02-24T12:18:22Z</time>
      </trkpt>
      <trkpt lat="46.92007" lon="11.84263">
        <ele>2131.4</ele>
        <time>2014-02-24T12:18:23Z</time>
      </trkpt>
      <trkpt lat="46.92016" lon="11.84264">
        <ele>2125.6</ele>
        <time>2014-02-24T12:18:27Z</time>
      </trkpt>
      <trkpt lat="46.92023" lon="11.84263">
        <ele>2121.3</ele>
        <time>2014-02-24T12:18:29Z</time>
      </trkpt>
      <trkpt lat="46.92029" lon="11.84249">
        <ele>2118.4</ele>
        <time>2014-02-24T12:18:33Z</time>
      </trkpt>
      <trkpt lat="46.92038" lon="11.84234">
        <ele>2116</ele>
        <time>2014-02-24T12:18:46Z</time>
      </trkpt>
      <trkpt lat="46.92044" lon="11.84223">
        <ele>2112.6</ele>
        <time>2014-02-24T12:18:49Z</time>
      </trkpt>
      <trkpt lat="46.92052" lon="11.84214">
        <ele>2109.3</ele>
        <time>2014-02-24T12:18:52Z</time>
      </trkpt>
      <trkpt lat="46.92054" lon="11.8421">
        <ele>2107.8</ele>
        <time>2014-02-24T12:18:55Z</time>
      </trkpt>
      <trkpt lat="46.92061" lon="11.84208">
        <ele>2105.4</ele>
        <time>2014-02-24T12:19:07Z</time>
      </trkpt>
      <trkpt lat="46.9207" lon="11.84216">
        <ele>2100.6</ele>
        <time>2014-02-24T12:19:10Z</time>
      </trkpt>
      <trkpt lat="46.92077" lon="11.84216">
        <ele>2096.3</ele>
        <time>2014-02-24T12:19:12Z</time>
      </trkpt>
      <trkpt lat="46.92088" lon="11.84205">
        <ele>2092.4</ele>
        <time>2014-02-24T12:19:15Z</time>
      </trkpt>
      <trkpt lat="46.92094" lon="11.84194">
        <ele>2088.1</ele>
        <time>2014-02-24T12:19:17Z</time>
      </trkpt>
      <trkpt lat="46.92106" lon="11.84184">
        <ele>2082.8</ele>
        <time>2014-02-24T12:19:20Z</time>
      </trkpt>
      <trkpt lat="46.92115" lon="11.84185">
        <ele>2079</ele>
        <time>2014-02-24T12:19:22Z</time>
      </trkpt>
      <trkpt lat="46.92125" lon="11.84182">
        <ele>2075.6</ele>
        <time>2014-02-24T12:19:24Z</time>
      </trkpt>
      <trkpt lat="46.92131" lon="11.8418">
        <ele>2074.7</ele>
        <time>2014-02-24T12:19:25Z</time>
      </trkpt>
      <trkpt lat="46.92141" lon="11.84176">
        <ele>2072.3</ele>
        <time>2014-02-24T12:19:27Z</time>
      </trkpt>
      <trkpt lat="46.92153" lon="11.8417">
        <ele>2069.4</ele>
        <time>2014-02-24T12:19:36Z</time>
      </trkpt>
      <trkpt lat="46.9215" lon="11.84171">
        <ele>2069.4</ele>
        <time>2014-02-24T12:20:00Z</time>
      </trkpt>
      <trkpt lat="46.9215" lon="11.8417">
        <ele>2070.3</ele>
        <time>2014-02-24T12:20:19Z</time>
      </trkpt>
      <trkpt lat="46.92146" lon="11.84171">
        <ele>2070.3</ele>
        <time>2014-02-24T12:20:40Z</time>
      </trkpt>
      <trkpt lat="46.9216" lon="11.84168">
        <ele>2067.9</ele>
        <time>2014-02-24T12:20:59Z</time>
      </trkpt>
      <trkpt lat="46.92168" lon="11.84158">
        <ele>2066</ele>
        <time>2014-02-24T12:21:10Z</time>
      </trkpt>
      <trkpt lat="46.92171" lon="11.84158">
        <ele>2063.6</ele>
        <time>2014-02-24T12:21:13Z</time>
      </trkpt>
      <trkpt lat="46.92174" lon="11.84145">
        <ele>2060.2</ele>
        <time>2014-02-24T12:21:25Z</time>
      </trkpt>
      <trkpt lat="46.92186" lon="11.84139">
        <ele>2055</ele>
        <time>2014-02-24T12:21:30Z</time>
      </trkpt>
      <trkpt lat="46.92195" lon="11.84157">
        <ele>2049.7</ele>
        <time>2014-02-24T12:21:34Z</time>
      </trkpt>
      <trkpt lat="46.92198" lon="11.84164">
        <ele>2045.8</ele>
        <time>2014-02-24T12:21:36Z</time>
      </trkpt>
      <trkpt lat="46.92201" lon="11.84171">
        <ele>2042.5</ele>
        <time>2014-02-24T12:21:38Z</time>
      </trkpt>
      <trkpt lat="46.92207" lon="11.8418">
        <ele>2039.1</ele>
        <time>2014-02-24T12:21:41Z</time>
      </trkpt>
      <trkpt lat="46.92211" lon="11.84188">
        <ele>2035.2</ele>
        <time>2014-02-24T12:21:43Z</time>
      </trkpt>
      <trkpt lat="46.92214" lon="11.842">
        <ele>2030.9</ele>
        <time>2014-02-24T12:21:45Z</time>
      </trkpt>
      <trkpt lat="46.92221" lon="11.84209">
        <ele>2026.1</ele>
        <time>2014-02-24T12:21:47Z</time>
      </trkpt>
      <trkpt lat="46.92232" lon="11.84214">
        <ele>2021.3</ele>
        <time>2014-02-24T12:21:49Z</time>
      </trkpt>
      <trkpt lat="46.92242" lon="11.84215">
        <ele>2017.9</ele>
        <time>2014-02-24T12:21:51Z</time>
      </trkpt>
      <trkpt lat="46.92245" lon="11.84209">
        <ele>2017.5</ele>
        <time>2014-02-24T12:21:59Z</time>
      </trkpt>
      <trkpt lat="46.92244" lon="11.84211">
        <ele>2017.9</ele>
        <time>2014-02-24T12:22:18Z</time>
      </trkpt>
      <trkpt lat="46.92242" lon="11.84212">
        <ele>2017.9</ele>
        <time>2014-02-24T12:22:33Z</time>
      </trkpt>
      <trkpt lat="46.92241" lon="11.84215">
        <ele>2017.5</ele>
        <time>2014-02-24T12:22:43Z</time>
      </trkpt>
      <trkpt lat="46.92244" lon="11.84219">
        <ele>2017.5</ele>
        <time>2014-02-24T12:22:54Z</time>
      </trkpt>
      <trkpt lat="46.92246" lon="11.84218">
        <ele>2017.5</ele>
        <time>2014-02-24T12:23:18Z</time>
      </trkpt>
      <trkpt lat="46.92247" lon="11.84219">
        <ele>2017</ele>
        <time>2014-02-24T12:23:23Z</time>
      </trkpt>
      <trkpt lat="46.92251" lon="11.84232">
        <ele>2014.1</ele>
        <time>2014-02-24T12:23:27Z</time>
      </trkpt>
      <trkpt lat="46.92252" lon="11.84236">
        <ele>2013.6</ele>
        <time>2014-02-24T12:23:28Z</time>
      </trkpt>
      <trkpt lat="46.92264" lon="11.8425">
        <ele>2010.2</ele>
        <time>2014-02-24T12:23:32Z</time>
      </trkpt>
      <trkpt lat="46.92269" lon="11.84254">
        <ele>2008.8</ele>
        <time>2014-02-24T12:23:35Z</time>
      </trkpt>
      <trkpt lat="46.92275" lon="11.84247">
        <ele>2005.4</ele>
        <time>2014-02-24T12:23:41Z</time>
      </trkpt>
      <trkpt lat="46.92275" lon="11.84243">
        <ele>2005</ele>
        <time>2014-02-24T12:23:53Z</time>
      </trkpt>
      <trkpt lat="46.92274" lon="11.84234">
        <ele>2004</ele>
        <time>2014-02-24T12:24:14Z</time>
      </trkpt>
      <trkpt lat="46.9228" lon="11.84223">
        <ele>2000.6</ele>
        <time>2014-02-24T12:24:17Z</time>
      </trkpt>
      <trkpt lat="46.92284" lon="11.84224">
        <ele>1998.2</ele>
        <time>2014-02-24T12:24:26Z</time>
      </trkpt>
      <trkpt lat="46.92285" lon="11.84227">
        <ele>1997.8</ele>
        <time>2014-02-24T12:24:48Z</time>
      </trkpt>
      <trkpt lat="46.92287" lon="11.8423">
        <ele>1997.3</ele>
        <time>2014-02-24T12:24:50Z</time>
      </trkpt>
      <trkpt lat="46.92299" lon="11.84244">
        <ele>1993.4</ele>
        <time>2014-02-24T12:24:55Z</time>
      </trkpt>
      <trkpt lat="46.923" lon="11.84247">
        <ele>1993.4</ele>
        <time>2014-02-24T12:25:00Z</time>
      </trkpt>
      <trkpt lat="46.92312" lon="11.8424">
        <ele>1989.1</ele>
        <time>2014-02-24T12:25:06Z</time>
      </trkpt>
      <trkpt lat="46.92315" lon="11.84243">
        <ele>1987.2</ele>
        <time>2014-02-24T12:25:07Z</time>
      </trkpt>
      <trkpt lat="46.92325" lon="11.84243">
        <ele>1981.4</ele>
        <time>2014-02-24T12:25:15Z</time>
      </trkpt>
      <trkpt lat="46.92326" lon="11.84242">
        <ele>1981.4</ele>
        <time>2014-02-24T12:25:32Z</time>
      </trkpt>
      <trkpt lat="46.92333" lon="11.84251">
        <ele>1977.6</ele>
        <time>2014-02-24T12:25:35Z</time>
      </trkpt>
      <trkpt lat="46.92348" lon="11.84267">
        <ele>1972.3</ele>
        <time>2014-02-24T12:25:38Z</time>
      </trkpt>
      <trkpt lat="46.92356" lon="11.84276">
        <ele>1970.8</ele>
        <time>2014-02-24T12:25:40Z</time>
      </trkpt>
      <trkpt lat="46.92369" lon="11.84272">
        <ele>1966.5</ele>
        <time>2014-02-24T12:25:45Z</time>
      </trkpt>
      <trkpt lat="46.92373" lon="11.84279">
        <ele>1964.1</ele>
        <time>2014-02-24T12:25:47Z</time>
      </trkpt>
      <trkpt lat="46.92383" lon="11.84289">
        <ele>1959.8</ele>
        <time>2014-02-24T12:25:51Z</time>
      </trkpt>
      <trkpt lat="46.9239" lon="11.84281">
        <ele>1957.9</ele>
        <time>2014-02-24T12:25:54Z</time>
      </trkpt>
      <trkpt lat="46.92392" lon="11.84284">
        <ele>1955.9</ele>
        <time>2014-02-24T12:26:00Z</time>
      </trkpt>
      <trkpt lat="46.92394" lon="11.84287">
        <ele>1956.4</ele>
        <time>2014-02-24T12:26:15Z</time>
      </trkpt>
      <trkpt lat="46.92399" lon="11.84295">
        <ele>1952.6</ele>
        <time>2014-02-24T12:26:19Z</time>
      </trkpt>
      <trkpt lat="46.92403" lon="11.84301">
        <ele>1951.1</ele>
        <time>2014-02-24T12:26:21Z</time>
      </trkpt>
      <trkpt lat="46.92411" lon="11.84303">
        <ele>1949.2</ele>
        <time>2014-02-24T12:26:25Z</time>
      </trkpt>
      <trkpt lat="46.92413" lon="11.84304">
        <ele>1949.2</ele>
        <time>2014-02-24T12:26:36Z</time>
      </trkpt>
      <trkpt lat="46.92415" lon="11.84292">
        <ele>1945.4</ele>
        <time>2014-02-24T12:26:41Z</time>
      </trkpt>
      <trkpt lat="46.92415" lon="11.84291">
        <ele>1945.4</ele>
        <time>2014-02-24T12:26:44Z</time>
      </trkpt>
      <trkpt lat="46.92419" lon="11.8429">
        <ele>1943</ele>
        <time>2014-02-24T12:26:48Z</time>
      </trkpt>
      <trkpt lat="46.92437" lon="11.84286">
        <ele>1938.6</ele>
        <time>2014-02-24T12:26:53Z</time>
      </trkpt>
      <trkpt lat="46.92443" lon="11.84289">
        <ele>1937.7</ele>
        <time>2014-02-24T12:26:55Z</time>
      </trkpt>
      <trkpt lat="46.92446" lon="11.8429">
        <ele>1937.7</ele>
        <time>2014-02-24T12:26:59Z</time>
      </trkpt>
      <trkpt lat="46.92454" lon="11.84291">
        <ele>1934.8</ele>
        <time>2014-02-24T12:27:11Z</time>
      </trkpt>
      <trkpt lat="46.92469" lon="11.84289">
        <ele>1929.5</ele>
        <time>2014-02-24T12:27:15Z</time>
      </trkpt>
      <trkpt lat="46.92483" lon="11.84297">
        <ele>1926.6</ele>
        <time>2014-02-24T12:27:21Z</time>
      </trkpt>
      <trkpt lat="46.92485" lon="11.84298">
        <ele>1926.6</ele>
        <time>2014-02-24T12:27:23Z</time>
      </trkpt>
      <trkpt lat="46.92486" lon="11.84288">
        <ele>1922.8</ele>
        <time>2014-02-24T12:27:27Z</time>
      </trkpt>
      <trkpt lat="46.92493" lon="11.84284">
        <ele>1918.9</ele>
        <time>2014-02-24T12:27:30Z</time>
      </trkpt>
      <trkpt lat="46.92496" lon="11.84285">
        <ele>1918.4</ele>
        <time>2014-02-24T12:27:32Z</time>
      </trkpt>
      <trkpt lat="46.92494" lon="11.84274">
        <ele>1917</ele>
        <time>2014-02-24T12:27:36Z</time>
      </trkpt>
      <trkpt lat="46.92494" lon="11.84268">
        <ele>1916.5</ele>
        <time>2014-02-24T12:27:38Z</time>
      </trkpt>
      <trkpt lat="46.92502" lon="11.84262">
        <ele>1916</ele>
        <time>2014-02-24T12:27:51Z</time>
      </trkpt>
      <trkpt lat="46.92506" lon="11.84257">
        <ele>1914.6</ele>
        <time>2014-02-24T12:27:53Z</time>
      </trkpt>
      <trkpt lat="46.92527" lon="11.84252">
        <ele>1910.8</ele>
        <time>2014-02-24T12:27:58Z</time>
      </trkpt>
      <trkpt lat="46.92542" lon="11.84246">
        <ele>1907.9</ele>
        <time>2014-02-24T12:28:02Z</time>
      </trkpt>
      <trkpt lat="46.92541" lon="11.84245">
        <ele>1907.9</ele>
        <time>2014-02-24T12:28:17Z</time>
      </trkpt>
      <trkpt lat="46.92539" lon="11.8425">
        <ele>1907.4</ele>
        <time>2014-02-24T12:28:33Z</time>
      </trkpt>
      <trkpt lat="46.92552" lon="11.84239">
        <ele>1905.5</ele>
        <time>2014-02-24T12:28:38Z</time>
      </trkpt>
      <trkpt lat="46.92567" lon="11.84233">
        <ele>1901.6</ele>
        <time>2014-02-24T12:28:41Z</time>
      </trkpt>
      <trkpt lat="46.92582" lon="11.8423">
        <ele>1899.2</ele>
        <time>2014-02-24T12:28:44Z</time>
      </trkpt>
      <trkpt lat="46.92595" lon="11.84224">
        <ele>1898.3</ele>
        <time>2014-02-24T12:28:53Z</time>
      </trkpt>
      <trkpt lat="46.92587" lon="11.8423">
        <ele>1898.3</ele>
        <time>2014-02-24T12:29:13Z</time>
      </trkpt>
      <trkpt lat="46.92587" lon="11.84228">
        <ele>1899.7</ele>
        <time>2014-02-24T12:29:36Z</time>
      </trkpt>
      <trkpt lat="46.92583" lon="11.84236">
        <ele>1898.3</ele>
        <time>2014-02-24T12:30:01Z</time>
      </trkpt>
      <trkpt lat="46.92587" lon="11.84237">
        <ele>1897.8</ele>
        <time>2014-02-24T12:30:26Z</time>
      </trkpt>
      <trkpt lat="46.92587" lon="11.84235">
        <ele>1898.3</ele>
        <time>2014-02-24T12:30:41Z</time>
      </trkpt>
      <trkpt lat="46.92607" lon="11.84237">
        <ele>1893.4</ele>
        <time>2014-02-24T12:30:48Z</time>
      </trkpt>
      <trkpt lat="46.92643" lon="11.84242">
        <ele>1890.1</ele>
        <time>2014-02-24T12:30:56Z</time>
      </trkpt>
      <trkpt lat="46.92647" lon="11.84241">
        <ele>1889.6</ele>
        <time>2014-02-24T12:30:57Z</time>
      </trkpt>
      <trkpt lat="46.92659" lon="11.84237">
        <ele>1887.7</ele>
        <time>2014-02-24T12:31:00Z</time>
      </trkpt>
      <trkpt lat="46.92684" lon="11.84236">
        <ele>1882.9</ele>
        <time>2014-02-24T12:31:07Z</time>
      </trkpt>
      <trkpt lat="46.92697" lon="11.84249">
        <ele>1876.6</ele>
        <time>2014-02-24T12:31:11Z</time>
      </trkpt>
      <trkpt lat="46.92706" lon="11.84258">
        <ele>1874.7</ele>
        <time>2014-02-24T12:31:13Z</time>
      </trkpt>
      <trkpt lat="46.92729" lon="11.84263">
        <ele>1871.8</ele>
        <time>2014-02-24T12:31:18Z</time>
      </trkpt>
      <trkpt lat="46.9275" lon="11.84258">
        <ele>1868.5</ele>
        <time>2014-02-24T12:31:27Z</time>
      </trkpt>
      <trkpt lat="46.92761" lon="11.84253">
        <ele>1865.6</ele>
        <time>2014-02-24T12:31:31Z</time>
      </trkpt>
      <trkpt lat="46.92772" lon="11.84264">
        <ele>1861.2</ele>
        <time>2014-02-24T12:31:36Z</time>
      </trkpt>
      <trkpt lat="46.92773" lon="11.84271">
        <ele>1858.4</ele>
        <time>2014-02-24T12:31:39Z</time>
      </trkpt>
      <trkpt lat="46.92772" lon="11.84273">
        <ele>1858.4</ele>
        <time>2014-02-24T12:31:41Z</time>
      </trkpt>
      <trkpt lat="46.92789" lon="11.84281">
        <ele>1855.5</ele>
        <time>2014-02-24T12:31:48Z</time>
      </trkpt>
      <trkpt lat="46.92792" lon="11.84279">
        <ele>1854.5</ele>
        <time>2014-02-24T12:31:50Z</time>
      </trkpt>
      <trkpt lat="46.92793" lon="11.8428">
        <ele>1854.5</ele>
        <time>2014-02-24T12:31:54Z</time>
      </trkpt>
      <trkpt lat="46.92804" lon="11.84281">
        <ele>1851.2</ele>
        <time>2014-02-24T12:31:58Z</time>
      </trkpt>
      <trkpt lat="46.92821" lon="11.84283">
        <ele>1849.2</ele>
        <time>2014-02-24T12:32:06Z</time>
      </trkpt>
      <trkpt lat="46.92813" lon="11.84288">
        <ele>1849.2</ele>
        <time>2014-02-24T12:32:20Z</time>
      </trkpt>
      <trkpt lat="46.92819" lon="11.84296">
        <ele>1845.9</ele>
        <time>2014-02-24T12:32:23Z</time>
      </trkpt>
      <trkpt lat="46.92843" lon="11.84309">
        <ele>1841.1</ele>
        <time>2014-02-24T12:32:28Z</time>
      </trkpt>
      <trkpt lat="46.9285" lon="11.84309">
        <ele>1840.6</ele>
        <time>2014-02-24T12:32:30Z</time>
      </trkpt>
      <trkpt lat="46.92867" lon="11.8431">
        <ele>1837.2</ele>
        <time>2014-02-24T12:32:36Z</time>
      </trkpt>
      <trkpt lat="46.92872" lon="11.84309">
        <ele>1836.3</ele>
        <time>2014-02-24T12:32:38Z</time>
      </trkpt>
      <trkpt lat="46.92885" lon="11.84303">
        <ele>1833.4</ele>
        <time>2014-02-24T12:32:41Z</time>
      </trkpt>
      <trkpt lat="46.92902" lon="11.84302">
        <ele>1831</ele>
        <time>2014-02-24T12:32:44Z</time>
      </trkpt>
      <trkpt lat="46.9293" lon="11.84292">
        <ele>1829.1</ele>
        <time>2014-02-24T12:32:50Z</time>
      </trkpt>
      <trkpt lat="46.9294" lon="11.8429">
        <ele>1828.6</ele>
        <time>2014-02-24T12:32:52Z</time>
      </trkpt>
      <trkpt lat="46.92965" lon="11.84293">
        <ele>1826.6</ele>
        <time>2014-02-24T12:33:01Z</time>
      </trkpt>
      <trkpt lat="46.92965" lon="11.84291">
        <ele>1826.6</ele>
        <time>2014-02-24T12:33:15Z</time>
      </trkpt>
      <trkpt lat="46.92966" lon="11.84291">
        <ele>1826.6</ele>
        <time>2014-02-24T12:33:34Z</time>
      </trkpt>
      <trkpt lat="46.92977" lon="11.84284">
        <ele>1825.2</ele>
        <time>2014-02-24T12:33:42Z</time>
      </trkpt>
      <trkpt lat="46.92993" lon="11.84276">
        <ele>1822.3</ele>
        <time>2014-02-24T12:33:46Z</time>
      </trkpt>
      <trkpt lat="46.93036" lon="11.84261">
        <ele>1818</ele>
        <time>2014-02-24T12:33:56Z</time>
      </trkpt>
      <trkpt lat="46.93038" lon="11.84253">
        <ele>1817</ele>
        <time>2014-02-24T12:34:04Z</time>
      </trkpt>
      <trkpt lat="46.93039" lon="11.84253">
        <ele>1817.5</ele>
        <time>2014-02-24T12:34:05Z</time>
      </trkpt>
      <trkpt lat="46.93058" lon="11.84246">
        <ele>1814.6</ele>
        <time>2014-02-24T12:34:11Z</time>
      </trkpt>
      <trkpt lat="46.93077" lon="11.84245">
        <ele>1811.7</ele>
        <time>2014-02-24T12:34:14Z</time>
      </trkpt>
      <trkpt lat="46.93094" lon="11.84238">
        <ele>1809.8</ele>
        <time>2014-02-24T12:34:21Z</time>
      </trkpt>
      <trkpt lat="46.931" lon="11.84239">
        <ele>1809.8</ele>
        <time>2014-02-24T12:34:37Z</time>
      </trkpt>
      <trkpt lat="46.931" lon="11.84242">
        <ele>1809.8</ele>
        <time>2014-02-24T12:34:57Z</time>
      </trkpt>
      <trkpt lat="46.93098" lon="11.84241">
        <ele>1809.8</ele>
        <time>2014-02-24T12:35:10Z</time>
      </trkpt>
      <trkpt lat="46.93098" lon="11.84239">
        <ele>1809.8</ele>
        <time>2014-02-24T12:35:29Z</time>
      </trkpt>
      <trkpt lat="46.93097" lon="11.8424">
        <ele>1809.8</ele>
        <time>2014-02-24T12:35:41Z</time>
      </trkpt>
      <trkpt lat="46.93102" lon="11.84239">
        <ele>1809.8</ele>
        <time>2014-02-24T12:35:53Z</time>
      </trkpt>
      <trkpt lat="46.93105" lon="11.84242">
        <ele>1809.8</ele>
        <time>2014-02-24T12:36:07Z</time>
      </trkpt>
      <trkpt lat="46.93103" lon="11.84244">
        <ele>1808.9</ele>
        <time>2014-02-24T12:36:22Z</time>
      </trkpt>
      <trkpt lat="46.93103" lon="11.84245">
        <ele>1808.9</ele>
        <time>2014-02-24T12:36:49Z</time>
      </trkpt>
      <trkpt lat="46.93103" lon="11.84244">
        <ele>1808.9</ele>
        <time>2014-02-24T12:37:06Z</time>
      </trkpt>
      <trkpt lat="46.93103" lon="11.84245">
        <ele>1808.9</ele>
        <time>2014-02-24T12:37:28Z</time>
      </trkpt>
      <trkpt lat="46.93102" lon="11.84245">
        <ele>1808.9</ele>
        <time>2014-02-24T12:37:44Z</time>
      </trkpt>
      <trkpt lat="46.93102" lon="11.84246">
        <ele>1808.9</ele>
        <time>2014-02-24T12:38:02Z</time>
      </trkpt>
      <trkpt lat="46.93102" lon="11.84246">
        <ele>1808.9</ele>
        <time>2014-02-24T12:38:17Z</time>
      </trkpt>
      <trkpt lat="46.93102" lon="11.84246">
        <ele>1808.9</ele>
        <time>2014-02-24T12:38:35Z</time>
      </trkpt>
      <trkpt lat="46.93101" lon="11.84246">
        <ele>1808.9</ele>
        <time>2014-02-24T12:38:55Z</time>
      </trkpt>
      <trkpt lat="46.93101" lon="11.84246">
        <ele>1808.9</ele>
        <time>2014-02-24T12:39:18Z</time>
      </trkpt>
      <trkpt lat="46.93102" lon="11.84246">
        <ele>1808.9</ele>
        <time>2014-02-24T12:39:38Z</time>
      </trkpt>
      <trkpt lat="46.93101" lon="11.84246">
        <ele>1808.9</ele>
        <time>2014-02-24T12:39:57Z</time>
      </trkpt>
      <trkpt lat="46.93102" lon="11.84246">
        <ele>1808.9</ele>
        <time>2014-02-24T12:40:11Z</time>
      </trkpt>
      <trkpt lat="46.93101" lon="11.8425">
        <ele>1808.9</ele>
        <time>2014-02-24T12:40:25Z</time>
      </trkpt>
      <trkpt lat="46.931" lon="11.84252">
        <ele>1808.9</ele>
        <time>2014-02-24T12:40:47Z</time>
      </trkpt>
      <trkpt lat="46.93099" lon="11.84254">
        <ele>1809.3</ele>
        <time>2014-02-24T12:41:11Z</time>
      </trkpt>
      <trkpt lat="46.93101" lon="11.8425">
        <ele>1809.3</ele>
        <time>2014-02-24T12:41:44Z</time>
      </trkpt>
      <trkpt lat="46.93103" lon="11.84247">
        <ele>1809.3</ele>
        <time>2014-02-24T12:42:09Z</time>
      </trkpt>
      <trkpt lat="46.93102" lon="11.84246">
        <ele>1809.3</ele>
        <time>2014-02-24T12:42:25Z</time>
      </trkpt>
      <trkpt lat="46.93101" lon="11.84249">
        <ele>1809.3</ele>
        <time>2014-02-24T12:42:49Z</time>
      </trkpt>
      <trkpt lat="46.93101" lon="11.84249">
        <ele>1809.3</ele>
        <time>2014-02-24T12:43:05Z</time>
      </trkpt>
      <trkpt lat="46.93101" lon="11.8425">
        <ele>1809.3</ele>
        <time>2014-02-24T12:43:36Z</time>
      </trkpt>
      <trkpt lat="46.93101" lon="11.84247">
        <ele>1809.3</ele>
        <time>2014-02-24T12:44:01Z</time>
      </trkpt>
      <trkpt lat="46.93101" lon="11.84248">
        <ele>1809.8</ele>
        <time>2014-02-24T12:44:26Z</time>
      </trkpt>
      <trkpt lat="46.93104" lon="11.84249">
        <ele>1809.8</ele>
        <time>2014-02-24T12:44:51Z</time>
      </trkpt>
      <trkpt lat="46.93106" lon="11.84245">
        <ele>1809.8</ele>
        <time>2014-02-24T12:45:13Z</time>
      </trkpt>
      <trkpt lat="46.93107" lon="11.84244">
        <ele>1809.8</ele>
        <time>2014-02-24T12:45:30Z</time>
      </trkpt>
      <trkpt lat="46.93107" lon="11.84242">
        <ele>1811.3</ele>
        <time>2014-02-24T12:45:44Z</time>
      </trkpt>
      <trkpt lat="46.93106" lon="11.84245">
        <ele>1809.8</ele>
        <time>2014-02-24T12:46:04Z</time>
      </trkpt>
      <trkpt lat="46.93104" lon="11.84243">
        <ele>1809.8</ele>
        <time>2014-02-24T12:46:26Z</time>
      </trkpt>
      <trkpt lat="46.93106" lon="11.84243">
        <ele>1809.8</ele>
        <time>2014-02-24T12:46:44Z</time>
      </trkpt>
      <trkpt lat="46.93103" lon="11.84245">
        <ele>1809.8</ele>
        <time>2014-02-24T12:47:08Z</time>
      </trkpt>
      <trkpt lat="46.93107" lon="11.84241">
        <ele>1809.8</ele>
        <time>2014-02-24T12:47:36Z</time>
      </trkpt>
      <trkpt lat="46.93106" lon="11.84241">
        <ele>1810.3</ele>
        <time>2014-02-24T12:47:57Z</time>
      </trkpt>
      <trkpt lat="46.93104" lon="11.8424">
        <ele>1809.8</ele>
        <time>2014-02-24T12:48:26Z</time>
      </trkpt>
      <trkpt lat="46.93105" lon="11.84244">
        <ele>1809.8</ele>
        <time>2014-02-24T12:48:44Z</time>
      </trkpt>
      <trkpt lat="46.93105" lon="11.84243">
        <ele>1810.3</ele>
        <time>2014-02-24T12:49:13Z</time>
      </trkpt>
      <trkpt lat="46.93106" lon="11.84242">
        <ele>1810.3</ele>
        <time>2014-02-24T12:49:48Z</time>
      </trkpt>
      <trkpt lat="46.93107" lon="11.84239">
        <ele>1810.3</ele>
        <time>2014-02-24T12:50:19Z</time>
      </trkpt>
      <trkpt lat="46.93108" lon="11.84241">
        <ele>1810.3</ele>
        <time>2014-02-24T12:50:42Z</time>
      </trkpt>
      <trkpt lat="46.93107" lon="11.84244">
        <ele>1810.8</ele>
        <time>2014-02-24T12:51:06Z</time>
      </trkpt>
      <trkpt lat="46.93108" lon="11.84242">
        <ele>1810.8</ele>
        <time>2014-02-24T12:51:33Z</time>
      </trkpt>
      <trkpt lat="46.93106" lon="11.84241">
        <ele>1811.3</ele>
        <time>2014-02-24T12:52:12Z</time>
      </trkpt>
      <trkpt lat="46.93106" lon="11.84241">
        <ele>1811.3</ele>
        <time>2014-02-24T12:52:43Z</time>
      </trkpt>
      <trkpt lat="46.93105" lon="11.84243">
        <ele>1811.3</ele>
        <time>2014-02-24T12:53:17Z</time>
      </trkpt>
      <trkpt lat="46.93106" lon="11.84242">
        <ele>1813.2</ele>
        <time>2014-02-24T12:53:48Z</time>
      </trkpt>
      <trkpt lat="46.93105" lon="11.84242">
        <ele>1811.7</ele>
        <time>2014-02-24T12:54:26Z</time>
      </trkpt>
      <trkpt lat="46.93106" lon="11.84241">
        <ele>1811.7</ele>
        <time>2014-02-24T12:54:59Z</time>
      </trkpt>
      <trkpt lat="46.93107" lon="11.84238">
        <ele>1812.2</ele>
        <time>2014-02-24T12:55:24Z</time>
      </trkpt>
      <trkpt lat="46.93107" lon="11.84244">
        <ele>1812.7</ele>
        <time>2014-02-24T12:56:02Z</time>
      </trkpt>
      <trkpt lat="46.93107" lon="11.84243">
        <ele>1812.7</ele>
        <time>2014-02-24T12:56:29Z</time>
      </trkpt>
      <trkpt lat="46.93108" lon="11.84242">
        <ele>1812.7</ele>
        <time>2014-02-24T12:57:08Z</time>
      </trkpt>
      <trkpt lat="46.93106" lon="11.84242">
        <ele>1813.2</ele>
        <time>2014-02-24T12:57:41Z</time>
      </trkpt>
      <trkpt lat="46.93107" lon="11.84241">
        <ele>1813.2</ele>
        <time>2014-02-24T12:58:18Z</time>
      </trkpt>
      <trkpt lat="46.93108" lon="11.84241">
        <ele>1813.2</ele>
        <time>2014-02-24T12:58:59Z</time>
      </trkpt>
      <trkpt lat="46.93105" lon="11.84242">
        <ele>1813.7</ele>
        <time>2014-02-24T12:59:26Z</time>
      </trkpt>
      <trkpt lat="46.93107" lon="11.84242">
        <ele>1813.7</ele>
        <time>2014-02-24T13:00:00Z</time>
      </trkpt>
      <trkpt lat="46.93107" lon="11.84243">
        <ele>1814.2</ele>
        <time>2014-02-24T13:00:37Z</time>
      </trkpt>
      <trkpt lat="46.93107" lon="11.84242">
        <ele>1814.2</ele>
        <time>2014-02-24T13:01:07Z</time>
      </trkpt>
      <trkpt lat="46.93106" lon="11.8424">
        <ele>1814.2</ele>
        <time>2014-02-24T13:01:50Z</time>
      </trkpt>
      <trkpt lat="46.93108" lon="11.84243">
        <ele>1814.2</ele>
        <time>2014-02-24T13:02:31Z</time>
      </trkpt>
      <trkpt lat="46.93105" lon="11.8424">
        <ele>1814.6</ele>
        <time>2014-02-24T13:03:05Z</time>
      </trkpt>
      <trkpt lat="46.93105" lon="11.84241">
        <ele>1814.6</ele>
        <time>2014-02-24T13:03:37Z</time>
      </trkpt>
      <trkpt lat="46.93106" lon="11.84239">
        <ele>1814.6</ele>
        <time>2014-02-24T13:04:07Z</time>
      </trkpt>
      <trkpt lat="46.93106" lon="11.84239">
        <ele>1814.6</ele>
        <time>2014-02-24T13:04:32Z</time>
      </trkpt>
      <trkpt lat="46.93107" lon="11.8424">
        <ele>1815.1</ele>
        <time>2014-02-24T13:04:59Z</time>
      </trkpt>
      <trkpt lat="46.93107" lon="11.84238">
        <ele>1815.1</ele>
        <time>2014-02-24T13:05:19Z</time>
      </trkpt>
      <trkpt lat="46.93106" lon="11.84238">
        <ele>1815.1</ele>
        <time>2014-02-24T13:05:46Z</time>
      </trkpt>
      <trkpt lat="46.93108" lon="11.84238">
        <ele>1815.1</ele>
        <time>2014-02-24T13:06:00Z</time>
      </trkpt>
      <trkpt lat="46.93106" lon="11.84238">
        <ele>1815.6</ele>
        <time>2014-02-24T13:06:21Z</time>
      </trkpt>
      <trkpt lat="46.93107" lon="11.84241">
        <ele>1815.6</ele>
        <time>2014-02-24T13:06:47Z</time>
      </trkpt>
      <trkpt lat="46.93108" lon="11.84244">
        <ele>1816.1</ele>
        <time>2014-02-24T13:07:04Z</time>
      </trkpt>
      <trkpt lat="46.93109" lon="11.84243">
        <ele>1817</ele>
        <time>2014-02-24T13:07:18Z</time>
      </trkpt>
      <trkpt lat="46.93111" lon="11.84242">
        <ele>1817</ele>
        <time>2014-02-24T13:07:33Z</time>
      </trkpt>
      <trkpt lat="46.93112" lon="11.84245">
        <ele>1817</ele>
        <time>2014-02-24T13:07:48Z</time>
      </trkpt>
      <trkpt lat="46.93107" lon="11.84238">
        <ele>1817</ele>
        <time>2014-02-24T13:08:02Z</time>
      </trkpt>
      <trkpt lat="46.93101" lon="11.84241">
        <ele>1817</ele>
        <time>2014-02-24T13:08:13Z</time>
      </trkpt>
      <trkpt lat="46.93096" lon="11.84238">
        <ele>1817</ele>
        <time>2014-02-24T13:08:21Z</time>
      </trkpt>
      <trkpt lat="46.93091" lon="11.84237">
        <ele>1817.5</ele>
        <time>2014-02-24T13:08:36Z</time>
      </trkpt>
      <trkpt lat="46.9309" lon="11.84234">
        <ele>1817.5</ele>
        <time>2014-02-24T13:08:55Z</time>
      </trkpt>
      <trkpt lat="46.93092" lon="11.84236">
        <ele>1818</ele>
        <time>2014-02-24T13:09:11Z</time>
      </trkpt>
      <trkpt lat="46.93091" lon="11.84239">
        <ele>1817.5</ele>
        <time>2014-02-24T13:09:31Z</time>
      </trkpt>
      <trkpt lat="46.93092" lon="11.84241">
        <ele>1817.5</ele>
        <time>2014-02-24T13:09:48Z</time>
      </trkpt>
      <trkpt lat="46.93093" lon="11.84237">
        <ele>1818</ele>
        <time>2014-02-24T13:10:03Z</time>
      </trkpt>
      <trkpt lat="46.93092" lon="11.84242">
        <ele>1818</ele>
        <time>2014-02-24T13:10:10Z</time>
      </trkpt>
      <trkpt lat="46.93107" lon="11.84253">
        <ele>1814.6</ele>
        <time>2014-02-24T13:10:15Z</time>
      </trkpt>
      <trkpt lat="46.93115" lon="11.84256">
        <ele>1813.7</ele>
        <time>2014-02-24T13:10:17Z</time>
      </trkpt>
      <trkpt lat="46.93123" lon="11.84261">
        <ele>1812.7</ele>
        <time>2014-02-24T13:10:24Z</time>
      </trkpt>
      <trkpt lat="46.93113" lon="11.84268">
        <ele>1810.3</ele>
        <time>2014-02-24T13:10:32Z</time>
      </trkpt>
      <trkpt lat="46.9311" lon="11.84268">
        <ele>1810.3</ele>
        <time>2014-02-24T13:10:51Z</time>
      </trkpt>
      <trkpt lat="46.93111" lon="11.84269">
        <ele>1810.3</ele>
        <time>2014-02-24T13:11:12Z</time>
      </trkpt>
      <trkpt lat="46.93109" lon="11.84267">
        <ele>1810.3</ele>
        <time>2014-02-24T13:11:31Z</time>
      </trkpt>
      <trkpt lat="46.9311" lon="11.84265">
        <ele>1809.8</ele>
        <time>2014-02-24T13:11:57Z</time>
      </trkpt>
      <trkpt lat="46.9311" lon="11.84267">
        <ele>1810.3</ele>
        <time>2014-02-24T13:12:15Z</time>
      </trkpt>
      <trkpt lat="46.9311" lon="11.84267">
        <ele>1809.8</ele>
        <time>2014-02-24T13:12:34Z</time>
      </trkpt>
      <trkpt lat="46.93112" lon="11.84269">
        <ele>1809.3</ele>
        <time>2014-02-24T13:12:53Z</time>
      </trkpt>
      <trkpt lat="46.93111" lon="11.84267">
        <ele>1809.8</ele>
        <time>2014-02-24T13:13:14Z</time>
      </trkpt>
      <trkpt lat="46.93111" lon="11.84269">
        <ele>1809.8</ele>
        <time>2014-02-24T13:13:40Z</time>
      </trkpt>
      <trkpt lat="46.93109" lon="11.84296">
        <ele>1805.5</ele>
        <time>2014-02-24T13:13:46Z</time>
      </trkpt>
      <trkpt lat="46.9311" lon="11.84322">
        <ele>1800.2</ele>
        <time>2014-02-24T13:13:49Z</time>
      </trkpt>
      <trkpt lat="46.93116" lon="11.84332">
        <ele>1797.8</ele>
        <time>2014-02-24T13:13:51Z</time>
      </trkpt>
      <trkpt lat="46.93125" lon="11.84338">
        <ele>1796.4</ele>
        <time>2014-02-24T13:13:53Z</time>
      </trkpt>
      <trkpt lat="46.93134" lon="11.84353">
        <ele>1794</ele>
        <time>2014-02-24T13:13:56Z</time>
      </trkpt>
      <trkpt lat="46.93143" lon="11.84376">
        <ele>1788.7</ele>
        <time>2014-02-24T13:13:59Z</time>
      </trkpt>
      <trkpt lat="46.93157" lon="11.84391">
        <ele>1784.8</ele>
        <time>2014-02-24T13:14:02Z</time>
      </trkpt>
      <trkpt lat="46.93169" lon="11.84408">
        <ele>1781.5</ele>
        <time>2014-02-24T13:14:05Z</time>
      </trkpt>
      <trkpt lat="46.93181" lon="11.8442">
        <ele>1778.6</ele>
        <time>2014-02-24T13:14:08Z</time>
      </trkpt>
      <trkpt lat="46.93189" lon="11.84423">
        <ele>1778.1</ele>
        <time>2014-02-24T13:14:16Z</time>
      </trkpt>
      <trkpt lat="46.93189" lon="11.84424">
        <ele>1777.6</ele>
        <time>2014-02-24T13:14:19Z</time>
      </trkpt>
      <trkpt lat="46.93189" lon="11.84431">
        <ele>1777.1</ele>
        <time>2014-02-24T13:14:22Z</time>
      </trkpt>
      <trkpt lat="46.93188" lon="11.84442">
        <ele>1774.7</ele>
        <time>2014-02-24T13:14:26Z</time>
      </trkpt>
      <trkpt lat="46.9319" lon="11.84442">
        <ele>1774.2</ele>
        <time>2014-02-24T13:14:37Z</time>
      </trkpt>
      <trkpt lat="46.9319" lon="11.8444">
        <ele>1774.2</ele>
        <time>2014-02-24T13:14:44Z</time>
      </trkpt>
      <trkpt lat="46.9319" lon="11.8446">
        <ele>1770.9</ele>
        <time>2014-02-24T13:14:52Z</time>
      </trkpt>
      <trkpt lat="46.93195" lon="11.84465">
        <ele>1768.5</ele>
        <time>2014-02-24T13:14:54Z</time>
      </trkpt>
      <trkpt lat="46.93201" lon="11.84472">
        <ele>1767.5</ele>
        <time>2014-02-24T13:14:56Z</time>
      </trkpt>
      <trkpt lat="46.9322" lon="11.84482">
        <ele>1765.1</ele>
        <time>2014-02-24T13:15:02Z</time>
      </trkpt>
      <trkpt lat="46.93238" lon="11.84503">
        <ele>1761.8</ele>
        <time>2014-02-24T13:15:06Z</time>
      </trkpt>
      <trkpt lat="46.93247" lon="11.84518">
        <ele>1759.8</ele>
        <time>2014-02-24T13:15:08Z</time>
      </trkpt>
      <trkpt lat="46.93259" lon="11.84546">
        <ele>1755.5</ele>
        <time>2014-02-24T13:15:11Z</time>
      </trkpt>
      <trkpt lat="46.93274" lon="11.84599">
        <ele>1755</ele>
        <time>2014-02-24T13:15:18Z</time>
      </trkpt>
      <trkpt lat="46.93275" lon="11.84618">
        <ele>1754.5</ele>
        <time>2014-02-24T13:15:21Z</time>
      </trkpt>
      <trkpt lat="46.93278" lon="11.84643">
        <ele>1753.6</ele>
        <time>2014-02-24T13:15:30Z</time>
      </trkpt>
      <trkpt lat="46.93278" lon="11.84644">
        <ele>1753.1</ele>
        <time>2014-02-24T13:15:47Z</time>
      </trkpt>
      <trkpt lat="46.9328" lon="11.84658">
        <ele>1752.1</ele>
        <time>2014-02-24T13:15:54Z</time>
      </trkpt>
      <trkpt lat="46.93281" lon="11.84663">
        <ele>1751.7</ele>
        <time>2014-02-24T13:16:04Z</time>
      </trkpt>
      <trkpt lat="46.93291" lon="11.84689">
        <ele>1748.8</ele>
        <time>2014-02-24T13:16:15Z</time>
      </trkpt>
      <trkpt lat="46.933" lon="11.84702">
        <ele>1746.8</ele>
        <time>2014-02-24T13:16:18Z</time>
      </trkpt>
      <trkpt lat="46.93304" lon="11.84705">
        <ele>1746.4</ele>
        <time>2014-02-24T13:16:19Z</time>
      </trkpt>
      <trkpt lat="46.93327" lon="11.84728">
        <ele>1742.1</ele>
        <time>2014-02-24T13:16:25Z</time>
      </trkpt>
      <trkpt lat="46.93336" lon="11.84736">
        <ele>1740.6</ele>
        <time>2014-02-24T13:16:27Z</time>
      </trkpt>
      <trkpt lat="46.93345" lon="11.8474">
        <ele>1739.2</ele>
        <time>2014-02-24T13:16:29Z</time>
      </trkpt>
      <trkpt lat="46.9337" lon="11.84755">
        <ele>1736.3</ele>
        <time>2014-02-24T13:16:35Z</time>
      </trkpt>
      <trkpt lat="46.93378" lon="11.8476">
        <ele>1735.3</ele>
        <time>2014-02-24T13:16:37Z</time>
      </trkpt>
      <trkpt lat="46.93386" lon="11.84766">
        <ele>1733.9</ele>
        <time>2014-02-24T13:16:39Z</time>
      </trkpt>
      <trkpt lat="46.93401" lon="11.84774">
        <ele>1731.5</ele>
        <time>2014-02-24T13:16:43Z</time>
      </trkpt>
      <trkpt lat="46.93416" lon="11.84779">
        <ele>1729.1</ele>
        <time>2014-02-24T13:16:46Z</time>
      </trkpt>
      <trkpt lat="46.9343" lon="11.84783">
        <ele>1726.7</ele>
        <time>2014-02-24T13:16:49Z</time>
      </trkpt>
      <trkpt lat="46.93437" lon="11.84785">
        <ele>1725.2</ele>
        <time>2014-02-24T13:16:52Z</time>
      </trkpt>
      <trkpt lat="46.93448" lon="11.84789">
        <ele>1721.4</ele>
        <time>2014-02-24T13:17:04Z</time>
      </trkpt>
      <trkpt lat="46.93458" lon="11.84793">
        <ele>1718.5</ele>
        <time>2014-02-24T13:17:07Z</time>
      </trkpt>
      <trkpt lat="46.93496" lon="11.8481">
        <ele>1713.7</ele>
        <time>2014-02-24T13:17:12Z</time>
      </trkpt>
      <trkpt lat="46.93516" lon="11.8482">
        <ele>1710.8</ele>
        <time>2014-02-24T13:17:14Z</time>
      </trkpt>
      <trkpt lat="46.93544" lon="11.84833">
        <ele>1707</ele>
        <time>2014-02-24T13:17:17Z</time>
      </trkpt>
      <trkpt lat="46.93598" lon="11.84881">
        <ele>1709.8</ele>
        <time>2014-02-24T13:17:24Z</time>
      </trkpt>
      <trkpt lat="46.93602" lon="11.84882">
        <ele>1710.3</ele>
        <time>2014-02-24T13:17:25Z</time>
      </trkpt>
      <trkpt lat="46.9361" lon="11.84894">
        <ele>1711.3</ele>
        <time>2014-02-24T13:17:36Z</time>
      </trkpt>
      <trkpt lat="46.93613" lon="11.8491">
        <ele>1712.7</ele>
        <time>2014-02-24T13:17:50Z</time>
      </trkpt>
      <trkpt lat="46.93613" lon="11.84924">
        <ele>1713.7</ele>
        <time>2014-02-24T13:18:05Z</time>
      </trkpt>
      <trkpt lat="46.9361" lon="11.84934">
        <ele>1714.2</ele>
        <time>2014-02-24T13:18:18Z</time>
      </trkpt>
      <trkpt lat="46.93606" lon="11.84943">
        <ele>1714.7</ele>
        <time>2014-02-24T13:18:31Z</time>
      </trkpt>
      <trkpt lat="46.93605" lon="11.84953">
        <ele>1715.6</ele>
        <time>2014-02-24T13:18:45Z</time>
      </trkpt>
      <trkpt lat="46.93603" lon="11.84961">
        <ele>1716.1</ele>
        <time>2014-02-24T13:18:58Z</time>
      </trkpt>
      <trkpt lat="46.93601" lon="11.8497">
        <ele>1717.1</ele>
        <time>2014-02-24T13:19:13Z</time>
      </trkpt>
      <trkpt lat="46.93598" lon="11.84983">
        <ele>1717.5</ele>
        <time>2014-02-24T13:19:29Z</time>
      </trkpt>
      <trkpt lat="46.93603" lon="11.84993">
        <ele>1718.5</ele>
        <time>2014-02-24T13:19:44Z</time>
      </trkpt>
      <trkpt lat="46.93612" lon="11.85">
        <ele>1719</ele>
        <time>2014-02-24T13:19:59Z</time>
      </trkpt>
      <trkpt lat="46.9362" lon="11.85005">
        <ele>1719.9</ele>
        <time>2014-02-24T13:20:12Z</time>
      </trkpt>
      <trkpt lat="46.93626" lon="11.8501">
        <ele>1720.4</ele>
        <time>2014-02-24T13:20:26Z</time>
      </trkpt>
      <trkpt lat="46.9363" lon="11.85011">
        <ele>1721.4</ele>
        <time>2014-02-24T13:20:39Z</time>
      </trkpt>
      <trkpt lat="46.93635" lon="11.85009">
        <ele>1722.3</ele>
        <time>2014-02-24T13:20:50Z</time>
      </trkpt>
      <trkpt lat="46.93643" lon="11.85011">
        <ele>1723.3</ele>
        <time>2014-02-24T13:21:06Z</time>
      </trkpt>
      <trkpt lat="46.93651" lon="11.85017">
        <ele>1723.3</ele>
        <time>2014-02-24T13:21:19Z</time>
      </trkpt>
      <trkpt lat="46.9366" lon="11.85023">
        <ele>1724.3</ele>
        <time>2014-02-24T13:21:33Z</time>
      </trkpt>
      <trkpt lat="46.93665" lon="11.85026">
        <ele>1724.3</ele>
        <time>2014-02-24T13:21:46Z</time>
      </trkpt>
      <trkpt lat="46.93663" lon="11.85028">
        <ele>1724.3</ele>
        <time>2014-02-24T13:22:03Z</time>
      </trkpt>
      <trkpt lat="46.93666" lon="11.85031">
        <ele>1724.3</ele>
        <time>2014-02-24T13:22:17Z</time>
      </trkpt>
      <trkpt lat="46.93671" lon="11.85035">
        <ele>1724.3</ele>
        <time>2014-02-24T13:22:29Z</time>
      </trkpt>
      <trkpt lat="46.93681" lon="11.85048">
        <ele>1723.8</ele>
        <time>2014-02-24T13:22:37Z</time>
      </trkpt>
      <trkpt lat="46.93722" lon="11.85089">
        <ele>1721.4</ele>
        <time>2014-02-24T13:22:53Z</time>
      </trkpt>
      <trkpt lat="46.93762" lon="11.8512">
        <ele>1719</ele>
        <time>2014-02-24T13:23:09Z</time>
      </trkpt>
      <trkpt lat="46.93775" lon="11.85129">
        <ele>1718</ele>
        <time>2014-02-24T13:23:13Z</time>
      </trkpt>
      <trkpt lat="46.93786" lon="11.85135">
        <ele>1716.6</ele>
        <time>2014-02-24T13:23:16Z</time>
      </trkpt>
      <trkpt lat="46.93798" lon="11.85138">
        <ele>1715.1</ele>
        <time>2014-02-24T13:23:19Z</time>
      </trkpt>
      <trkpt lat="46.93811" lon="11.85138">
        <ele>1713.2</ele>
        <time>2014-02-24T13:23:22Z</time>
      </trkpt>
      <trkpt lat="46.93821" lon="11.85138">
        <ele>1711.3</ele>
        <time>2014-02-24T13:23:24Z</time>
      </trkpt>
      <trkpt lat="46.93832" lon="11.8514">
        <ele>1708.9</ele>
        <time>2014-02-24T13:23:27Z</time>
      </trkpt>
      <trkpt lat="46.93846" lon="11.85142">
        <ele>1706</ele>
        <time>2014-02-24T13:23:30Z</time>
      </trkpt>
      <trkpt lat="46.93909" lon="11.85207">
        <ele>1702.6</ele>
        <time>2014-02-24T13:23:39Z</time>
      </trkpt>
      <trkpt lat="46.93918" lon="11.85218">
        <ele>1701.2</ele>
        <time>2014-02-24T13:23:41Z</time>
      </trkpt>
      <trkpt lat="46.93923" lon="11.85218">
        <ele>1701.7</ele>
        <time>2014-02-24T13:23:50Z</time>
      </trkpt>
      <trkpt lat="46.9392" lon="11.85216">
        <ele>1701.2</ele>
        <time>2014-02-24T13:24:07Z</time>
      </trkpt>
      <trkpt lat="46.93919" lon="11.85216">
        <ele>1701.7</ele>
        <time>2014-02-24T13:24:33Z</time>
      </trkpt>
      <trkpt lat="46.93918" lon="11.8522">
        <ele>1701.7</ele>
        <time>2014-02-24T13:24:50Z</time>
      </trkpt>
      <trkpt lat="46.93935" lon="11.85266">
        <ele>1698.8</ele>
        <time>2014-02-24T13:25:02Z</time>
      </trkpt>
      <trkpt lat="46.93937" lon="11.85273">
        <ele>1698.8</ele>
        <time>2014-02-24T13:25:03Z</time>
      </trkpt>
      <trkpt lat="46.9395" lon="11.85295">
        <ele>1697.3</ele>
        <time>2014-02-24T13:25:07Z</time>
      </trkpt>
      <trkpt lat="46.93975" lon="11.85341">
        <ele>1695.4</ele>
        <time>2014-02-24T13:25:16Z</time>
      </trkpt>
      <trkpt lat="46.93985" lon="11.85365">
        <ele>1693.5</ele>
        <time>2014-02-24T13:25:21Z</time>
      </trkpt>
      <trkpt lat="46.93989" lon="11.85379">
        <ele>1693</ele>
        <time>2014-02-24T13:25:24Z</time>
      </trkpt>
      <trkpt lat="46.94003" lon="11.85409">
        <ele>1690.1</ele>
        <time>2014-02-24T13:25:30Z</time>
      </trkpt>
      <trkpt lat="46.94013" lon="11.85429">
        <ele>1688.2</ele>
        <time>2014-02-24T13:25:34Z</time>
      </trkpt>
      <trkpt lat="46.94018" lon="11.8544">
        <ele>1686.8</ele>
        <time>2014-02-24T13:25:36Z</time>
      </trkpt>
      <trkpt lat="46.9403" lon="11.85476">
        <ele>1682.9</ele>
        <time>2014-02-24T13:25:42Z</time>
      </trkpt>
      <trkpt lat="46.94037" lon="11.85502">
        <ele>1681</ele>
        <time>2014-02-24T13:25:46Z</time>
      </trkpt>
      <trkpt lat="46.94039" lon="11.85515">
        <ele>1679.6</ele>
        <time>2014-02-24T13:25:48Z</time>
      </trkpt>
      <trkpt lat="46.94043" lon="11.85552">
        <ele>1676.2</ele>
        <time>2014-02-24T13:25:53Z</time>
      </trkpt>
      <trkpt lat="46.94044" lon="11.85568">
        <ele>1674.8</ele>
        <time>2014-02-24T13:25:55Z</time>
      </trkpt>
      <trkpt lat="46.94045" lon="11.85585">
        <ele>1672.8</ele>
        <time>2014-02-24T13:25:57Z</time>
      </trkpt>
      <trkpt lat="46.94047" lon="11.85601">
        <ele>1671.9</ele>
        <time>2014-02-24T13:25:59Z</time>
      </trkpt>
      <trkpt lat="46.94048" lon="11.85617">
        <ele>1669.9</ele>
        <time>2014-02-24T13:26:01Z</time>
      </trkpt>
      <trkpt lat="46.9405" lon="11.85649">
        <ele>1667.1</ele>
        <time>2014-02-24T13:26:05Z</time>
      </trkpt>
      <trkpt lat="46.94058" lon="11.85693">
        <ele>1663.2</ele>
        <time>2014-02-24T13:26:11Z</time>
      </trkpt>
      <trkpt lat="46.94058" lon="11.857">
        <ele>1662.7</ele>
        <time>2014-02-24T13:26:12Z</time>
      </trkpt>
      <trkpt lat="46.94061" lon="11.85742">
        <ele>1659.8</ele>
        <time>2014-02-24T13:26:17Z</time>
      </trkpt>
      <trkpt lat="46.94063" lon="11.85768">
        <ele>1657.4</ele>
        <time>2014-02-24T13:26:20Z</time>
      </trkpt>
      <trkpt lat="46.94065" lon="11.85794">
        <ele>1654.6</ele>
        <time>2014-02-24T13:26:23Z</time>
      </trkpt>
      <trkpt lat="46.94067" lon="11.85837">
        <ele>1651.7</ele>
        <time>2014-02-24T13:26:28Z</time>
      </trkpt>
      <trkpt lat="46.94067" lon="11.85871">
        <ele>1649.3</ele>
        <time>2014-02-24T13:26:32Z</time>
      </trkpt>
      <trkpt lat="46.94067" lon="11.8588">
        <ele>1647.8</ele>
        <time>2014-02-24T13:26:33Z</time>
      </trkpt>
      <trkpt lat="46.94067" lon="11.85907">
        <ele>1646.4</ele>
        <time>2014-02-24T13:26:36Z</time>
      </trkpt>
      <trkpt lat="46.94067" lon="11.85916">
        <ele>1645.4</ele>
        <time>2014-02-24T13:26:37Z</time>
      </trkpt>
      <trkpt lat="46.94066" lon="11.8595">
        <ele>1642.1</ele>
        <time>2014-02-24T13:26:41Z</time>
      </trkpt>
      <trkpt lat="46.94065" lon="11.85981">
        <ele>1639.7</ele>
        <time>2014-02-24T13:26:45Z</time>
      </trkpt>
      <trkpt lat="46.94066" lon="11.86008">
        <ele>1637.3</ele>
        <time>2014-02-24T13:26:50Z</time>
      </trkpt>
      <trkpt lat="46.94068" lon="11.86027">
        <ele>1635.3</ele>
        <time>2014-02-24T13:26:55Z</time>
      </trkpt>
      <trkpt lat="46.9407" lon="11.86052">
        <ele>1632.5</ele>
        <time>2014-02-24T13:27:00Z</time>
      </trkpt>
      <trkpt lat="46.9407" lon="11.86058">
        <ele>1632</ele>
        <time>2014-02-24T13:27:01Z</time>
      </trkpt>
      <trkpt lat="46.9407" lon="11.86074">
        <ele>1630.5</ele>
        <time>2014-02-24T13:27:04Z</time>
      </trkpt>
      <trkpt lat="46.9407" lon="11.86085">
        <ele>1629.1</ele>
        <time>2014-02-24T13:27:06Z</time>
      </trkpt>
      <trkpt lat="46.94073" lon="11.86109">
        <ele>1627.2</ele>
        <time>2014-02-24T13:27:10Z</time>
      </trkpt>
      <trkpt lat="46.94074" lon="11.86143">
        <ele>1623.8</ele>
        <time>2014-02-24T13:27:15Z</time>
      </trkpt>
      <trkpt lat="46.94074" lon="11.86156">
        <ele>1622.4</ele>
        <time>2014-02-24T13:27:17Z</time>
      </trkpt>
      <trkpt lat="46.94076" lon="11.86198">
        <ele>1619</ele>
        <time>2014-02-24T13:27:24Z</time>
      </trkpt>
      <trkpt lat="46.94082" lon="11.86197">
        <ele>1618.5</ele>
        <time>2014-02-24T13:27:33Z</time>
      </trkpt>
      <trkpt lat="46.94082" lon="11.8619">
        <ele>1618.5</ele>
        <time>2014-02-24T13:27:53Z</time>
      </trkpt>
      <trkpt lat="46.94081" lon="11.86192">
        <ele>1618.5</ele>
        <time>2014-02-24T13:28:11Z</time>
      </trkpt>
      <trkpt lat="46.94086" lon="11.86197">
        <ele>1618.5</ele>
        <time>2014-02-24T13:28:24Z</time>
      </trkpt>
      <trkpt lat="46.94087" lon="11.86219">
        <ele>1616.1</ele>
        <time>2014-02-24T13:28:29Z</time>
      </trkpt>
      <trkpt lat="46.94088" lon="11.86245">
        <ele>1613.7</ele>
        <time>2014-02-24T13:28:33Z</time>
      </trkpt>
      <trkpt lat="46.94088" lon="11.8628">
        <ele>1609.9</ele>
        <time>2014-02-24T13:28:38Z</time>
      </trkpt>
      <trkpt lat="46.94087" lon="11.86287">
        <ele>1609.4</ele>
        <time>2014-02-24T13:28:39Z</time>
      </trkpt>
      <trkpt lat="46.94083" lon="11.86313">
        <ele>1606.5</ele>
        <time>2014-02-24T13:28:43Z</time>
      </trkpt>
      <trkpt lat="46.94085" lon="11.86325">
        <ele>1605.1</ele>
        <time>2014-02-24T13:28:45Z</time>
      </trkpt>
      <trkpt lat="46.94088" lon="11.86337">
        <ele>1603.6</ele>
        <time>2014-02-24T13:28:47Z</time>
      </trkpt>
      <trkpt lat="46.94098" lon="11.86372">
        <ele>1599.8</ele>
        <time>2014-02-24T13:28:54Z</time>
      </trkpt>
      <trkpt lat="46.94093" lon="11.86371">
        <ele>1598.3</ele>
        <time>2014-02-24T13:28:56Z</time>
      </trkpt>
      <trkpt lat="46.94082" lon="11.86361">
        <ele>1595.4</ele>
        <time>2014-02-24T13:29:00Z</time>
      </trkpt>
      <trkpt lat="46.94075" lon="11.86353">
        <ele>1592.1</ele>
        <time>2014-02-24T13:29:04Z</time>
      </trkpt>
      <trkpt lat="46.94073" lon="11.86348">
        <ele>1590.6</ele>
        <time>2014-02-24T13:29:06Z</time>
      </trkpt>
      <trkpt lat="46.9413" lon="11.86244">
        <ele>1588.7</ele>
        <time>2014-02-24T13:29:10Z</time>
      </trkpt>
      <trkpt lat="46.94127" lon="11.86242">
        <ele>1588.7</ele>
        <time>2014-02-24T13:29:25Z</time>
      </trkpt>
      <trkpt lat="46.9413" lon="11.86221">
        <ele>1585.3</ele>
        <time>2014-02-24T13:29:33Z</time>
      </trkpt>
      <trkpt lat="46.9413" lon="11.86207">
        <ele>1583.9</ele>
        <time>2014-02-24T13:29:35Z</time>
      </trkpt>
      <trkpt lat="46.9413" lon="11.86199">
        <ele>1582.9</ele>
        <time>2014-02-24T13:29:36Z</time>
      </trkpt>
      <trkpt lat="46.94131" lon="11.86183">
        <ele>1582</ele>
        <time>2014-02-24T13:29:38Z</time>
      </trkpt>
      <trkpt lat="46.94134" lon="11.8616">
        <ele>1579.1</ele>
        <time>2014-02-24T13:29:41Z</time>
      </trkpt>
      <trkpt lat="46.94138" lon="11.86138">
        <ele>1576.7</ele>
        <time>2014-02-24T13:29:44Z</time>
      </trkpt>
      <trkpt lat="46.94144" lon="11.86116">
        <ele>1573.8</ele>
        <time>2014-02-24T13:29:47Z</time>
      </trkpt>
      <trkpt lat="46.94152" lon="11.86093">
        <ele>1570.9</ele>
        <time>2014-02-24T13:29:51Z</time>
      </trkpt>
      <trkpt lat="46.94153" lon="11.8609">
        <ele>1570.4</ele>
        <time>2014-02-24T13:29:52Z</time>
      </trkpt>
      <trkpt lat="46.94154" lon="11.86079">
        <ele>1569</ele>
        <time>2014-02-24T13:29:55Z</time>
      </trkpt>
      <trkpt lat="46.94156" lon="11.86073">
        <ele>1568.5</ele>
        <time>2014-02-24T13:30:10Z</time>
      </trkpt>
      <trkpt lat="46.94157" lon="11.86072">
        <ele>1568.5</ele>
        <time>2014-02-24T13:30:11Z</time>
      </trkpt>
      <trkpt lat="46.94161" lon="11.86059">
        <ele>1566.6</ele>
        <time>2014-02-24T13:30:18Z</time>
      </trkpt>
      <trkpt lat="46.9417" lon="11.86029">
        <ele>1563.7</ele>
        <time>2014-02-24T13:30:27Z</time>
      </trkpt>
      <trkpt lat="46.94171" lon="11.86017">
        <ele>1562.8</ele>
        <time>2014-02-24T13:30:29Z</time>
      </trkpt>
      <trkpt lat="46.94171" lon="11.86003">
        <ele>1560.8</ele>
        <time>2014-02-24T13:30:31Z</time>
      </trkpt>
      <trkpt lat="46.94174" lon="11.8598">
        <ele>1558.4</ele>
        <time>2014-02-24T13:30:34Z</time>
      </trkpt>
      <trkpt lat="46.94177" lon="11.85955">
        <ele>1556</ele>
        <time>2014-02-24T13:30:37Z</time>
      </trkpt>
      <trkpt lat="46.94185" lon="11.85924">
        <ele>1553.2</ele>
        <time>2014-02-24T13:30:41Z</time>
      </trkpt>
      <trkpt lat="46.94192" lon="11.85893">
        <ele>1549.8</ele>
        <time>2014-02-24T13:30:45Z</time>
      </trkpt>
      <trkpt lat="46.94193" lon="11.85885">
        <ele>1549.3</ele>
        <time>2014-02-24T13:30:46Z</time>
      </trkpt>
      <trkpt lat="46.94201" lon="11.85828">
        <ele>1544</ele>
        <time>2014-02-24T13:30:53Z</time>
      </trkpt>
      <trkpt lat="46.94206" lon="11.85797">
        <ele>1541.1</ele>
        <time>2014-02-24T13:30:57Z</time>
      </trkpt>
      <trkpt lat="46.94211" lon="11.85766">
        <ele>1538.2</ele>
        <time>2014-02-24T13:31:01Z</time>
      </trkpt>
      <trkpt lat="46.94217" lon="11.85737">
        <ele>1534.9</ele>
        <time>2014-02-24T13:31:05Z</time>
      </trkpt>
      <trkpt lat="46.94225" lon="11.85714">
        <ele>1532.5</ele>
        <time>2014-02-24T13:31:09Z</time>
      </trkpt>
      <trkpt lat="46.94233" lon="11.85689">
        <ele>1530.1</ele>
        <time>2014-02-24T13:31:13Z</time>
      </trkpt>
      <trkpt lat="46.9424" lon="11.85673">
        <ele>1528.2</ele>
        <time>2014-02-24T13:31:16Z</time>
      </trkpt>
      <trkpt lat="46.94247" lon="11.85659">
        <ele>1526.2</ele>
        <time>2014-02-24T13:31:20Z</time>
      </trkpt>
      <trkpt lat="46.94256" lon="11.85643">
        <ele>1523.8</ele>
        <time>2014-02-24T13:31:25Z</time>
      </trkpt>
      <trkpt lat="46.94266" lon="11.85625">
        <ele>1520.9</ele>
        <time>2014-02-24T13:31:29Z</time>
      </trkpt>
      <trkpt lat="46.94275" lon="11.8561">
        <ele>1519</ele>
        <time>2014-02-24T13:31:33Z</time>
      </trkpt>
      <trkpt lat="46.94284" lon="11.8564">
        <ele>1514.7</ele>
        <time>2014-02-24T13:31:39Z</time>
      </trkpt>
      <trkpt lat="46.94283" lon="11.85651">
        <ele>1513.2</ele>
        <time>2014-02-24T13:31:40Z</time>
      </trkpt>
      <trkpt lat="46.94281" lon="11.85665">
        <ele>1512.3</ele>
        <time>2014-02-24T13:31:42Z</time>
      </trkpt>
      <trkpt lat="46.94279" lon="11.85672">
        <ele>1511.3</ele>
        <time>2014-02-24T13:31:56Z</time>
      </trkpt>
      <trkpt lat="46.9428" lon="11.85674">
        <ele>1511.3</ele>
        <time>2014-02-24T13:32:08Z</time>
      </trkpt>
      <trkpt lat="46.9428" lon="11.85686">
        <ele>1510.4</ele>
        <time>2014-02-24T13:32:12Z</time>
      </trkpt>
      <trkpt lat="46.9428" lon="11.85715">
        <ele>1506.5</ele>
        <time>2014-02-24T13:32:16Z</time>
      </trkpt>
      <trkpt lat="46.94283" lon="11.85746">
        <ele>1503.2</ele>
        <time>2014-02-24T13:32:20Z</time>
      </trkpt>
      <trkpt lat="46.94277" lon="11.85783">
        <ele>1498.3</ele>
        <time>2014-02-24T13:32:25Z</time>
      </trkpt>
      <trkpt lat="46.94274" lon="11.8579">
        <ele>1496.9</ele>
        <time>2014-02-24T13:32:26Z</time>
      </trkpt>
      <trkpt lat="46.9427" lon="11.85805">
        <ele>1495</ele>
        <time>2014-02-24T13:32:28Z</time>
      </trkpt>
      <trkpt lat="46.9427" lon="11.85819">
        <ele>1494</ele>
        <time>2014-02-24T13:32:30Z</time>
      </trkpt>
      <trkpt lat="46.9427" lon="11.85826">
        <ele>1493.6</ele>
        <time>2014-02-24T13:32:31Z</time>
      </trkpt>
      <trkpt lat="46.94272" lon="11.85841">
        <ele>1492.1</ele>
        <time>2014-02-24T13:32:33Z</time>
      </trkpt>
      <trkpt lat="46.94273" lon="11.85872">
        <ele>1488.7</ele>
        <time>2014-02-24T13:32:37Z</time>
      </trkpt>
      <trkpt lat="46.94272" lon="11.85895">
        <ele>1485.4</ele>
        <time>2014-02-24T13:32:40Z</time>
      </trkpt>
      <trkpt lat="46.94273" lon="11.85916">
        <ele>1482.5</ele>
        <time>2014-02-24T13:32:43Z</time>
      </trkpt>
      <trkpt lat="46.94276" lon="11.85929">
        <ele>1482</ele>
        <time>2014-02-24T13:32:45Z</time>
      </trkpt>
      <trkpt lat="46.94279" lon="11.85939">
        <ele>1480.6</ele>
        <time>2014-02-24T13:32:47Z</time>
      </trkpt>
      <trkpt lat="46.94279" lon="11.85948">
        <ele>1479.1</ele>
        <time>2014-02-24T13:32:49Z</time>
      </trkpt>
      <trkpt lat="46.94281" lon="11.85951">
        <ele>1479.6</ele>
        <time>2014-02-24T13:33:04Z</time>
      </trkpt>
      <trkpt lat="46.94282" lon="11.85955">
        <ele>1479.1</ele>
        <time>2014-02-24T13:33:26Z</time>
      </trkpt>
      <trkpt lat="46.94278" lon="11.85967">
        <ele>1478.2</ele>
        <time>2014-02-24T13:33:44Z</time>
      </trkpt>
      <trkpt lat="46.94278" lon="11.85972">
        <ele>1477.7</ele>
        <time>2014-02-24T13:33:45Z</time>
      </trkpt>
      <trkpt lat="46.94276" lon="11.86003">
        <ele>1473.8</ele>
        <time>2014-02-24T13:33:50Z</time>
      </trkpt>
      <trkpt lat="46.9428" lon="11.86034">
        <ele>1470.5</ele>
        <time>2014-02-24T13:33:55Z</time>
      </trkpt>
      <trkpt lat="46.94285" lon="11.86047">
        <ele>1468.6</ele>
        <time>2014-02-24T13:33:59Z</time>
      </trkpt>
      <trkpt lat="46.94292" lon="11.8601">
        <ele>1465.2</ele>
        <time>2014-02-24T13:34:03Z</time>
      </trkpt>
      <trkpt lat="46.94298" lon="11.85979">
        <ele>1461.3</ele>
        <time>2014-02-24T13:34:07Z</time>
      </trkpt>
      <trkpt lat="46.94313" lon="11.85947">
        <ele>1457.5</ele>
        <time>2014-02-24T13:34:12Z</time>
      </trkpt>
      <trkpt lat="46.94315" lon="11.85932">
        <ele>1456.5</ele>
        <time>2014-02-24T13:34:14Z</time>
      </trkpt>
      <trkpt lat="46.9432" lon="11.85902">
        <ele>1453.2</ele>
        <time>2014-02-24T13:34:18Z</time>
      </trkpt>
      <trkpt lat="46.94322" lon="11.85895">
        <ele>1452.7</ele>
        <time>2014-02-24T13:34:19Z</time>
      </trkpt>
      <trkpt lat="46.94334" lon="11.85859">
        <ele>1448.4</ele>
        <time>2014-02-24T13:34:24Z</time>
      </trkpt>
      <trkpt lat="46.9434" lon="11.85845">
        <ele>1446.9</ele>
        <time>2014-02-24T13:34:26Z</time>
      </trkpt>
      <trkpt lat="46.9435" lon="11.85822">
        <ele>1445.5</ele>
        <time>2014-02-24T13:34:29Z</time>
      </trkpt>
      <trkpt lat="46.94361" lon="11.85802">
        <ele>1444</ele>
        <time>2014-02-24T13:34:32Z</time>
      </trkpt>
      <trkpt lat="46.9438" lon="11.85786">
        <ele>1442.1</ele>
        <time>2014-02-24T13:34:37Z</time>
      </trkpt>
      <trkpt lat="46.94392" lon="11.85782">
        <ele>1442.1</ele>
        <time>2014-02-24T13:34:46Z</time>
      </trkpt>
      <trkpt lat="46.94399" lon="11.85777">
        <ele>1441.6</ele>
        <time>2014-02-24T13:34:57Z</time>
      </trkpt>
      <trkpt lat="46.94418" lon="11.85758">
        <ele>1438.8</ele>
        <time>2014-02-24T13:35:08Z</time>
      </trkpt>
      <trkpt lat="46.94424" lon="11.85753">
        <ele>1438.3</ele>
        <time>2014-02-24T13:35:12Z</time>
      </trkpt>
      <trkpt lat="46.9443" lon="11.85736">
        <ele>1435.9</ele>
        <time>2014-02-24T13:35:19Z</time>
      </trkpt>
      <trkpt lat="46.94439" lon="11.85707">
        <ele>1432.5</ele>
        <time>2014-02-24T13:35:31Z</time>
      </trkpt>
      <trkpt lat="46.94439" lon="11.85698">
        <ele>1431.5</ele>
        <time>2014-02-24T13:35:43Z</time>
      </trkpt>
      <trkpt lat="46.9444" lon="11.85685">
        <ele>1430.6</ele>
        <time>2014-02-24T13:35:46Z</time>
      </trkpt>
      <trkpt lat="46.94451" lon="11.85661">
        <ele>1426.7</ele>
        <time>2014-02-24T13:35:50Z</time>
      </trkpt>
      <trkpt lat="46.94467" lon="11.8565">
        <ele>1423.4</ele>
        <time>2014-02-24T13:35:54Z</time>
      </trkpt>
      <trkpt lat="46.94485" lon="11.85625">
        <ele>1420.5</ele>
        <time>2014-02-24T13:36:00Z</time>
      </trkpt>
      <trkpt lat="46.94488" lon="11.85617">
        <ele>1419</ele>
        <time>2014-02-24T13:36:02Z</time>
      </trkpt>
      <trkpt lat="46.94488" lon="11.85617">
        <ele>1418.6</ele>
        <time>2014-02-24T13:36:19Z</time>
      </trkpt>
      <trkpt lat="46.94491" lon="11.85613">
        <ele>1416.6</ele>
        <time>2014-02-24T13:36:22Z</time>
      </trkpt>
      <trkpt lat="46.94503" lon="11.85607">
        <ele>1411.8</ele>
        <time>2014-02-24T13:36:25Z</time>
      </trkpt>
      <trkpt lat="46.94508" lon="11.85602">
        <ele>1410.9</ele>
        <time>2014-02-24T13:36:26Z</time>
      </trkpt>
      <trkpt lat="46.94531" lon="11.8559">
        <ele>1406.6</ele>
        <time>2014-02-24T13:36:30Z</time>
      </trkpt>
      <trkpt lat="46.94542" lon="11.8559">
        <ele>1403.2</ele>
        <time>2014-02-24T13:36:32Z</time>
      </trkpt>
      <trkpt lat="46.94547" lon="11.8559">
        <ele>1403.2</ele>
        <time>2014-02-24T13:36:33Z</time>
      </trkpt>
      <trkpt lat="46.94552" lon="11.85591">
        <ele>1402.2</ele>
        <time>2014-02-24T13:36:34Z</time>
      </trkpt>
      <trkpt lat="46.94581" lon="11.85603">
        <ele>1398.9</ele>
        <time>2014-02-24T13:36:40Z</time>
      </trkpt>
      <trkpt lat="46.946" lon="11.85612">
        <ele>1395</ele>
        <time>2014-02-24T13:36:44Z</time>
      </trkpt>
      <trkpt lat="46.94605" lon="11.85616">
        <ele>1395</ele>
        <time>2014-02-24T13:36:45Z</time>
      </trkpt>
      <trkpt lat="46.94609" lon="11.85619">
        <ele>1394.1</ele>
        <time>2014-02-24T13:36:46Z</time>
      </trkpt>
      <trkpt lat="46.94632" lon="11.85636">
        <ele>1391.2</ele>
        <time>2014-02-24T13:36:53Z</time>
      </trkpt>
      <trkpt lat="46.94656" lon="11.85644">
        <ele>1387.8</ele>
        <time>2014-02-24T13:37:04Z</time>
      </trkpt>
      <trkpt lat="46.94657" lon="11.85652">
        <ele>1386.8</ele>
        <time>2014-02-24T13:37:16Z</time>
      </trkpt>
      <trkpt lat="46.94664" lon="11.85658">
        <ele>1386.8</ele>
        <time>2014-02-24T13:37:30Z</time>
      </trkpt>
      <trkpt lat="46.94675" lon="11.85671">
        <ele>1386.4</ele>
        <time>2014-02-24T13:37:45Z</time>
      </trkpt>
      <trkpt lat="46.94673" lon="11.85701">
        <ele>1384.9</ele>
        <time>2014-02-24T13:37:56Z</time>
      </trkpt>
      <trkpt lat="46.94669" lon="11.85708">
        <ele>1384.4</ele>
        <time>2014-02-24T13:38:11Z</time>
      </trkpt>
      <trkpt lat="46.94668" lon="11.85707">
        <ele>1384</ele>
        <time>2014-02-24T13:38:31Z</time>
      </trkpt>
      <trkpt lat="46.94669" lon="11.85706">
        <ele>1384.4</ele>
        <time>2014-02-24T13:38:47Z</time>
      </trkpt>
      <trkpt lat="46.94673" lon="11.85707">
        <ele>1384.4</ele>
        <time>2014-02-24T13:39:12Z</time>
      </trkpt>
      <trkpt lat="46.94669" lon="11.85707">
        <ele>1384.4</ele>
        <time>2014-02-24T13:39:27Z</time>
      </trkpt>
      <trkpt lat="46.94668" lon="11.85708">
        <ele>1384.4</ele>
        <time>2014-02-24T13:39:42Z</time>
      </trkpt>
      <trkpt lat="46.94669" lon="11.85706">
        <ele>1384.4</ele>
        <time>2014-02-24T13:39:56Z</time>
      </trkpt>
      <trkpt lat="46.94669" lon="11.85705">
        <ele>1383</ele>
        <time>2014-02-24T13:40:14Z</time>
      </trkpt>
      <trkpt lat="46.94669" lon="11.85706">
        <ele>1383</ele>
        <time>2014-02-24T13:40:15Z</time>
      </trkpt>
      <trkpt lat="46.94668" lon="11.85705">
        <ele>1384.4</ele>
        <time>2014-02-24T13:40:32Z</time>
      </trkpt>
    </trkseg>
  </trk>
</gpx>